<?xml version="1.0" encoding="UTF-8" standalone="no" ?>
<gpx xmlns="http://www.topografix.com/GPX/1/1" xmlns:xsi="http://www.w3.org/2001/XMLSchema-instance" xsi:schemaLocation="http://www.topografix.com/GPX/1/1 http://www.topografix.com/GPX/1/1/gpx.xsd" version="1.1" creator="VisuGPX - https://www.visugpx.com">
  <metadata>
    <name>13 - D+  la Ciotat </name>
    <desc><![CDATA[13 - D+  la Ciotat : sur la piste de l'arche perdue 
2022-05-01]]></desc>
  </metadata>
  <trk>
    <name><![CDATA[la Ciotat sur la piste de l'arche perdue 2022-05-01-01_]]></name>
    <trkseg>
      <trkpt lat="43.18156" lon="5.57095">
        <ele>249.7</ele>
        <time>2022-05-01T07:24:41Z</time>
      </trkpt>
      <trkpt lat="43.18156" lon="5.57095">
        <ele>249.7</ele>
        <time>2022-05-01T07:24:42Z</time>
      </trkpt>
      <trkpt lat="43.1815" lon="5.57106">
        <ele>249.1</ele>
        <time>2022-05-01T07:27:49Z</time>
      </trkpt>
      <trkpt lat="43.18142" lon="5.57114">
        <ele>248.2</ele>
        <time>2022-05-01T07:28:02Z</time>
      </trkpt>
      <trkpt lat="43.18135" lon="5.57123">
        <ele>247.6</ele>
        <time>2022-05-01T07:28:19Z</time>
      </trkpt>
      <trkpt lat="43.18125" lon="5.57128">
        <ele>247.1</ele>
        <time>2022-05-01T07:28:28Z</time>
      </trkpt>
      <trkpt lat="43.18119" lon="5.57137">
        <ele>246.2</ele>
        <time>2022-05-01T07:28:37Z</time>
      </trkpt>
      <trkpt lat="43.18114" lon="5.57148">
        <ele>245.7</ele>
        <time>2022-05-01T07:28:47Z</time>
      </trkpt>
      <trkpt lat="43.18109" lon="5.5716">
        <ele>244.8</ele>
        <time>2022-05-01T07:28:57Z</time>
      </trkpt>
      <trkpt lat="43.18101" lon="5.57166">
        <ele>243.8</ele>
        <time>2022-05-01T07:29:07Z</time>
      </trkpt>
      <trkpt lat="43.18093" lon="5.57172">
        <ele>242.7</ele>
        <time>2022-05-01T07:29:15Z</time>
      </trkpt>
      <trkpt lat="43.18087" lon="5.57183">
        <ele>241.4</ele>
        <time>2022-05-01T07:29:24Z</time>
      </trkpt>
      <trkpt lat="43.18078" lon="5.57187">
        <ele>239.9</ele>
        <time>2022-05-01T07:29:35Z</time>
      </trkpt>
      <trkpt lat="43.1807" lon="5.57192">
        <ele>239.2</ele>
        <time>2022-05-01T07:29:45Z</time>
      </trkpt>
      <trkpt lat="43.18062" lon="5.572">
        <ele>238.8</ele>
        <time>2022-05-01T07:29:54Z</time>
      </trkpt>
      <trkpt lat="43.18055" lon="5.57209">
        <ele>238</ele>
        <time>2022-05-01T07:30:03Z</time>
      </trkpt>
      <trkpt lat="43.18048" lon="5.57219">
        <ele>237.5</ele>
        <time>2022-05-01T07:30:12Z</time>
      </trkpt>
      <trkpt lat="43.18041" lon="5.57228">
        <ele>236.9</ele>
        <time>2022-05-01T07:30:20Z</time>
      </trkpt>
      <trkpt lat="43.18034" lon="5.57235">
        <ele>236.8</ele>
        <time>2022-05-01T07:30:27Z</time>
      </trkpt>
      <trkpt lat="43.18025" lon="5.5724">
        <ele>236.3</ele>
        <time>2022-05-01T07:30:35Z</time>
      </trkpt>
      <trkpt lat="43.18018" lon="5.57249">
        <ele>235.9</ele>
        <time>2022-05-01T07:30:43Z</time>
      </trkpt>
      <trkpt lat="43.18011" lon="5.57258">
        <ele>235.7</ele>
        <time>2022-05-01T07:30:51Z</time>
      </trkpt>
      <trkpt lat="43.18003" lon="5.57266">
        <ele>235.5</ele>
        <time>2022-05-01T07:30:59Z</time>
      </trkpt>
      <trkpt lat="43.17998" lon="5.57277">
        <ele>235.8</ele>
        <time>2022-05-01T07:31:07Z</time>
      </trkpt>
      <trkpt lat="43.17989" lon="5.57281">
        <ele>236.1</ele>
        <time>2022-05-01T07:31:16Z</time>
      </trkpt>
      <trkpt lat="43.17981" lon="5.57287">
        <ele>236.4</ele>
        <time>2022-05-01T07:31:42Z</time>
      </trkpt>
      <trkpt lat="43.17973" lon="5.57295">
        <ele>237.1</ele>
        <time>2022-05-01T07:31:52Z</time>
      </trkpt>
      <trkpt lat="43.17969" lon="5.57307">
        <ele>237.9</ele>
        <time>2022-05-01T07:32:02Z</time>
      </trkpt>
      <trkpt lat="43.17959" lon="5.57306">
        <ele>238.3</ele>
        <time>2022-05-01T07:32:18Z</time>
      </trkpt>
      <trkpt lat="43.1795" lon="5.57307">
        <ele>238.9</ele>
        <time>2022-05-01T07:32:28Z</time>
      </trkpt>
      <trkpt lat="43.1794" lon="5.57308">
        <ele>239</ele>
        <time>2022-05-01T07:32:37Z</time>
      </trkpt>
      <trkpt lat="43.1793" lon="5.57309">
        <ele>239</ele>
        <time>2022-05-01T07:32:46Z</time>
      </trkpt>
      <trkpt lat="43.1792" lon="5.57309">
        <ele>238.7</ele>
        <time>2022-05-01T07:32:54Z</time>
      </trkpt>
      <trkpt lat="43.17911" lon="5.57311">
        <ele>237.9</ele>
        <time>2022-05-01T07:33:03Z</time>
      </trkpt>
      <trkpt lat="43.17902" lon="5.57313">
        <ele>237.7</ele>
        <time>2022-05-01T07:33:13Z</time>
      </trkpt>
      <trkpt lat="43.17892" lon="5.5731">
        <ele>237.1</ele>
        <time>2022-05-01T07:33:24Z</time>
      </trkpt>
      <trkpt lat="43.17883" lon="5.5731">
        <ele>236.5</ele>
        <time>2022-05-01T07:33:35Z</time>
      </trkpt>
      <trkpt lat="43.17873" lon="5.57311">
        <ele>236</ele>
        <time>2022-05-01T07:34:17Z</time>
      </trkpt>
      <trkpt lat="43.17864" lon="5.57307">
        <ele>235.8</ele>
        <time>2022-05-01T07:34:26Z</time>
      </trkpt>
      <trkpt lat="43.17855" lon="5.57301">
        <ele>235.5</ele>
        <time>2022-05-01T07:34:34Z</time>
      </trkpt>
      <trkpt lat="43.17846" lon="5.57295">
        <ele>235.3</ele>
        <time>2022-05-01T07:34:43Z</time>
      </trkpt>
      <trkpt lat="43.17837" lon="5.57291">
        <ele>235.2</ele>
        <time>2022-05-01T07:34:52Z</time>
      </trkpt>
      <trkpt lat="43.17828" lon="5.57286">
        <ele>234.8</ele>
        <time>2022-05-01T07:35:02Z</time>
      </trkpt>
      <trkpt lat="43.17819" lon="5.57281">
        <ele>234.3</ele>
        <time>2022-05-01T07:35:10Z</time>
      </trkpt>
      <trkpt lat="43.17811" lon="5.57276">
        <ele>233.8</ele>
        <time>2022-05-01T07:35:18Z</time>
      </trkpt>
      <trkpt lat="43.17801" lon="5.57272">
        <ele>233.2</ele>
        <time>2022-05-01T07:35:27Z</time>
      </trkpt>
      <trkpt lat="43.17791" lon="5.57272">
        <ele>233</ele>
        <time>2022-05-01T07:35:35Z</time>
      </trkpt>
      <trkpt lat="43.17782" lon="5.57268">
        <ele>232.6</ele>
        <time>2022-05-01T07:35:43Z</time>
      </trkpt>
      <trkpt lat="43.17773" lon="5.57267">
        <ele>232.2</ele>
        <time>2022-05-01T07:35:51Z</time>
      </trkpt>
      <trkpt lat="43.17763" lon="5.57269">
        <ele>231.1</ele>
        <time>2022-05-01T07:35:59Z</time>
      </trkpt>
      <trkpt lat="43.17754" lon="5.57271">
        <ele>230.3</ele>
        <time>2022-05-01T07:36:07Z</time>
      </trkpt>
      <trkpt lat="43.17745" lon="5.57276">
        <ele>229.3</ele>
        <time>2022-05-01T07:36:15Z</time>
      </trkpt>
      <trkpt lat="43.17738" lon="5.57285">
        <ele>228.3</ele>
        <time>2022-05-01T07:36:24Z</time>
      </trkpt>
      <trkpt lat="43.17729" lon="5.57293">
        <ele>227.3</ele>
        <time>2022-05-01T07:36:33Z</time>
      </trkpt>
      <trkpt lat="43.17723" lon="5.57302">
        <ele>226.3</ele>
        <time>2022-05-01T07:36:42Z</time>
      </trkpt>
      <trkpt lat="43.17716" lon="5.57313">
        <ele>225.2</ele>
        <time>2022-05-01T07:36:51Z</time>
      </trkpt>
      <trkpt lat="43.17707" lon="5.57317">
        <ele>224.3</ele>
        <time>2022-05-01T07:37:00Z</time>
      </trkpt>
      <trkpt lat="43.177" lon="5.57324">
        <ele>223.4</ele>
        <time>2022-05-01T07:37:09Z</time>
      </trkpt>
      <trkpt lat="43.17692" lon="5.57331">
        <ele>223</ele>
        <time>2022-05-01T07:37:18Z</time>
      </trkpt>
      <trkpt lat="43.17683" lon="5.57332">
        <ele>222.4</ele>
        <time>2022-05-01T07:37:44Z</time>
      </trkpt>
      <trkpt lat="43.17673" lon="5.57336">
        <ele>222.1</ele>
        <time>2022-05-01T07:37:52Z</time>
      </trkpt>
      <trkpt lat="43.17665" lon="5.57341">
        <ele>221.9</ele>
        <time>2022-05-01T07:37:59Z</time>
      </trkpt>
      <trkpt lat="43.17655" lon="5.57344">
        <ele>221.6</ele>
        <time>2022-05-01T07:38:06Z</time>
      </trkpt>
      <trkpt lat="43.17646" lon="5.57348">
        <ele>221.6</ele>
        <time>2022-05-01T07:38:12Z</time>
      </trkpt>
      <trkpt lat="43.17637" lon="5.57351">
        <ele>221.5</ele>
        <time>2022-05-01T07:38:20Z</time>
      </trkpt>
      <trkpt lat="43.17626" lon="5.57351">
        <ele>222</ele>
        <time>2022-05-01T07:38:29Z</time>
      </trkpt>
      <trkpt lat="43.17617" lon="5.57352">
        <ele>222.4</ele>
        <time>2022-05-01T07:38:38Z</time>
      </trkpt>
      <trkpt lat="43.17607" lon="5.57356">
        <ele>223.1</ele>
        <time>2022-05-01T07:38:47Z</time>
      </trkpt>
      <trkpt lat="43.17597" lon="5.57358">
        <ele>223.6</ele>
        <time>2022-05-01T07:38:56Z</time>
      </trkpt>
      <trkpt lat="43.17588" lon="5.57362">
        <ele>223.9</ele>
        <time>2022-05-01T07:39:04Z</time>
      </trkpt>
      <trkpt lat="43.1758" lon="5.57366">
        <ele>224</ele>
        <time>2022-05-01T07:39:12Z</time>
      </trkpt>
      <trkpt lat="43.17571" lon="5.57369">
        <ele>224</ele>
        <time>2022-05-01T07:39:24Z</time>
      </trkpt>
      <trkpt lat="43.17581" lon="5.57367">
        <ele>223.8</ele>
        <time>2022-05-01T07:43:09Z</time>
      </trkpt>
      <trkpt lat="43.17589" lon="5.57363">
        <ele>223.8</ele>
        <time>2022-05-01T07:43:49Z</time>
      </trkpt>
      <trkpt lat="43.17599" lon="5.5736">
        <ele>223.2</ele>
        <time>2022-05-01T07:43:59Z</time>
      </trkpt>
      <trkpt lat="43.17608" lon="5.57357">
        <ele>222.8</ele>
        <time>2022-05-01T07:44:09Z</time>
      </trkpt>
      <trkpt lat="43.17618" lon="5.57355">
        <ele>222.5</ele>
        <time>2022-05-01T07:44:20Z</time>
      </trkpt>
      <trkpt lat="43.17628" lon="5.57355">
        <ele>221.7</ele>
        <time>2022-05-01T07:44:30Z</time>
      </trkpt>
      <trkpt lat="43.17637" lon="5.57353">
        <ele>221.2</ele>
        <time>2022-05-01T07:44:39Z</time>
      </trkpt>
      <trkpt lat="43.17645" lon="5.57349">
        <ele>221.3</ele>
        <time>2022-05-01T07:44:47Z</time>
      </trkpt>
      <trkpt lat="43.17655" lon="5.57346">
        <ele>221.2</ele>
        <time>2022-05-01T07:44:56Z</time>
      </trkpt>
      <trkpt lat="43.17664" lon="5.57341">
        <ele>221.1</ele>
        <time>2022-05-01T07:45:05Z</time>
      </trkpt>
      <trkpt lat="43.1767" lon="5.57331">
        <ele>221</ele>
        <time>2022-05-01T07:45:17Z</time>
      </trkpt>
      <trkpt lat="43.17679" lon="5.57327">
        <ele>220.9</ele>
        <time>2022-05-01T07:45:26Z</time>
      </trkpt>
      <trkpt lat="43.17689" lon="5.57323">
        <ele>221.7</ele>
        <time>2022-05-01T07:45:35Z</time>
      </trkpt>
      <trkpt lat="43.17697" lon="5.57315">
        <ele>222.2</ele>
        <time>2022-05-01T07:45:44Z</time>
      </trkpt>
      <trkpt lat="43.17702" lon="5.57305">
        <ele>222.8</ele>
        <time>2022-05-01T07:45:53Z</time>
      </trkpt>
      <trkpt lat="43.17706" lon="5.57293">
        <ele>223.1</ele>
        <time>2022-05-01T07:46:02Z</time>
      </trkpt>
      <trkpt lat="43.17709" lon="5.57281">
        <ele>222.6</ele>
        <time>2022-05-01T07:46:11Z</time>
      </trkpt>
      <trkpt lat="43.17713" lon="5.5727">
        <ele>221.8</ele>
        <time>2022-05-01T07:46:19Z</time>
      </trkpt>
      <trkpt lat="43.17716" lon="5.57257">
        <ele>220.7</ele>
        <time>2022-05-01T07:46:31Z</time>
      </trkpt>
      <trkpt lat="43.17716" lon="5.57244">
        <ele>220.1</ele>
        <time>2022-05-01T07:46:41Z</time>
      </trkpt>
      <trkpt lat="43.17717" lon="5.57231">
        <ele>218.2</ele>
        <time>2022-05-01T07:46:51Z</time>
      </trkpt>
      <trkpt lat="43.17719" lon="5.57219">
        <ele>216.9</ele>
        <time>2022-05-01T07:47:01Z</time>
      </trkpt>
      <trkpt lat="43.17723" lon="5.57207">
        <ele>216</ele>
        <time>2022-05-01T07:47:11Z</time>
      </trkpt>
      <trkpt lat="43.17726" lon="5.57195">
        <ele>215.2</ele>
        <time>2022-05-01T07:47:20Z</time>
      </trkpt>
      <trkpt lat="43.17731" lon="5.57185">
        <ele>214.9</ele>
        <time>2022-05-01T07:47:31Z</time>
      </trkpt>
      <trkpt lat="43.1774" lon="5.5718">
        <ele>214.6</ele>
        <time>2022-05-01T07:47:40Z</time>
      </trkpt>
      <trkpt lat="43.17749" lon="5.57177">
        <ele>214</ele>
        <time>2022-05-01T07:47:49Z</time>
      </trkpt>
      <trkpt lat="43.17759" lon="5.57176">
        <ele>213.9</ele>
        <time>2022-05-01T07:47:57Z</time>
      </trkpt>
      <trkpt lat="43.17768" lon="5.57174">
        <ele>212.9</ele>
        <time>2022-05-01T07:48:06Z</time>
      </trkpt>
      <trkpt lat="43.17778" lon="5.57173">
        <ele>212.3</ele>
        <time>2022-05-01T07:48:15Z</time>
      </trkpt>
      <trkpt lat="43.17787" lon="5.5717">
        <ele>211.3</ele>
        <time>2022-05-01T07:48:24Z</time>
      </trkpt>
      <trkpt lat="43.17796" lon="5.57169">
        <ele>210.8</ele>
        <time>2022-05-01T07:48:33Z</time>
      </trkpt>
      <trkpt lat="43.17806" lon="5.57166">
        <ele>209.5</ele>
        <time>2022-05-01T07:48:45Z</time>
      </trkpt>
      <trkpt lat="43.17816" lon="5.57164">
        <ele>208.4</ele>
        <time>2022-05-01T07:48:55Z</time>
      </trkpt>
      <trkpt lat="43.17825" lon="5.57166">
        <ele>207.8</ele>
        <time>2022-05-01T07:49:04Z</time>
      </trkpt>
      <trkpt lat="43.17835" lon="5.57167">
        <ele>207.2</ele>
        <time>2022-05-01T07:49:13Z</time>
      </trkpt>
      <trkpt lat="43.17844" lon="5.57165">
        <ele>206.2</ele>
        <time>2022-05-01T07:49:22Z</time>
      </trkpt>
      <trkpt lat="43.17853" lon="5.57159">
        <ele>205.4</ele>
        <time>2022-05-01T07:49:32Z</time>
      </trkpt>
      <trkpt lat="43.17862" lon="5.57156">
        <ele>204.6</ele>
        <time>2022-05-01T07:49:41Z</time>
      </trkpt>
      <trkpt lat="43.17871" lon="5.57152">
        <ele>203.6</ele>
        <time>2022-05-01T07:49:50Z</time>
      </trkpt>
      <trkpt lat="43.1788" lon="5.57148">
        <ele>202.6</ele>
        <time>2022-05-01T07:50:01Z</time>
      </trkpt>
      <trkpt lat="43.17888" lon="5.57142">
        <ele>201.9</ele>
        <time>2022-05-01T07:50:11Z</time>
      </trkpt>
      <trkpt lat="43.17897" lon="5.57138">
        <ele>201.8</ele>
        <time>2022-05-01T07:50:20Z</time>
      </trkpt>
      <trkpt lat="43.17907" lon="5.57135">
        <ele>201.6</ele>
        <time>2022-05-01T07:50:29Z</time>
      </trkpt>
      <trkpt lat="43.17916" lon="5.5713">
        <ele>201.7</ele>
        <time>2022-05-01T07:50:36Z</time>
      </trkpt>
      <trkpt lat="43.17916" lon="5.57118">
        <ele>201.7</ele>
        <time>2022-05-01T07:50:46Z</time>
      </trkpt>
      <trkpt lat="43.17913" lon="5.57105">
        <ele>202.7</ele>
        <time>2022-05-01T07:50:56Z</time>
      </trkpt>
      <trkpt lat="43.17911" lon="5.57093">
        <ele>203.3</ele>
        <time>2022-05-01T07:51:05Z</time>
      </trkpt>
      <trkpt lat="43.17909" lon="5.5708">
        <ele>204.1</ele>
        <time>2022-05-01T07:51:14Z</time>
      </trkpt>
      <trkpt lat="43.17908" lon="5.57067">
        <ele>205.1</ele>
        <time>2022-05-01T07:51:22Z</time>
      </trkpt>
      <trkpt lat="43.17907" lon="5.57055">
        <ele>206.4</ele>
        <time>2022-05-01T07:51:34Z</time>
      </trkpt>
      <trkpt lat="43.17907" lon="5.57042">
        <ele>207.6</ele>
        <time>2022-05-01T07:51:44Z</time>
      </trkpt>
      <trkpt lat="43.17908" lon="5.57029">
        <ele>208.7</ele>
        <time>2022-05-01T07:51:55Z</time>
      </trkpt>
      <trkpt lat="43.17909" lon="5.57016">
        <ele>210.2</ele>
        <time>2022-05-01T07:52:05Z</time>
      </trkpt>
      <trkpt lat="43.1791" lon="5.57004">
        <ele>212</ele>
        <time>2022-05-01T07:52:17Z</time>
      </trkpt>
      <trkpt lat="43.17914" lon="5.56991">
        <ele>213.5</ele>
        <time>2022-05-01T07:52:28Z</time>
      </trkpt>
      <trkpt lat="43.17919" lon="5.5698">
        <ele>214.8</ele>
        <time>2022-05-01T07:52:39Z</time>
      </trkpt>
      <trkpt lat="43.17927" lon="5.56977">
        <ele>216.1</ele>
        <time>2022-05-01T07:52:54Z</time>
      </trkpt>
      <trkpt lat="43.17937" lon="5.56977">
        <ele>218</ele>
        <time>2022-05-01T07:53:11Z</time>
      </trkpt>
      <trkpt lat="43.17946" lon="5.56973">
        <ele>219.8</ele>
        <time>2022-05-01T07:53:24Z</time>
      </trkpt>
      <trkpt lat="43.17955" lon="5.5697">
        <ele>221.5</ele>
        <time>2022-05-01T07:53:35Z</time>
      </trkpt>
      <trkpt lat="43.17964" lon="5.56966">
        <ele>222.7</ele>
        <time>2022-05-01T07:53:46Z</time>
      </trkpt>
      <trkpt lat="43.17973" lon="5.56961">
        <ele>223.9</ele>
        <time>2022-05-01T07:53:56Z</time>
      </trkpt>
      <trkpt lat="43.17982" lon="5.56966">
        <ele>225.6</ele>
        <time>2022-05-01T07:54:11Z</time>
      </trkpt>
      <trkpt lat="43.17989" lon="5.56973">
        <ele>228.1</ele>
        <time>2022-05-01T07:54:28Z</time>
      </trkpt>
      <trkpt lat="43.17998" lon="5.56967">
        <ele>228.4</ele>
        <time>2022-05-01T07:55:41Z</time>
      </trkpt>
      <trkpt lat="43.18004" lon="5.56956">
        <ele>229</ele>
        <time>2022-05-01T07:55:51Z</time>
      </trkpt>
      <trkpt lat="43.1801" lon="5.56947">
        <ele>229.3</ele>
        <time>2022-05-01T07:56:01Z</time>
      </trkpt>
      <trkpt lat="43.18018" lon="5.56938">
        <ele>230.1</ele>
        <time>2022-05-01T07:56:10Z</time>
      </trkpt>
      <trkpt lat="43.18024" lon="5.56929">
        <ele>230.9</ele>
        <time>2022-05-01T07:56:19Z</time>
      </trkpt>
      <trkpt lat="43.18031" lon="5.56919">
        <ele>231.9</ele>
        <time>2022-05-01T07:56:29Z</time>
      </trkpt>
      <trkpt lat="43.18036" lon="5.56908">
        <ele>233.4</ele>
        <time>2022-05-01T07:56:39Z</time>
      </trkpt>
      <trkpt lat="43.18043" lon="5.56899">
        <ele>235.1</ele>
        <time>2022-05-01T07:56:51Z</time>
      </trkpt>
      <trkpt lat="43.18049" lon="5.56889">
        <ele>236.5</ele>
        <time>2022-05-01T07:57:02Z</time>
      </trkpt>
      <trkpt lat="43.18056" lon="5.56881">
        <ele>237.9</ele>
        <time>2022-05-01T07:57:14Z</time>
      </trkpt>
      <trkpt lat="43.18063" lon="5.56871">
        <ele>239.7</ele>
        <time>2022-05-01T07:57:27Z</time>
      </trkpt>
      <trkpt lat="43.1807" lon="5.56863">
        <ele>241.2</ele>
        <time>2022-05-01T07:57:38Z</time>
      </trkpt>
      <trkpt lat="43.18077" lon="5.56854">
        <ele>242.3</ele>
        <time>2022-05-01T07:57:49Z</time>
      </trkpt>
      <trkpt lat="43.18084" lon="5.56845">
        <ele>243.3</ele>
        <time>2022-05-01T07:58:00Z</time>
      </trkpt>
      <trkpt lat="43.18089" lon="5.56834">
        <ele>244.2</ele>
        <time>2022-05-01T07:58:11Z</time>
      </trkpt>
      <trkpt lat="43.18096" lon="5.56824">
        <ele>245.1</ele>
        <time>2022-05-01T07:58:21Z</time>
      </trkpt>
      <trkpt lat="43.181" lon="5.56813">
        <ele>246.6</ele>
        <time>2022-05-01T07:58:34Z</time>
      </trkpt>
      <trkpt lat="43.18104" lon="5.56802">
        <ele>247.7</ele>
        <time>2022-05-01T07:58:45Z</time>
      </trkpt>
      <trkpt lat="43.18108" lon="5.56791">
        <ele>248.9</ele>
        <time>2022-05-01T07:58:56Z</time>
      </trkpt>
      <trkpt lat="43.1811" lon="5.56779">
        <ele>250.3</ele>
        <time>2022-05-01T07:59:08Z</time>
      </trkpt>
      <trkpt lat="43.18112" lon="5.56766">
        <ele>251.8</ele>
        <time>2022-05-01T07:59:20Z</time>
      </trkpt>
      <trkpt lat="43.18113" lon="5.56753">
        <ele>252.8</ele>
        <time>2022-05-01T07:59:33Z</time>
      </trkpt>
      <trkpt lat="43.18116" lon="5.56741">
        <ele>254.2</ele>
        <time>2022-05-01T07:59:43Z</time>
      </trkpt>
      <trkpt lat="43.18118" lon="5.56729">
        <ele>255.7</ele>
        <time>2022-05-01T07:59:55Z</time>
      </trkpt>
      <trkpt lat="43.1812" lon="5.56716">
        <ele>258.2</ele>
        <time>2022-05-01T08:00:15Z</time>
      </trkpt>
      <trkpt lat="43.18124" lon="5.56704">
        <ele>259.9</ele>
        <time>2022-05-01T08:00:29Z</time>
      </trkpt>
      <trkpt lat="43.18126" lon="5.56691">
        <ele>261.4</ele>
        <time>2022-05-01T08:00:40Z</time>
      </trkpt>
      <trkpt lat="43.18129" lon="5.56679">
        <ele>263</ele>
        <time>2022-05-01T08:00:53Z</time>
      </trkpt>
      <trkpt lat="43.18132" lon="5.56667">
        <ele>264.2</ele>
        <time>2022-05-01T08:01:04Z</time>
      </trkpt>
      <trkpt lat="43.18135" lon="5.56655">
        <ele>265.6</ele>
        <time>2022-05-01T08:01:14Z</time>
      </trkpt>
      <trkpt lat="43.18137" lon="5.56642">
        <ele>267.7</ele>
        <time>2022-05-01T08:01:25Z</time>
      </trkpt>
      <trkpt lat="43.18138" lon="5.56629">
        <ele>269.3</ele>
        <time>2022-05-01T08:01:40Z</time>
      </trkpt>
      <trkpt lat="43.18141" lon="5.56617">
        <ele>270.5</ele>
        <time>2022-05-01T08:01:53Z</time>
      </trkpt>
      <trkpt lat="43.18148" lon="5.5661">
        <ele>271.7</ele>
        <time>2022-05-01T08:02:41Z</time>
      </trkpt>
      <trkpt lat="43.18154" lon="5.56601">
        <ele>272.1</ele>
        <time>2022-05-01T08:04:04Z</time>
      </trkpt>
      <trkpt lat="43.18163" lon="5.56603">
        <ele>272.9</ele>
        <time>2022-05-01T08:06:17Z</time>
      </trkpt>
      <trkpt lat="43.18172" lon="5.56609">
        <ele>276.3</ele>
        <time>2022-05-01T08:06:39Z</time>
      </trkpt>
      <trkpt lat="43.18172" lon="5.56621">
        <ele>280.4</ele>
        <time>2022-05-01T08:07:00Z</time>
      </trkpt>
      <trkpt lat="43.1818" lon="5.56628">
        <ele>282.3</ele>
        <time>2022-05-01T08:07:14Z</time>
      </trkpt>
      <trkpt lat="43.1819" lon="5.56626">
        <ele>284</ele>
        <time>2022-05-01T08:07:27Z</time>
      </trkpt>
      <trkpt lat="43.18199" lon="5.56627">
        <ele>286.1</ele>
        <time>2022-05-01T08:07:42Z</time>
      </trkpt>
      <trkpt lat="43.18208" lon="5.56627">
        <ele>288</ele>
        <time>2022-05-01T08:07:55Z</time>
      </trkpt>
      <trkpt lat="43.18218" lon="5.56623">
        <ele>290.1</ele>
        <time>2022-05-01T08:08:08Z</time>
      </trkpt>
      <trkpt lat="43.18227" lon="5.56621">
        <ele>291.5</ele>
        <time>2022-05-01T08:08:18Z</time>
      </trkpt>
      <trkpt lat="43.18237" lon="5.56617">
        <ele>292.7</ele>
        <time>2022-05-01T08:08:29Z</time>
      </trkpt>
      <trkpt lat="43.18245" lon="5.56611">
        <ele>293.9</ele>
        <time>2022-05-01T08:08:39Z</time>
      </trkpt>
      <trkpt lat="43.18253" lon="5.56604">
        <ele>294.8</ele>
        <time>2022-05-01T08:08:49Z</time>
      </trkpt>
      <trkpt lat="43.1826" lon="5.56594">
        <ele>295.7</ele>
        <time>2022-05-01T08:08:59Z</time>
      </trkpt>
      <trkpt lat="43.18266" lon="5.56584">
        <ele>295.7</ele>
        <time>2022-05-01T08:09:08Z</time>
      </trkpt>
      <trkpt lat="43.18272" lon="5.56573">
        <ele>295.7</ele>
        <time>2022-05-01T08:09:17Z</time>
      </trkpt>
      <trkpt lat="43.18277" lon="5.56562">
        <ele>294.9</ele>
        <time>2022-05-01T08:09:27Z</time>
      </trkpt>
      <trkpt lat="43.18281" lon="5.56551">
        <ele>294.2</ele>
        <time>2022-05-01T08:09:36Z</time>
      </trkpt>
      <trkpt lat="43.18286" lon="5.56539">
        <ele>294.1</ele>
        <time>2022-05-01T08:09:45Z</time>
      </trkpt>
      <trkpt lat="43.18293" lon="5.56531">
        <ele>293.9</ele>
        <time>2022-05-01T08:09:56Z</time>
      </trkpt>
      <trkpt lat="43.18302" lon="5.56528">
        <ele>292.2</ele>
        <time>2022-05-01T08:10:09Z</time>
      </trkpt>
      <trkpt lat="43.18312" lon="5.56528">
        <ele>290.1</ele>
        <time>2022-05-01T08:10:26Z</time>
      </trkpt>
      <trkpt lat="43.18321" lon="5.56527">
        <ele>288.3</ele>
        <time>2022-05-01T08:10:39Z</time>
      </trkpt>
      <trkpt lat="43.18329" lon="5.56522">
        <ele>286.9</ele>
        <time>2022-05-01T08:10:48Z</time>
      </trkpt>
      <trkpt lat="43.18337" lon="5.56515">
        <ele>286.1</ele>
        <time>2022-05-01T08:10:56Z</time>
      </trkpt>
      <trkpt lat="43.1834" lon="5.56502">
        <ele>286.2</ele>
        <time>2022-05-01T08:11:06Z</time>
      </trkpt>
      <trkpt lat="43.18345" lon="5.56491">
        <ele>287.6</ele>
        <time>2022-05-01T08:11:19Z</time>
      </trkpt>
      <trkpt lat="43.1835" lon="5.5648">
        <ele>288.8</ele>
        <time>2022-05-01T08:11:32Z</time>
      </trkpt>
      <trkpt lat="43.18357" lon="5.56471">
        <ele>288.9</ele>
        <time>2022-05-01T08:13:33Z</time>
      </trkpt>
      <trkpt lat="43.18366" lon="5.56468">
        <ele>286.5</ele>
        <time>2022-05-01T08:13:57Z</time>
      </trkpt>
      <trkpt lat="43.18371" lon="5.56478">
        <ele>284.5</ele>
        <time>2022-05-01T08:14:11Z</time>
      </trkpt>
      <trkpt lat="43.1838" lon="5.56479">
        <ele>282.1</ele>
        <time>2022-05-01T08:14:26Z</time>
      </trkpt>
      <trkpt lat="43.18384" lon="5.56467">
        <ele>278.7</ele>
        <time>2022-05-01T08:14:54Z</time>
      </trkpt>
      <trkpt lat="43.18386" lon="5.56455">
        <ele>275.9</ele>
        <time>2022-05-01T08:15:07Z</time>
      </trkpt>
      <trkpt lat="43.18389" lon="5.56443">
        <ele>271.9</ele>
        <time>2022-05-01T08:15:30Z</time>
      </trkpt>
      <trkpt lat="43.18395" lon="5.56432">
        <ele>267.3</ele>
        <time>2022-05-01T08:15:55Z</time>
      </trkpt>
      <trkpt lat="43.184" lon="5.56421">
        <ele>264.2</ele>
        <time>2022-05-01T08:16:09Z</time>
      </trkpt>
      <trkpt lat="43.18402" lon="5.56409">
        <ele>262.5</ele>
        <time>2022-05-01T08:16:20Z</time>
      </trkpt>
      <trkpt lat="43.18403" lon="5.56396">
        <ele>261.4</ele>
        <time>2022-05-01T08:16:31Z</time>
      </trkpt>
      <trkpt lat="43.18409" lon="5.56386">
        <ele>259.6</ele>
        <time>2022-05-01T08:17:08Z</time>
      </trkpt>
      <trkpt lat="43.18415" lon="5.56376">
        <ele>256.4</ele>
        <time>2022-05-01T08:17:24Z</time>
      </trkpt>
      <trkpt lat="43.18419" lon="5.56364">
        <ele>252.2</ele>
        <time>2022-05-01T08:17:45Z</time>
      </trkpt>
      <trkpt lat="43.1842" lon="5.56352">
        <ele>251.7</ele>
        <time>2022-05-01T08:19:28Z</time>
      </trkpt>
      <trkpt lat="43.18429" lon="5.5635">
        <ele>248.3</ele>
        <time>2022-05-01T08:21:26Z</time>
      </trkpt>
      <trkpt lat="43.18435" lon="5.56339">
        <ele>245.2</ele>
        <time>2022-05-01T08:21:44Z</time>
      </trkpt>
      <trkpt lat="43.18442" lon="5.56331">
        <ele>240.8</ele>
        <time>2022-05-01T08:22:19Z</time>
      </trkpt>
      <trkpt lat="43.1845" lon="5.56324">
        <ele>235.8</ele>
        <time>2022-05-01T08:22:42Z</time>
      </trkpt>
      <trkpt lat="43.18457" lon="5.56316">
        <ele>231</ele>
        <time>2022-05-01T08:23:11Z</time>
      </trkpt>
      <trkpt lat="43.18466" lon="5.56313">
        <ele>226.2</ele>
        <time>2022-05-01T08:23:47Z</time>
      </trkpt>
      <trkpt lat="43.18471" lon="5.56303">
        <ele>224</ele>
        <time>2022-05-01T08:24:14Z</time>
      </trkpt>
      <trkpt lat="43.1848" lon="5.56301">
        <ele>222</ele>
        <time>2022-05-01T08:24:32Z</time>
      </trkpt>
      <trkpt lat="43.18489" lon="5.56295">
        <ele>220.9</ele>
        <time>2022-05-01T08:24:44Z</time>
      </trkpt>
      <trkpt lat="43.18497" lon="5.56288">
        <ele>220.3</ele>
        <time>2022-05-01T08:24:57Z</time>
      </trkpt>
      <trkpt lat="43.18506" lon="5.56284">
        <ele>221</ele>
        <time>2022-05-01T08:25:18Z</time>
      </trkpt>
      <trkpt lat="43.18514" lon="5.56279">
        <ele>223</ele>
        <time>2022-05-01T08:25:33Z</time>
      </trkpt>
      <trkpt lat="43.18524" lon="5.56278">
        <ele>224.3</ele>
        <time>2022-05-01T08:25:49Z</time>
      </trkpt>
      <trkpt lat="43.18533" lon="5.56276">
        <ele>225.7</ele>
        <time>2022-05-01T08:26:02Z</time>
      </trkpt>
      <trkpt lat="43.18542" lon="5.56275">
        <ele>227.2</ele>
        <time>2022-05-01T08:26:14Z</time>
      </trkpt>
      <trkpt lat="43.1855" lon="5.56269">
        <ele>228.5</ele>
        <time>2022-05-01T08:26:25Z</time>
      </trkpt>
      <trkpt lat="43.18556" lon="5.56259">
        <ele>229.9</ele>
        <time>2022-05-01T08:26:35Z</time>
      </trkpt>
      <trkpt lat="43.1856" lon="5.56248">
        <ele>230.9</ele>
        <time>2022-05-01T08:26:45Z</time>
      </trkpt>
      <trkpt lat="43.18563" lon="5.56237">
        <ele>231.4</ele>
        <time>2022-05-01T08:26:55Z</time>
      </trkpt>
      <trkpt lat="43.18566" lon="5.56225">
        <ele>231.7</ele>
        <time>2022-05-01T08:27:06Z</time>
      </trkpt>
      <trkpt lat="43.1857" lon="5.56213">
        <ele>231.1</ele>
        <time>2022-05-01T08:27:17Z</time>
      </trkpt>
      <trkpt lat="43.18576" lon="5.56203">
        <ele>227.9</ele>
        <time>2022-05-01T08:27:37Z</time>
      </trkpt>
      <trkpt lat="43.18582" lon="5.56193">
        <ele>225</ele>
        <time>2022-05-01T08:27:49Z</time>
      </trkpt>
      <trkpt lat="43.18588" lon="5.56183">
        <ele>222</ele>
        <time>2022-05-01T08:28:03Z</time>
      </trkpt>
      <trkpt lat="43.18592" lon="5.56172">
        <ele>220.9</ele>
        <time>2022-05-01T08:28:13Z</time>
      </trkpt>
      <trkpt lat="43.18594" lon="5.56159">
        <ele>220.7</ele>
        <time>2022-05-01T08:28:22Z</time>
      </trkpt>
      <trkpt lat="43.186" lon="5.5615">
        <ele>220.1</ele>
        <time>2022-05-01T08:28:33Z</time>
      </trkpt>
      <trkpt lat="43.18592" lon="5.56145">
        <ele>221.6</ele>
        <time>2022-05-01T08:28:54Z</time>
      </trkpt>
      <trkpt lat="43.18601" lon="5.56142">
        <ele>220.6</ele>
        <time>2022-05-01T08:32:57Z</time>
      </trkpt>
      <trkpt lat="43.1861" lon="5.56138">
        <ele>218.9</ele>
        <time>2022-05-01T08:33:07Z</time>
      </trkpt>
      <trkpt lat="43.18619" lon="5.56135">
        <ele>217.3</ele>
        <time>2022-05-01T08:33:15Z</time>
      </trkpt>
      <trkpt lat="43.18628" lon="5.56129">
        <ele>216.6</ele>
        <time>2022-05-01T08:33:23Z</time>
      </trkpt>
      <trkpt lat="43.18637" lon="5.56127">
        <ele>216.3</ele>
        <time>2022-05-01T08:33:32Z</time>
      </trkpt>
      <trkpt lat="43.18646" lon="5.56128">
        <ele>215.4</ele>
        <time>2022-05-01T08:34:25Z</time>
      </trkpt>
      <trkpt lat="43.18656" lon="5.56128">
        <ele>216</ele>
        <time>2022-05-01T08:35:08Z</time>
      </trkpt>
      <trkpt lat="43.18664" lon="5.56125">
        <ele>217.4</ele>
        <time>2022-05-01T08:35:26Z</time>
      </trkpt>
      <trkpt lat="43.18672" lon="5.56118">
        <ele>221.1</ele>
        <time>2022-05-01T08:35:47Z</time>
      </trkpt>
      <trkpt lat="43.18679" lon="5.5611">
        <ele>226.4</ele>
        <time>2022-05-01T08:36:11Z</time>
      </trkpt>
      <trkpt lat="43.18684" lon="5.561">
        <ele>230.4</ele>
        <time>2022-05-01T08:36:41Z</time>
      </trkpt>
      <trkpt lat="43.18693" lon="5.56093">
        <ele>235.6</ele>
        <time>2022-05-01T08:39:12Z</time>
      </trkpt>
      <trkpt lat="43.18701" lon="5.56089">
        <ele>238.9</ele>
        <time>2022-05-01T08:39:38Z</time>
      </trkpt>
      <trkpt lat="43.18708" lon="5.5608">
        <ele>240.3</ele>
        <time>2022-05-01T08:39:57Z</time>
      </trkpt>
      <trkpt lat="43.18713" lon="5.5607">
        <ele>242.4</ele>
        <time>2022-05-01T08:41:44Z</time>
      </trkpt>
      <trkpt lat="43.1872" lon="5.56063">
        <ele>241.8</ele>
        <time>2022-05-01T08:42:16Z</time>
      </trkpt>
      <trkpt lat="43.18728" lon="5.56055">
        <ele>242.3</ele>
        <time>2022-05-01T08:42:27Z</time>
      </trkpt>
      <trkpt lat="43.18734" lon="5.56046">
        <ele>243.9</ele>
        <time>2022-05-01T08:42:45Z</time>
      </trkpt>
      <trkpt lat="43.18742" lon="5.5604">
        <ele>246.6</ele>
        <time>2022-05-01T08:43:13Z</time>
      </trkpt>
      <trkpt lat="43.18745" lon="5.56028">
        <ele>253.4</ele>
        <time>2022-05-01T08:46:08Z</time>
      </trkpt>
      <trkpt lat="43.18746" lon="5.56015">
        <ele>255.5</ele>
        <time>2022-05-01T08:48:01Z</time>
      </trkpt>
      <trkpt lat="43.18755" lon="5.56017">
        <ele>253.7</ele>
        <time>2022-05-01T08:48:33Z</time>
      </trkpt>
      <trkpt lat="43.18764" lon="5.56019">
        <ele>253.6</ele>
        <time>2022-05-01T08:48:45Z</time>
      </trkpt>
      <trkpt lat="43.18774" lon="5.56019">
        <ele>253.2</ele>
        <time>2022-05-01T08:48:54Z</time>
      </trkpt>
      <trkpt lat="43.18783" lon="5.56013">
        <ele>253</ele>
        <time>2022-05-01T08:49:03Z</time>
      </trkpt>
      <trkpt lat="43.18788" lon="5.56001">
        <ele>253.3</ele>
        <time>2022-05-01T08:49:13Z</time>
      </trkpt>
      <trkpt lat="43.18794" lon="5.55992">
        <ele>250.9</ele>
        <time>2022-05-01T08:49:25Z</time>
      </trkpt>
      <trkpt lat="43.18798" lon="5.55981">
        <ele>248.4</ele>
        <time>2022-05-01T08:49:37Z</time>
      </trkpt>
      <trkpt lat="43.18803" lon="5.5597">
        <ele>245.4</ele>
        <time>2022-05-01T08:49:51Z</time>
      </trkpt>
      <trkpt lat="43.18805" lon="5.55958">
        <ele>241.9</ele>
        <time>2022-05-01T08:50:08Z</time>
      </trkpt>
      <trkpt lat="43.18809" lon="5.55946">
        <ele>239.1</ele>
        <time>2022-05-01T08:50:23Z</time>
      </trkpt>
      <trkpt lat="43.18813" lon="5.55935">
        <ele>234.8</ele>
        <time>2022-05-01T08:50:43Z</time>
      </trkpt>
      <trkpt lat="43.18816" lon="5.55923">
        <ele>231.4</ele>
        <time>2022-05-01T08:51:07Z</time>
      </trkpt>
      <trkpt lat="43.18818" lon="5.55911">
        <ele>229.1</ele>
        <time>2022-05-01T08:51:20Z</time>
      </trkpt>
      <trkpt lat="43.1882" lon="5.55898">
        <ele>227.5</ele>
        <time>2022-05-01T08:51:31Z</time>
      </trkpt>
      <trkpt lat="43.18818" lon="5.55886">
        <ele>226.1</ele>
        <time>2022-05-01T08:51:45Z</time>
      </trkpt>
      <trkpt lat="43.18825" lon="5.55877">
        <ele>222.8</ele>
        <time>2022-05-01T08:52:05Z</time>
      </trkpt>
      <trkpt lat="43.18827" lon="5.55864">
        <ele>220.4</ele>
        <time>2022-05-01T08:52:18Z</time>
      </trkpt>
      <trkpt lat="43.18827" lon="5.5585">
        <ele>219.7</ele>
        <time>2022-05-01T08:52:30Z</time>
      </trkpt>
      <trkpt lat="43.18827" lon="5.55838">
        <ele>218.9</ele>
        <time>2022-05-01T08:52:44Z</time>
      </trkpt>
      <trkpt lat="43.18835" lon="5.5583">
        <ele>217.1</ele>
        <time>2022-05-01T08:52:58Z</time>
      </trkpt>
      <trkpt lat="43.18843" lon="5.55824">
        <ele>215.1</ele>
        <time>2022-05-01T08:53:11Z</time>
      </trkpt>
      <trkpt lat="43.1885" lon="5.55815">
        <ele>213.6</ele>
        <time>2022-05-01T08:53:24Z</time>
      </trkpt>
      <trkpt lat="43.18857" lon="5.55805">
        <ele>212.7</ele>
        <time>2022-05-01T08:56:24Z</time>
      </trkpt>
      <trkpt lat="43.18865" lon="5.55801">
        <ele>213.7</ele>
        <time>2022-05-01T08:56:35Z</time>
      </trkpt>
      <trkpt lat="43.18874" lon="5.55795">
        <ele>214.3</ele>
        <time>2022-05-01T08:56:46Z</time>
      </trkpt>
      <trkpt lat="43.18882" lon="5.55789">
        <ele>216.5</ele>
        <time>2022-05-01T08:57:14Z</time>
      </trkpt>
      <trkpt lat="43.18892" lon="5.5579">
        <ele>217</ele>
        <time>2022-05-01T08:57:24Z</time>
      </trkpt>
      <trkpt lat="43.18901" lon="5.55791">
        <ele>218.1</ele>
        <time>2022-05-01T08:57:34Z</time>
      </trkpt>
      <trkpt lat="43.18911" lon="5.55792">
        <ele>218.8</ele>
        <time>2022-05-01T08:57:45Z</time>
      </trkpt>
      <trkpt lat="43.1892" lon="5.55791">
        <ele>220.5</ele>
        <time>2022-05-01T08:57:59Z</time>
      </trkpt>
      <trkpt lat="43.18929" lon="5.55792">
        <ele>221.4</ele>
        <time>2022-05-01T08:58:11Z</time>
      </trkpt>
      <trkpt lat="43.18938" lon="5.55789">
        <ele>223.6</ele>
        <time>2022-05-01T08:58:24Z</time>
      </trkpt>
      <trkpt lat="43.18948" lon="5.55789">
        <ele>225.8</ele>
        <time>2022-05-01T08:58:38Z</time>
      </trkpt>
      <trkpt lat="43.18957" lon="5.55788">
        <ele>227.2</ele>
        <time>2022-05-01T08:58:51Z</time>
      </trkpt>
      <trkpt lat="43.18967" lon="5.55786">
        <ele>228.8</ele>
        <time>2022-05-01T08:59:04Z</time>
      </trkpt>
      <trkpt lat="43.18976" lon="5.55786">
        <ele>231.3</ele>
        <time>2022-05-01T08:59:35Z</time>
      </trkpt>
      <trkpt lat="43.18985" lon="5.55783">
        <ele>233.6</ele>
        <time>2022-05-01T08:59:48Z</time>
      </trkpt>
      <trkpt lat="43.18994" lon="5.55779">
        <ele>237.2</ele>
        <time>2022-05-01T09:00:07Z</time>
      </trkpt>
      <trkpt lat="43.19002" lon="5.55773">
        <ele>240.5</ele>
        <time>2022-05-01T09:00:21Z</time>
      </trkpt>
      <trkpt lat="43.19003" lon="5.55761">
        <ele>242.8</ele>
        <time>2022-05-01T09:00:35Z</time>
      </trkpt>
      <trkpt lat="43.1901" lon="5.55753">
        <ele>243.4</ele>
        <time>2022-05-01T09:02:14Z</time>
      </trkpt>
      <trkpt lat="43.1902" lon="5.55753">
        <ele>242.7</ele>
        <time>2022-05-01T09:04:35Z</time>
      </trkpt>
      <trkpt lat="43.19019" lon="5.5574">
        <ele>239.5</ele>
        <time>2022-05-01T09:04:59Z</time>
      </trkpt>
      <trkpt lat="43.19017" lon="5.55728">
        <ele>236.9</ele>
        <time>2022-05-01T09:05:16Z</time>
      </trkpt>
      <trkpt lat="43.19017" lon="5.55715">
        <ele>234.7</ele>
        <time>2022-05-01T09:05:29Z</time>
      </trkpt>
      <trkpt lat="43.19018" lon="5.55702">
        <ele>231.6</ele>
        <time>2022-05-01T09:05:50Z</time>
      </trkpt>
      <trkpt lat="43.19021" lon="5.5569">
        <ele>228.3</ele>
        <time>2022-05-01T09:06:05Z</time>
      </trkpt>
      <trkpt lat="43.19023" lon="5.55678">
        <ele>224.5</ele>
        <time>2022-05-01T09:06:21Z</time>
      </trkpt>
      <trkpt lat="43.19028" lon="5.55667">
        <ele>220.5</ele>
        <time>2022-05-01T09:06:45Z</time>
      </trkpt>
      <trkpt lat="43.19033" lon="5.55657">
        <ele>216</ele>
        <time>2022-05-01T09:07:19Z</time>
      </trkpt>
      <trkpt lat="43.19039" lon="5.55648">
        <ele>213</ele>
        <time>2022-05-01T09:07:37Z</time>
      </trkpt>
      <trkpt lat="43.19043" lon="5.55637">
        <ele>209.4</ele>
        <time>2022-05-01T09:07:54Z</time>
      </trkpt>
      <trkpt lat="43.19047" lon="5.55626">
        <ele>206.3</ele>
        <time>2022-05-01T09:08:08Z</time>
      </trkpt>
      <trkpt lat="43.19048" lon="5.55613">
        <ele>203.9</ele>
        <time>2022-05-01T09:08:21Z</time>
      </trkpt>
      <trkpt lat="43.19048" lon="5.556">
        <ele>202</ele>
        <time>2022-05-01T09:08:40Z</time>
      </trkpt>
      <trkpt lat="43.19047" lon="5.55587">
        <ele>201.3</ele>
        <time>2022-05-01T09:09:01Z</time>
      </trkpt>
      <trkpt lat="43.19045" lon="5.55574">
        <ele>201.7</ele>
        <time>2022-05-01T09:09:14Z</time>
      </trkpt>
      <trkpt lat="43.19054" lon="5.55577">
        <ele>201.8</ele>
        <time>2022-05-01T09:11:23Z</time>
      </trkpt>
      <trkpt lat="43.19063" lon="5.5558">
        <ele>200.8</ele>
        <time>2022-05-01T09:11:38Z</time>
      </trkpt>
      <trkpt lat="43.19072" lon="5.55581">
        <ele>200.7</ele>
        <time>2022-05-01T09:11:48Z</time>
      </trkpt>
      <trkpt lat="43.19079" lon="5.55572">
        <ele>201.2</ele>
        <time>2022-05-01T09:11:58Z</time>
      </trkpt>
      <trkpt lat="43.19087" lon="5.55564">
        <ele>201.4</ele>
        <time>2022-05-01T09:12:09Z</time>
      </trkpt>
      <trkpt lat="43.19095" lon="5.55568">
        <ele>200.1</ele>
        <time>2022-05-01T09:13:25Z</time>
      </trkpt>
      <trkpt lat="43.19098" lon="5.5558">
        <ele>196.7</ele>
        <time>2022-05-01T09:13:49Z</time>
      </trkpt>
      <trkpt lat="43.19105" lon="5.55588">
        <ele>194.3</ele>
        <time>2022-05-01T09:14:01Z</time>
      </trkpt>
      <trkpt lat="43.191" lon="5.55598">
        <ele>202.2</ele>
        <time>2022-05-01T09:16:53Z</time>
      </trkpt>
      <trkpt lat="43.19105" lon="5.5561">
        <ele>219.7</ele>
        <time>2022-05-01T09:22:38Z</time>
      </trkpt>
      <trkpt lat="43.19112" lon="5.55619">
        <ele>217.3</ele>
        <time>2022-05-01T09:22:49Z</time>
      </trkpt>
      <trkpt lat="43.19118" lon="5.5563">
        <ele>216</ele>
        <time>2022-05-01T09:23:00Z</time>
      </trkpt>
      <trkpt lat="43.19124" lon="5.55639">
        <ele>215.2</ele>
        <time>2022-05-01T09:23:12Z</time>
      </trkpt>
      <trkpt lat="43.19133" lon="5.55644">
        <ele>214.4</ele>
        <time>2022-05-01T09:23:24Z</time>
      </trkpt>
      <trkpt lat="43.19139" lon="5.55653">
        <ele>213.9</ele>
        <time>2022-05-01T09:23:37Z</time>
      </trkpt>
      <trkpt lat="43.19146" lon="5.55663">
        <ele>212.8</ele>
        <time>2022-05-01T09:23:48Z</time>
      </trkpt>
      <trkpt lat="43.19153" lon="5.55671">
        <ele>211.9</ele>
        <time>2022-05-01T09:24:00Z</time>
      </trkpt>
      <trkpt lat="43.1916" lon="5.5568">
        <ele>211.3</ele>
        <time>2022-05-01T09:24:11Z</time>
      </trkpt>
      <trkpt lat="43.19169" lon="5.55684">
        <ele>210.7</ele>
        <time>2022-05-01T09:24:22Z</time>
      </trkpt>
      <trkpt lat="43.19174" lon="5.55694">
        <ele>210.2</ele>
        <time>2022-05-01T09:24:33Z</time>
      </trkpt>
      <trkpt lat="43.19182" lon="5.55702">
        <ele>209.1</ele>
        <time>2022-05-01T09:24:43Z</time>
      </trkpt>
      <trkpt lat="43.19191" lon="5.55707">
        <ele>208.7</ele>
        <time>2022-05-01T09:24:58Z</time>
      </trkpt>
      <trkpt lat="43.19199" lon="5.55714">
        <ele>208.4</ele>
        <time>2022-05-01T09:25:07Z</time>
      </trkpt>
      <trkpt lat="43.19207" lon="5.5572">
        <ele>208</ele>
        <time>2022-05-01T09:25:17Z</time>
      </trkpt>
      <trkpt lat="43.19216" lon="5.55724">
        <ele>206.8</ele>
        <time>2022-05-01T09:25:27Z</time>
      </trkpt>
      <trkpt lat="43.19226" lon="5.55727">
        <ele>206.3</ele>
        <time>2022-05-01T09:25:35Z</time>
      </trkpt>
      <trkpt lat="43.19235" lon="5.55729">
        <ele>206.2</ele>
        <time>2022-05-01T09:25:43Z</time>
      </trkpt>
      <trkpt lat="43.19244" lon="5.5573">
        <ele>206.4</ele>
        <time>2022-05-01T09:25:51Z</time>
      </trkpt>
      <trkpt lat="43.19252" lon="5.55737">
        <ele>206.2</ele>
        <time>2022-05-01T09:26:05Z</time>
      </trkpt>
      <trkpt lat="43.1926" lon="5.55742">
        <ele>205.8</ele>
        <time>2022-05-01T09:26:14Z</time>
      </trkpt>
      <trkpt lat="43.1927" lon="5.55741">
        <ele>205.2</ele>
        <time>2022-05-01T09:26:23Z</time>
      </trkpt>
      <trkpt lat="43.19276" lon="5.5575">
        <ele>204.8</ele>
        <time>2022-05-01T09:26:32Z</time>
      </trkpt>
      <trkpt lat="43.19276" lon="5.55763">
        <ele>204.4</ele>
        <time>2022-05-01T09:26:42Z</time>
      </trkpt>
      <trkpt lat="43.1928" lon="5.55775">
        <ele>203.8</ele>
        <time>2022-05-01T09:26:52Z</time>
      </trkpt>
      <trkpt lat="43.19285" lon="5.55786">
        <ele>203.4</ele>
        <time>2022-05-01T09:27:02Z</time>
      </trkpt>
      <trkpt lat="43.19291" lon="5.55795">
        <ele>202.9</ele>
        <time>2022-05-01T09:27:11Z</time>
      </trkpt>
      <trkpt lat="43.19297" lon="5.55805">
        <ele>202.6</ele>
        <time>2022-05-01T09:27:20Z</time>
      </trkpt>
      <trkpt lat="43.19305" lon="5.55814">
        <ele>202</ele>
        <time>2022-05-01T09:27:29Z</time>
      </trkpt>
      <trkpt lat="43.19313" lon="5.55822">
        <ele>201.2</ele>
        <time>2022-05-01T09:27:38Z</time>
      </trkpt>
      <trkpt lat="43.19318" lon="5.55832">
        <ele>200.7</ele>
        <time>2022-05-01T09:27:46Z</time>
      </trkpt>
      <trkpt lat="43.19324" lon="5.55843">
        <ele>200.5</ele>
        <time>2022-05-01T09:27:55Z</time>
      </trkpt>
      <trkpt lat="43.1933" lon="5.55852">
        <ele>200.2</ele>
        <time>2022-05-01T09:28:03Z</time>
      </trkpt>
      <trkpt lat="43.19336" lon="5.55862">
        <ele>200</ele>
        <time>2022-05-01T09:28:12Z</time>
      </trkpt>
      <trkpt lat="43.19341" lon="5.55873">
        <ele>199.4</ele>
        <time>2022-05-01T09:28:21Z</time>
      </trkpt>
      <trkpt lat="43.19348" lon="5.55882">
        <ele>198.6</ele>
        <time>2022-05-01T09:28:30Z</time>
      </trkpt>
      <trkpt lat="43.19357" lon="5.55887">
        <ele>197.6</ele>
        <time>2022-05-01T09:28:38Z</time>
      </trkpt>
      <trkpt lat="43.19365" lon="5.55894">
        <ele>197</ele>
        <time>2022-05-01T09:28:49Z</time>
      </trkpt>
      <trkpt lat="43.19374" lon="5.55898">
        <ele>196.4</ele>
        <time>2022-05-01T09:28:57Z</time>
      </trkpt>
      <trkpt lat="43.19384" lon="5.55904">
        <ele>195.8</ele>
        <time>2022-05-01T09:29:04Z</time>
      </trkpt>
      <trkpt lat="43.19393" lon="5.55906">
        <ele>195.5</ele>
        <time>2022-05-01T09:29:11Z</time>
      </trkpt>
      <trkpt lat="43.19405" lon="5.55907">
        <ele>195.2</ele>
        <time>2022-05-01T09:29:20Z</time>
      </trkpt>
      <trkpt lat="43.19414" lon="5.55909">
        <ele>195.4</ele>
        <time>2022-05-01T09:29:28Z</time>
      </trkpt>
      <trkpt lat="43.19424" lon="5.55907">
        <ele>195.5</ele>
        <time>2022-05-01T09:29:37Z</time>
      </trkpt>
      <trkpt lat="43.19434" lon="5.55902">
        <ele>195.5</ele>
        <time>2022-05-01T09:29:44Z</time>
      </trkpt>
      <trkpt lat="43.19443" lon="5.55901">
        <ele>195.5</ele>
        <time>2022-05-01T09:29:53Z</time>
      </trkpt>
      <trkpt lat="43.19445" lon="5.55913">
        <ele>195.3</ele>
        <time>2022-05-01T09:30:02Z</time>
      </trkpt>
      <trkpt lat="43.19444" lon="5.55926">
        <ele>194.9</ele>
        <time>2022-05-01T09:30:12Z</time>
      </trkpt>
      <trkpt lat="43.19441" lon="5.55939">
        <ele>194.4</ele>
        <time>2022-05-01T09:30:21Z</time>
      </trkpt>
      <trkpt lat="43.19442" lon="5.55953">
        <ele>194</ele>
        <time>2022-05-01T09:30:31Z</time>
      </trkpt>
      <trkpt lat="43.19445" lon="5.55966">
        <ele>193.6</ele>
        <time>2022-05-01T09:30:39Z</time>
      </trkpt>
      <trkpt lat="43.19447" lon="5.55979">
        <ele>193</ele>
        <time>2022-05-01T09:30:48Z</time>
      </trkpt>
      <trkpt lat="43.19445" lon="5.55991">
        <ele>192.5</ele>
        <time>2022-05-01T09:30:56Z</time>
      </trkpt>
      <trkpt lat="43.19445" lon="5.56004">
        <ele>192</ele>
        <time>2022-05-01T09:31:04Z</time>
      </trkpt>
      <trkpt lat="43.19445" lon="5.56017">
        <ele>191.7</ele>
        <time>2022-05-01T09:31:12Z</time>
      </trkpt>
      <trkpt lat="43.19443" lon="5.5603">
        <ele>191.7</ele>
        <time>2022-05-01T09:31:25Z</time>
      </trkpt>
      <trkpt lat="43.1944" lon="5.56043">
        <ele>191.5</ele>
        <time>2022-05-01T09:31:33Z</time>
      </trkpt>
      <trkpt lat="43.19437" lon="5.56055">
        <ele>191.3</ele>
        <time>2022-05-01T09:31:41Z</time>
      </trkpt>
      <trkpt lat="43.19433" lon="5.56066">
        <ele>190.8</ele>
        <time>2022-05-01T09:31:48Z</time>
      </trkpt>
      <trkpt lat="43.19429" lon="5.56078">
        <ele>190.6</ele>
        <time>2022-05-01T09:31:56Z</time>
      </trkpt>
      <trkpt lat="43.19426" lon="5.5609">
        <ele>190.1</ele>
        <time>2022-05-01T09:32:05Z</time>
      </trkpt>
      <trkpt lat="43.19423" lon="5.56102">
        <ele>189.1</ele>
        <time>2022-05-01T09:32:13Z</time>
      </trkpt>
      <trkpt lat="43.19419" lon="5.56115">
        <ele>188.4</ele>
        <time>2022-05-01T09:32:22Z</time>
      </trkpt>
      <trkpt lat="43.19416" lon="5.56126">
        <ele>187.3</ele>
        <time>2022-05-01T09:32:30Z</time>
      </trkpt>
      <trkpt lat="43.19412" lon="5.56138">
        <ele>186.3</ele>
        <time>2022-05-01T09:32:38Z</time>
      </trkpt>
      <trkpt lat="43.19408" lon="5.5615">
        <ele>185.5</ele>
        <time>2022-05-01T09:32:47Z</time>
      </trkpt>
      <trkpt lat="43.19405" lon="5.56162">
        <ele>184.5</ele>
        <time>2022-05-01T09:32:57Z</time>
      </trkpt>
      <trkpt lat="43.19401" lon="5.56173">
        <ele>183.3</ele>
        <time>2022-05-01T09:33:07Z</time>
      </trkpt>
      <trkpt lat="43.19397" lon="5.56185">
        <ele>182.2</ele>
        <time>2022-05-01T09:33:18Z</time>
      </trkpt>
      <trkpt lat="43.19393" lon="5.56197">
        <ele>181.2</ele>
        <time>2022-05-01T09:33:28Z</time>
      </trkpt>
      <trkpt lat="43.19391" lon="5.56209">
        <ele>180.4</ele>
        <time>2022-05-01T09:33:38Z</time>
      </trkpt>
      <trkpt lat="43.19386" lon="5.56221">
        <ele>179.7</ele>
        <time>2022-05-01T09:33:48Z</time>
      </trkpt>
      <trkpt lat="43.19384" lon="5.56234">
        <ele>179.1</ele>
        <time>2022-05-01T09:33:58Z</time>
      </trkpt>
      <trkpt lat="43.1938" lon="5.56246">
        <ele>178.3</ele>
        <time>2022-05-01T09:34:07Z</time>
      </trkpt>
      <trkpt lat="43.19376" lon="5.56257">
        <ele>177.4</ele>
        <time>2022-05-01T09:34:16Z</time>
      </trkpt>
      <trkpt lat="43.19371" lon="5.56269">
        <ele>176.5</ele>
        <time>2022-05-01T09:34:25Z</time>
      </trkpt>
      <trkpt lat="43.19366" lon="5.5628">
        <ele>175.3</ele>
        <time>2022-05-01T09:34:34Z</time>
      </trkpt>
      <trkpt lat="43.19362" lon="5.56292">
        <ele>174.1</ele>
        <time>2022-05-01T09:34:44Z</time>
      </trkpt>
      <trkpt lat="43.19356" lon="5.56303">
        <ele>173.2</ele>
        <time>2022-05-01T09:34:54Z</time>
      </trkpt>
      <trkpt lat="43.19349" lon="5.56312">
        <ele>172.8</ele>
        <time>2022-05-01T09:35:06Z</time>
      </trkpt>
      <trkpt lat="43.19342" lon="5.56322">
        <ele>173.3</ele>
        <time>2022-05-01T09:35:16Z</time>
      </trkpt>
      <trkpt lat="43.19335" lon="5.56331">
        <ele>173.9</ele>
        <time>2022-05-01T09:35:24Z</time>
      </trkpt>
      <trkpt lat="43.1933" lon="5.56342">
        <ele>174.4</ele>
        <time>2022-05-01T09:35:32Z</time>
      </trkpt>
      <trkpt lat="43.19324" lon="5.56353">
        <ele>175</ele>
        <time>2022-05-01T09:35:40Z</time>
      </trkpt>
      <trkpt lat="43.19319" lon="5.56363">
        <ele>175.3</ele>
        <time>2022-05-01T09:35:48Z</time>
      </trkpt>
      <trkpt lat="43.19314" lon="5.56375">
        <ele>175.3</ele>
        <time>2022-05-01T09:35:57Z</time>
      </trkpt>
      <trkpt lat="43.1931" lon="5.56387">
        <ele>175.5</ele>
        <time>2022-05-01T09:36:05Z</time>
      </trkpt>
      <trkpt lat="43.19302" lon="5.56392">
        <ele>175.9</ele>
        <time>2022-05-01T09:36:15Z</time>
      </trkpt>
      <trkpt lat="43.19293" lon="5.56387">
        <ele>177.3</ele>
        <time>2022-05-01T09:36:33Z</time>
      </trkpt>
      <trkpt lat="43.19284" lon="5.56382">
        <ele>187.7</ele>
        <time>2022-05-01T09:39:36Z</time>
      </trkpt>
      <trkpt lat="43.19278" lon="5.56373">
        <ele>188.7</ele>
        <time>2022-05-01T09:39:45Z</time>
      </trkpt>
      <trkpt lat="43.19269" lon="5.56366">
        <ele>190</ele>
        <time>2022-05-01T09:39:54Z</time>
      </trkpt>
      <trkpt lat="43.1926" lon="5.5637">
        <ele>190.4</ele>
        <time>2022-05-01T09:40:03Z</time>
      </trkpt>
      <trkpt lat="43.19261" lon="5.56383">
        <ele>190.2</ele>
        <time>2022-05-01T09:40:12Z</time>
      </trkpt>
      <trkpt lat="43.19267" lon="5.56393">
        <ele>190.4</ele>
        <time>2022-05-01T09:40:20Z</time>
      </trkpt>
      <trkpt lat="43.19274" lon="5.56403">
        <ele>190.6</ele>
        <time>2022-05-01T09:40:28Z</time>
      </trkpt>
      <trkpt lat="43.19279" lon="5.56414">
        <ele>190.6</ele>
        <time>2022-05-01T09:40:39Z</time>
      </trkpt>
      <trkpt lat="43.19283" lon="5.56425">
        <ele>190.6</ele>
        <time>2022-05-01T09:40:53Z</time>
      </trkpt>
      <trkpt lat="43.19289" lon="5.56437">
        <ele>190.4</ele>
        <time>2022-05-01T09:41:03Z</time>
      </trkpt>
      <trkpt lat="43.19294" lon="5.56447">
        <ele>189.7</ele>
        <time>2022-05-01T09:41:12Z</time>
      </trkpt>
      <trkpt lat="43.193" lon="5.56458">
        <ele>189.3</ele>
        <time>2022-05-01T09:41:21Z</time>
      </trkpt>
      <trkpt lat="43.19305" lon="5.56468">
        <ele>189.1</ele>
        <time>2022-05-01T09:41:29Z</time>
      </trkpt>
      <trkpt lat="43.19308" lon="5.56481">
        <ele>189.3</ele>
        <time>2022-05-01T09:41:37Z</time>
      </trkpt>
      <trkpt lat="43.1931" lon="5.56493">
        <ele>189.5</ele>
        <time>2022-05-01T09:41:45Z</time>
      </trkpt>
      <trkpt lat="43.19311" lon="5.56506">
        <ele>189.8</ele>
        <time>2022-05-01T09:41:53Z</time>
      </trkpt>
      <trkpt lat="43.1931" lon="5.5652">
        <ele>189.8</ele>
        <time>2022-05-01T09:42:02Z</time>
      </trkpt>
      <trkpt lat="43.1931" lon="5.56532">
        <ele>189.6</ele>
        <time>2022-05-01T09:42:10Z</time>
      </trkpt>
      <trkpt lat="43.19308" lon="5.56544">
        <ele>189.4</ele>
        <time>2022-05-01T09:42:18Z</time>
      </trkpt>
      <trkpt lat="43.19307" lon="5.56558">
        <ele>189.1</ele>
        <time>2022-05-01T09:42:27Z</time>
      </trkpt>
      <trkpt lat="43.19306" lon="5.56571">
        <ele>188.5</ele>
        <time>2022-05-01T09:42:36Z</time>
      </trkpt>
      <trkpt lat="43.19307" lon="5.56585">
        <ele>187.9</ele>
        <time>2022-05-01T09:42:45Z</time>
      </trkpt>
      <trkpt lat="43.19306" lon="5.56598">
        <ele>187.9</ele>
        <time>2022-05-01T09:42:53Z</time>
      </trkpt>
      <trkpt lat="43.19306" lon="5.56611">
        <ele>187.7</ele>
        <time>2022-05-01T09:43:01Z</time>
      </trkpt>
      <trkpt lat="43.19304" lon="5.56623">
        <ele>187.3</ele>
        <time>2022-05-01T09:43:09Z</time>
      </trkpt>
      <trkpt lat="43.19302" lon="5.56637">
        <ele>187</ele>
        <time>2022-05-01T09:43:18Z</time>
      </trkpt>
      <trkpt lat="43.19298" lon="5.56649">
        <ele>186.8</ele>
        <time>2022-05-01T09:43:27Z</time>
      </trkpt>
      <trkpt lat="43.19295" lon="5.5666">
        <ele>186.9</ele>
        <time>2022-05-01T09:43:35Z</time>
      </trkpt>
      <trkpt lat="43.19295" lon="5.56673">
        <ele>187.4</ele>
        <time>2022-05-01T09:43:43Z</time>
      </trkpt>
      <trkpt lat="43.19296" lon="5.56685">
        <ele>187.3</ele>
        <time>2022-05-01T09:43:51Z</time>
      </trkpt>
      <trkpt lat="43.19298" lon="5.56699">
        <ele>187.9</ele>
        <time>2022-05-01T09:44:00Z</time>
      </trkpt>
      <trkpt lat="43.193" lon="5.56712">
        <ele>187.7</ele>
        <time>2022-05-01T09:44:08Z</time>
      </trkpt>
      <trkpt lat="43.19302" lon="5.56724">
        <ele>187.3</ele>
        <time>2022-05-01T09:44:16Z</time>
      </trkpt>
      <trkpt lat="43.19304" lon="5.56736">
        <ele>186.8</ele>
        <time>2022-05-01T09:44:24Z</time>
      </trkpt>
      <trkpt lat="43.19306" lon="5.5675">
        <ele>186.1</ele>
        <time>2022-05-01T09:44:32Z</time>
      </trkpt>
      <trkpt lat="43.19309" lon="5.56763">
        <ele>185.6</ele>
        <time>2022-05-01T09:44:39Z</time>
      </trkpt>
      <trkpt lat="43.19313" lon="5.56775">
        <ele>184.7</ele>
        <time>2022-05-01T09:44:53Z</time>
      </trkpt>
      <trkpt lat="43.19315" lon="5.56788">
        <ele>184</ele>
        <time>2022-05-01T09:45:02Z</time>
      </trkpt>
      <trkpt lat="43.19319" lon="5.56801">
        <ele>182.9</ele>
        <time>2022-05-01T09:45:11Z</time>
      </trkpt>
      <trkpt lat="43.19322" lon="5.56813">
        <ele>182.5</ele>
        <time>2022-05-01T09:45:19Z</time>
      </trkpt>
      <trkpt lat="43.19324" lon="5.56826">
        <ele>182.1</ele>
        <time>2022-05-01T09:45:28Z</time>
      </trkpt>
      <trkpt lat="43.19325" lon="5.56839">
        <ele>180.9</ele>
        <time>2022-05-01T09:45:37Z</time>
      </trkpt>
      <trkpt lat="43.19326" lon="5.56852">
        <ele>180</ele>
        <time>2022-05-01T09:45:51Z</time>
      </trkpt>
      <trkpt lat="43.19325" lon="5.56865">
        <ele>179</ele>
        <time>2022-05-01T09:45:59Z</time>
      </trkpt>
      <trkpt lat="43.19323" lon="5.56877">
        <ele>177.5</ele>
        <time>2022-05-01T09:46:07Z</time>
      </trkpt>
      <trkpt lat="43.19319" lon="5.56889">
        <ele>175.9</ele>
        <time>2022-05-01T09:46:15Z</time>
      </trkpt>
      <trkpt lat="43.19316" lon="5.56901">
        <ele>174.5</ele>
        <time>2022-05-01T09:46:23Z</time>
      </trkpt>
      <trkpt lat="43.19313" lon="5.56913">
        <ele>172.9</ele>
        <time>2022-05-01T09:46:31Z</time>
      </trkpt>
      <trkpt lat="43.19309" lon="5.56924">
        <ele>171.5</ele>
        <time>2022-05-01T09:46:39Z</time>
      </trkpt>
      <trkpt lat="43.19304" lon="5.56936">
        <ele>170.1</ele>
        <time>2022-05-01T09:46:47Z</time>
      </trkpt>
      <trkpt lat="43.19301" lon="5.56949">
        <ele>168.9</ele>
        <time>2022-05-01T09:46:56Z</time>
      </trkpt>
      <trkpt lat="43.193" lon="5.56963">
        <ele>167.8</ele>
        <time>2022-05-01T09:47:04Z</time>
      </trkpt>
      <trkpt lat="43.193" lon="5.56976">
        <ele>167</ele>
        <time>2022-05-01T09:47:12Z</time>
      </trkpt>
      <trkpt lat="43.19301" lon="5.56989">
        <ele>166.2</ele>
        <time>2022-05-01T09:47:20Z</time>
      </trkpt>
      <trkpt lat="43.19305" lon="5.57001">
        <ele>165.6</ele>
        <time>2022-05-01T09:47:28Z</time>
      </trkpt>
      <trkpt lat="43.19307" lon="5.57014">
        <ele>165.2</ele>
        <time>2022-05-01T09:47:36Z</time>
      </trkpt>
      <trkpt lat="43.19305" lon="5.57027">
        <ele>164.3</ele>
        <time>2022-05-01T09:47:44Z</time>
      </trkpt>
      <trkpt lat="43.19302" lon="5.57039">
        <ele>163.5</ele>
        <time>2022-05-01T09:47:51Z</time>
      </trkpt>
      <trkpt lat="43.19301" lon="5.57052">
        <ele>162.3</ele>
        <time>2022-05-01T09:48:00Z</time>
      </trkpt>
      <trkpt lat="43.19298" lon="5.57065">
        <ele>160.6</ele>
        <time>2022-05-01T09:48:08Z</time>
      </trkpt>
      <trkpt lat="43.19296" lon="5.57078">
        <ele>158.9</ele>
        <time>2022-05-01T09:48:17Z</time>
      </trkpt>
      <trkpt lat="43.19294" lon="5.57091">
        <ele>157</ele>
        <time>2022-05-01T09:48:27Z</time>
      </trkpt>
      <trkpt lat="43.19291" lon="5.57102">
        <ele>155.2</ele>
        <time>2022-05-01T09:48:36Z</time>
      </trkpt>
      <trkpt lat="43.19286" lon="5.57114">
        <ele>153.6</ele>
        <time>2022-05-01T09:48:44Z</time>
      </trkpt>
      <trkpt lat="43.19284" lon="5.57127">
        <ele>152</ele>
        <time>2022-05-01T09:48:52Z</time>
      </trkpt>
      <trkpt lat="43.19284" lon="5.5714">
        <ele>150</ele>
        <time>2022-05-01T09:49:01Z</time>
      </trkpt>
      <trkpt lat="43.19285" lon="5.57153">
        <ele>149.1</ele>
        <time>2022-05-01T09:49:09Z</time>
      </trkpt>
      <trkpt lat="43.19285" lon="5.57166">
        <ele>148.6</ele>
        <time>2022-05-01T09:49:17Z</time>
      </trkpt>
      <trkpt lat="43.19288" lon="5.57179">
        <ele>147.6</ele>
        <time>2022-05-01T09:49:27Z</time>
      </trkpt>
      <trkpt lat="43.19293" lon="5.57189">
        <ele>147.7</ele>
        <time>2022-05-01T09:50:01Z</time>
      </trkpt>
      <trkpt lat="43.19296" lon="5.57201">
        <ele>146</ele>
        <time>2022-05-01T09:50:54Z</time>
      </trkpt>
      <trkpt lat="43.19294" lon="5.57214">
        <ele>144.9</ele>
        <time>2022-05-01T09:51:08Z</time>
      </trkpt>
      <trkpt lat="43.19286" lon="5.57221">
        <ele>144.5</ele>
        <time>2022-05-01T09:51:21Z</time>
      </trkpt>
      <trkpt lat="43.19277" lon="5.57227">
        <ele>143.8</ele>
        <time>2022-05-01T09:51:31Z</time>
      </trkpt>
      <trkpt lat="43.19269" lon="5.57234">
        <ele>143.3</ele>
        <time>2022-05-01T09:51:40Z</time>
      </trkpt>
      <trkpt lat="43.19262" lon="5.57242">
        <ele>142.6</ele>
        <time>2022-05-01T09:51:50Z</time>
      </trkpt>
      <trkpt lat="43.19254" lon="5.5725">
        <ele>141.8</ele>
        <time>2022-05-01T09:52:01Z</time>
      </trkpt>
      <trkpt lat="43.19248" lon="5.57259">
        <ele>140.8</ele>
        <time>2022-05-01T09:52:10Z</time>
      </trkpt>
      <trkpt lat="43.19242" lon="5.5727">
        <ele>139.9</ele>
        <time>2022-05-01T09:52:20Z</time>
      </trkpt>
      <trkpt lat="43.19237" lon="5.57282">
        <ele>139.8</ele>
        <time>2022-05-01T09:52:28Z</time>
      </trkpt>
      <trkpt lat="43.19233" lon="5.57294">
        <ele>139.5</ele>
        <time>2022-05-01T09:52:43Z</time>
      </trkpt>
      <trkpt lat="43.19229" lon="5.57306">
        <ele>139</ele>
        <time>2022-05-01T09:52:53Z</time>
      </trkpt>
      <trkpt lat="43.19224" lon="5.57318">
        <ele>138.6</ele>
        <time>2022-05-01T09:53:02Z</time>
      </trkpt>
      <trkpt lat="43.1922" lon="5.5733">
        <ele>138.5</ele>
        <time>2022-05-01T09:53:11Z</time>
      </trkpt>
      <trkpt lat="43.19212" lon="5.57335">
        <ele>138.6</ele>
        <time>2022-05-01T09:53:22Z</time>
      </trkpt>
      <trkpt lat="43.19205" lon="5.57328">
        <ele>138.3</ele>
        <time>2022-05-01T09:56:11Z</time>
      </trkpt>
      <trkpt lat="43.19203" lon="5.57315">
        <ele>138.8</ele>
        <time>2022-05-01T09:56:20Z</time>
      </trkpt>
      <trkpt lat="43.19201" lon="5.57303">
        <ele>139.7</ele>
        <time>2022-05-01T09:56:29Z</time>
      </trkpt>
      <trkpt lat="43.19199" lon="5.57291">
        <ele>140.4</ele>
        <time>2022-05-01T09:56:52Z</time>
      </trkpt>
      <trkpt lat="43.19196" lon="5.57278">
        <ele>141.1</ele>
        <time>2022-05-01T09:57:07Z</time>
      </trkpt>
      <trkpt lat="43.19193" lon="5.57266">
        <ele>142</ele>
        <time>2022-05-01T09:57:16Z</time>
      </trkpt>
      <trkpt lat="43.19189" lon="5.57254">
        <ele>142.9</ele>
        <time>2022-05-01T09:57:25Z</time>
      </trkpt>
      <trkpt lat="43.19186" lon="5.57243">
        <ele>143.7</ele>
        <time>2022-05-01T09:57:34Z</time>
      </trkpt>
      <trkpt lat="43.19183" lon="5.5723">
        <ele>144.2</ele>
        <time>2022-05-01T09:57:43Z</time>
      </trkpt>
      <trkpt lat="43.19178" lon="5.57218">
        <ele>145.5</ele>
        <time>2022-05-01T09:57:53Z</time>
      </trkpt>
      <trkpt lat="43.19173" lon="5.57208">
        <ele>146.2</ele>
        <time>2022-05-01T09:58:03Z</time>
      </trkpt>
      <trkpt lat="43.19167" lon="5.57197">
        <ele>147.1</ele>
        <time>2022-05-01T09:58:13Z</time>
      </trkpt>
      <trkpt lat="43.19161" lon="5.57186">
        <ele>147.6</ele>
        <time>2022-05-01T09:58:26Z</time>
      </trkpt>
      <trkpt lat="43.19156" lon="5.57175">
        <ele>148.8</ele>
        <time>2022-05-01T09:58:35Z</time>
      </trkpt>
      <trkpt lat="43.19151" lon="5.57163">
        <ele>149.6</ele>
        <time>2022-05-01T09:58:44Z</time>
      </trkpt>
      <trkpt lat="43.19146" lon="5.57152">
        <ele>150.4</ele>
        <time>2022-05-01T09:58:53Z</time>
      </trkpt>
      <trkpt lat="43.19138" lon="5.57143">
        <ele>151.4</ele>
        <time>2022-05-01T09:59:03Z</time>
      </trkpt>
      <trkpt lat="43.1913" lon="5.57138">
        <ele>152.7</ele>
        <time>2022-05-01T09:59:11Z</time>
      </trkpt>
      <trkpt lat="43.19122" lon="5.57131">
        <ele>153.9</ele>
        <time>2022-05-01T09:59:20Z</time>
      </trkpt>
      <trkpt lat="43.19113" lon="5.57125">
        <ele>155</ele>
        <time>2022-05-01T09:59:29Z</time>
      </trkpt>
      <trkpt lat="43.19105" lon="5.57119">
        <ele>156.4</ele>
        <time>2022-05-01T09:59:41Z</time>
      </trkpt>
      <trkpt lat="43.19097" lon="5.57112">
        <ele>157.8</ele>
        <time>2022-05-01T09:59:51Z</time>
      </trkpt>
      <trkpt lat="43.19088" lon="5.57108">
        <ele>159.3</ele>
        <time>2022-05-01T10:00:01Z</time>
      </trkpt>
      <trkpt lat="43.1908" lon="5.57101">
        <ele>160.7</ele>
        <time>2022-05-01T10:00:11Z</time>
      </trkpt>
      <trkpt lat="43.19071" lon="5.57094">
        <ele>161.3</ele>
        <time>2022-05-01T10:00:21Z</time>
      </trkpt>
      <trkpt lat="43.19064" lon="5.57086">
        <ele>161.7</ele>
        <time>2022-05-01T10:00:30Z</time>
      </trkpt>
      <trkpt lat="43.19057" lon="5.57077">
        <ele>162.9</ele>
        <time>2022-05-01T10:00:39Z</time>
      </trkpt>
      <trkpt lat="43.19051" lon="5.57066">
        <ele>163.2</ele>
        <time>2022-05-01T10:00:47Z</time>
      </trkpt>
      <trkpt lat="43.19046" lon="5.57056">
        <ele>163.8</ele>
        <time>2022-05-01T10:00:55Z</time>
      </trkpt>
      <trkpt lat="43.19039" lon="5.57046">
        <ele>164.6</ele>
        <time>2022-05-01T10:01:04Z</time>
      </trkpt>
      <trkpt lat="43.19035" lon="5.57035">
        <ele>165</ele>
        <time>2022-05-01T10:01:12Z</time>
      </trkpt>
      <trkpt lat="43.1903" lon="5.57023">
        <ele>165.6</ele>
        <time>2022-05-01T10:01:21Z</time>
      </trkpt>
      <trkpt lat="43.19028" lon="5.5701">
        <ele>166.2</ele>
        <time>2022-05-01T10:01:30Z</time>
      </trkpt>
      <trkpt lat="43.19026" lon="5.56997">
        <ele>166.6</ele>
        <time>2022-05-01T10:01:38Z</time>
      </trkpt>
      <trkpt lat="43.19023" lon="5.56984">
        <ele>167</ele>
        <time>2022-05-01T10:01:46Z</time>
      </trkpt>
      <trkpt lat="43.19019" lon="5.56973">
        <ele>167.4</ele>
        <time>2022-05-01T10:01:54Z</time>
      </trkpt>
      <trkpt lat="43.19014" lon="5.56962">
        <ele>168</ele>
        <time>2022-05-01T10:02:03Z</time>
      </trkpt>
      <trkpt lat="43.19007" lon="5.56953">
        <ele>168.7</ele>
        <time>2022-05-01T10:02:12Z</time>
      </trkpt>
      <trkpt lat="43.19" lon="5.56944">
        <ele>169.5</ele>
        <time>2022-05-01T10:02:21Z</time>
      </trkpt>
      <trkpt lat="43.18993" lon="5.56936">
        <ele>170.3</ele>
        <time>2022-05-01T10:02:30Z</time>
      </trkpt>
      <trkpt lat="43.18987" lon="5.56925">
        <ele>171.4</ele>
        <time>2022-05-01T10:02:40Z</time>
      </trkpt>
      <trkpt lat="43.1898" lon="5.56917">
        <ele>172.2</ele>
        <time>2022-05-01T10:02:49Z</time>
      </trkpt>
      <trkpt lat="43.18973" lon="5.56907">
        <ele>173.1</ele>
        <time>2022-05-01T10:02:59Z</time>
      </trkpt>
      <trkpt lat="43.18966" lon="5.56898">
        <ele>174</ele>
        <time>2022-05-01T10:03:08Z</time>
      </trkpt>
      <trkpt lat="43.18959" lon="5.56887">
        <ele>174.6</ele>
        <time>2022-05-01T10:03:17Z</time>
      </trkpt>
      <trkpt lat="43.18952" lon="5.5688">
        <ele>175.1</ele>
        <time>2022-05-01T10:03:25Z</time>
      </trkpt>
      <trkpt lat="43.18944" lon="5.56874">
        <ele>175.5</ele>
        <time>2022-05-01T10:03:32Z</time>
      </trkpt>
      <trkpt lat="43.18935" lon="5.5687">
        <ele>176.1</ele>
        <time>2022-05-01T10:03:40Z</time>
      </trkpt>
      <trkpt lat="43.18927" lon="5.56866">
        <ele>176.8</ele>
        <time>2022-05-01T10:03:48Z</time>
      </trkpt>
      <trkpt lat="43.18918" lon="5.5686">
        <ele>177.4</ele>
        <time>2022-05-01T10:03:58Z</time>
      </trkpt>
      <trkpt lat="43.18909" lon="5.56858">
        <ele>179.1</ele>
        <time>2022-05-01T10:04:13Z</time>
      </trkpt>
      <trkpt lat="43.189" lon="5.56856">
        <ele>181.2</ele>
        <time>2022-05-01T10:04:24Z</time>
      </trkpt>
      <trkpt lat="43.18891" lon="5.56854">
        <ele>183.2</ele>
        <time>2022-05-01T10:04:34Z</time>
      </trkpt>
      <trkpt lat="43.18881" lon="5.56855">
        <ele>185.3</ele>
        <time>2022-05-01T10:04:46Z</time>
      </trkpt>
      <trkpt lat="43.18872" lon="5.5686">
        <ele>187.4</ele>
        <time>2022-05-01T10:04:58Z</time>
      </trkpt>
      <trkpt lat="43.18862" lon="5.56861">
        <ele>189.5</ele>
        <time>2022-05-01T10:05:10Z</time>
      </trkpt>
      <trkpt lat="43.18853" lon="5.56863">
        <ele>191.4</ele>
        <time>2022-05-01T10:05:23Z</time>
      </trkpt>
      <trkpt lat="43.18843" lon="5.56866">
        <ele>194</ele>
        <time>2022-05-01T10:05:36Z</time>
      </trkpt>
      <trkpt lat="43.18835" lon="5.56872">
        <ele>196</ele>
        <time>2022-05-01T10:05:47Z</time>
      </trkpt>
      <trkpt lat="43.18825" lon="5.56871">
        <ele>198.9</ele>
        <time>2022-05-01T10:06:02Z</time>
      </trkpt>
      <trkpt lat="43.1882" lon="5.5686">
        <ele>201.9</ele>
        <time>2022-05-01T10:06:16Z</time>
      </trkpt>
      <trkpt lat="43.1881" lon="5.56856">
        <ele>203.7</ele>
        <time>2022-05-01T10:06:29Z</time>
      </trkpt>
      <trkpt lat="43.18802" lon="5.56851">
        <ele>204.9</ele>
        <time>2022-05-01T10:06:41Z</time>
      </trkpt>
      <trkpt lat="43.18793" lon="5.56848">
        <ele>206.3</ele>
        <time>2022-05-01T10:06:54Z</time>
      </trkpt>
      <trkpt lat="43.18784" lon="5.56843">
        <ele>208</ele>
        <time>2022-05-01T10:07:08Z</time>
      </trkpt>
      <trkpt lat="43.18776" lon="5.56836">
        <ele>209</ele>
        <time>2022-05-01T10:07:24Z</time>
      </trkpt>
      <trkpt lat="43.18764" lon="5.56832">
        <ele>211.1</ele>
        <time>2022-05-01T10:07:31Z</time>
      </trkpt>
      <trkpt lat="43.18754" lon="5.56829">
        <ele>211</ele>
        <time>2022-05-01T10:07:36Z</time>
      </trkpt>
      <trkpt lat="43.18743" lon="5.56824">
        <ele>212</ele>
        <time>2022-05-01T10:07:44Z</time>
      </trkpt>
      <trkpt lat="43.18733" lon="5.56816">
        <ele>215</ele>
        <time>2022-05-01T10:08:00Z</time>
      </trkpt>
      <trkpt lat="43.18722" lon="5.56807">
        <ele>217</ele>
        <time>2022-05-01T10:08:12Z</time>
      </trkpt>
      <trkpt lat="43.18714" lon="5.568">
        <ele>219</ele>
        <time>2022-05-01T10:08:30Z</time>
      </trkpt>
      <trkpt lat="43.18706" lon="5.56793">
        <ele>220</ele>
        <time>2022-05-01T10:08:40Z</time>
      </trkpt>
      <trkpt lat="43.18698" lon="5.56785">
        <ele>223.9</ele>
        <time>2022-05-01T10:08:57Z</time>
      </trkpt>
      <trkpt lat="43.18692" lon="5.56776">
        <ele>225.6</ele>
        <time>2022-05-01T10:09:09Z</time>
      </trkpt>
      <trkpt lat="43.18684" lon="5.5677">
        <ele>227.6</ele>
        <time>2022-05-01T10:09:22Z</time>
      </trkpt>
      <trkpt lat="43.18677" lon="5.56761">
        <ele>230.5</ele>
        <time>2022-05-01T10:09:38Z</time>
      </trkpt>
      <trkpt lat="43.18671" lon="5.56751">
        <ele>233.6</ele>
        <time>2022-05-01T10:09:53Z</time>
      </trkpt>
      <trkpt lat="43.18668" lon="5.56739">
        <ele>237.2</ele>
        <time>2022-05-01T10:10:12Z</time>
      </trkpt>
      <trkpt lat="43.18663" lon="5.56728">
        <ele>240.2</ele>
        <time>2022-05-01T10:10:29Z</time>
      </trkpt>
      <trkpt lat="43.18657" lon="5.56717">
        <ele>242.4</ele>
        <time>2022-05-01T10:10:42Z</time>
      </trkpt>
      <trkpt lat="43.18651" lon="5.56706">
        <ele>244.4</ele>
        <time>2022-05-01T10:10:54Z</time>
      </trkpt>
      <trkpt lat="43.18644" lon="5.56697">
        <ele>247.1</ele>
        <time>2022-05-01T10:11:08Z</time>
      </trkpt>
      <trkpt lat="43.18638" lon="5.56688">
        <ele>250</ele>
        <time>2022-05-01T10:11:23Z</time>
      </trkpt>
      <trkpt lat="43.18631" lon="5.5668">
        <ele>252.7</ele>
        <time>2022-05-01T10:11:39Z</time>
      </trkpt>
      <trkpt lat="43.18623" lon="5.56674">
        <ele>254.6</ele>
        <time>2022-05-01T10:11:49Z</time>
      </trkpt>
      <trkpt lat="43.18617" lon="5.56663">
        <ele>260.6</ele>
        <time>2022-05-01T10:12:18Z</time>
      </trkpt>
      <trkpt lat="43.18609" lon="5.56655">
        <ele>262.9</ele>
        <time>2022-05-01T10:12:29Z</time>
      </trkpt>
      <trkpt lat="43.18601" lon="5.56648">
        <ele>265.7</ele>
        <time>2022-05-01T10:12:44Z</time>
      </trkpt>
      <trkpt lat="43.18593" lon="5.56644">
        <ele>269.4</ele>
        <time>2022-05-01T10:13:04Z</time>
      </trkpt>
      <trkpt lat="43.18582" lon="5.56642">
        <ele>272</ele>
        <time>2022-05-01T10:13:18Z</time>
      </trkpt>
      <trkpt lat="43.18572" lon="5.56645">
        <ele>274.5</ele>
        <time>2022-05-01T10:13:34Z</time>
      </trkpt>
      <trkpt lat="43.18564" lon="5.56647">
        <ele>275.8</ele>
        <time>2022-05-01T10:13:42Z</time>
      </trkpt>
      <trkpt lat="43.18553" lon="5.56646">
        <ele>278</ele>
        <time>2022-05-01T10:14:00Z</time>
      </trkpt>
      <trkpt lat="43.18543" lon="5.56645">
        <ele>280.9</ele>
        <time>2022-05-01T10:14:14Z</time>
      </trkpt>
      <trkpt lat="43.1853" lon="5.56641">
        <ele>285</ele>
        <time>2022-05-01T10:14:43Z</time>
      </trkpt>
      <trkpt lat="43.18519" lon="5.56637">
        <ele>289</ele>
        <time>2022-05-01T10:14:59Z</time>
      </trkpt>
      <trkpt lat="43.1851" lon="5.56641">
        <ele>292</ele>
        <time>2022-05-01T10:15:11Z</time>
      </trkpt>
      <trkpt lat="43.18501" lon="5.56646">
        <ele>293</ele>
        <time>2022-05-01T10:15:19Z</time>
      </trkpt>
      <trkpt lat="43.18493" lon="5.56653">
        <ele>294</ele>
        <time>2022-05-01T10:15:27Z</time>
      </trkpt>
      <trkpt lat="43.18493" lon="5.56665">
        <ele>297.1</ele>
        <time>2022-05-01T10:18:33Z</time>
      </trkpt>
      <trkpt lat="43.18499" lon="5.56676">
        <ele>298.9</ele>
        <time>2022-05-01T10:18:47Z</time>
      </trkpt>
      <trkpt lat="43.18505" lon="5.56685">
        <ele>300.7</ele>
        <time>2022-05-01T10:19:33Z</time>
      </trkpt>
      <trkpt lat="43.1851" lon="5.56695">
        <ele>302.7</ele>
        <time>2022-05-01T10:19:46Z</time>
      </trkpt>
      <trkpt lat="43.18516" lon="5.56705">
        <ele>304.9</ele>
        <time>2022-05-01T10:19:58Z</time>
      </trkpt>
      <trkpt lat="43.18524" lon="5.56713">
        <ele>306.4</ele>
        <time>2022-05-01T10:20:09Z</time>
      </trkpt>
      <trkpt lat="43.18528" lon="5.56725">
        <ele>307.8</ele>
        <time>2022-05-01T10:20:22Z</time>
      </trkpt>
      <trkpt lat="43.18536" lon="5.56731">
        <ele>308.2</ele>
        <time>2022-05-01T10:20:32Z</time>
      </trkpt>
      <trkpt lat="43.18543" lon="5.56739">
        <ele>308</ele>
        <time>2022-05-01T10:20:41Z</time>
      </trkpt>
      <trkpt lat="43.1855" lon="5.56748">
        <ele>307</ele>
        <time>2022-05-01T10:21:05Z</time>
      </trkpt>
      <trkpt lat="43.18556" lon="5.56758">
        <ele>306.3</ele>
        <time>2022-05-01T10:21:15Z</time>
      </trkpt>
      <trkpt lat="43.18556" lon="5.56771">
        <ele>306.3</ele>
        <time>2022-05-01T10:21:24Z</time>
      </trkpt>
      <trkpt lat="43.18556" lon="5.56784">
        <ele>306.9</ele>
        <time>2022-05-01T10:21:33Z</time>
      </trkpt>
      <trkpt lat="43.18556" lon="5.56797">
        <ele>307.1</ele>
        <time>2022-05-01T10:21:41Z</time>
      </trkpt>
      <trkpt lat="43.18552" lon="5.5681">
        <ele>307.9</ele>
        <time>2022-05-01T10:21:50Z</time>
      </trkpt>
      <trkpt lat="43.18548" lon="5.56821">
        <ele>309.1</ele>
        <time>2022-05-01T10:21:59Z</time>
      </trkpt>
      <trkpt lat="43.1855" lon="5.56834">
        <ele>310.1</ele>
        <time>2022-05-01T10:22:08Z</time>
      </trkpt>
      <trkpt lat="43.1855" lon="5.56846">
        <ele>311</ele>
        <time>2022-05-01T10:22:17Z</time>
      </trkpt>
      <trkpt lat="43.18549" lon="5.56859">
        <ele>312.8</ele>
        <time>2022-05-01T10:22:28Z</time>
      </trkpt>
      <trkpt lat="43.18547" lon="5.56871">
        <ele>314.6</ele>
        <time>2022-05-01T10:22:50Z</time>
      </trkpt>
      <trkpt lat="43.18554" lon="5.56879">
        <ele>313.7</ele>
        <time>2022-05-01T10:25:03Z</time>
      </trkpt>
      <trkpt lat="43.18558" lon="5.56891">
        <ele>315.6</ele>
        <time>2022-05-01T10:25:18Z</time>
      </trkpt>
      <trkpt lat="43.18565" lon="5.56899">
        <ele>318.1</ele>
        <time>2022-05-01T10:25:37Z</time>
      </trkpt>
      <trkpt lat="43.18569" lon="5.5691">
        <ele>321.9</ele>
        <time>2022-05-01T10:26:03Z</time>
      </trkpt>
      <trkpt lat="43.18574" lon="5.56922">
        <ele>323.1</ele>
        <time>2022-05-01T10:26:16Z</time>
      </trkpt>
      <trkpt lat="43.1858" lon="5.56931">
        <ele>323.4</ele>
        <time>2022-05-01T10:26:26Z</time>
      </trkpt>
      <trkpt lat="43.18589" lon="5.56932">
        <ele>321.4</ele>
        <time>2022-05-01T10:26:38Z</time>
      </trkpt>
      <trkpt lat="43.18589" lon="5.56945">
        <ele>325.5</ele>
        <time>2022-05-01T10:27:13Z</time>
      </trkpt>
      <trkpt lat="43.18591" lon="5.56957">
        <ele>325.6</ele>
        <time>2022-05-01T10:27:57Z</time>
      </trkpt>
      <trkpt lat="43.18589" lon="5.56945">
        <ele>325.8</ele>
        <time>2022-05-01T10:29:49Z</time>
      </trkpt>
      <trkpt lat="43.18594" lon="5.56955">
        <ele>323.2</ele>
        <time>2022-05-01T10:30:42Z</time>
      </trkpt>
      <trkpt lat="43.186" lon="5.56965">
        <ele>321.3</ele>
        <time>2022-05-01T10:30:55Z</time>
      </trkpt>
      <trkpt lat="43.18601" lon="5.56978">
        <ele>323.4</ele>
        <time>2022-05-01T10:31:07Z</time>
      </trkpt>
      <trkpt lat="43.186" lon="5.56991">
        <ele>324.1</ele>
        <time>2022-05-01T10:31:19Z</time>
      </trkpt>
      <trkpt lat="43.18599" lon="5.57004">
        <ele>324</ele>
        <time>2022-05-01T10:31:33Z</time>
      </trkpt>
      <trkpt lat="43.18595" lon="5.57016">
        <ele>323.5</ele>
        <time>2022-05-01T10:31:48Z</time>
      </trkpt>
      <trkpt lat="43.18594" lon="5.57028">
        <ele>321.1</ele>
        <time>2022-05-01T10:32:40Z</time>
      </trkpt>
      <trkpt lat="43.1859" lon="5.5704">
        <ele>319.7</ele>
        <time>2022-05-01T10:32:58Z</time>
      </trkpt>
      <trkpt lat="43.18597" lon="5.57048">
        <ele>319.3</ele>
        <time>2022-05-01T11:08:13Z</time>
      </trkpt>
      <trkpt lat="43.18589" lon="5.57043">
        <ele>320.4</ele>
        <time>2022-05-01T11:11:48Z</time>
      </trkpt>
      <trkpt lat="43.18593" lon="5.57032">
        <ele>322.2</ele>
        <time>2022-05-01T11:30:43Z</time>
      </trkpt>
      <trkpt lat="43.18595" lon="5.57019">
        <ele>324.5</ele>
        <time>2022-05-01T11:31:04Z</time>
      </trkpt>
      <trkpt lat="43.18603" lon="5.57014">
        <ele>324</ele>
        <time>2022-05-01T11:31:28Z</time>
      </trkpt>
      <trkpt lat="43.18612" lon="5.57013">
        <ele>320.9</ele>
        <time>2022-05-01T11:31:49Z</time>
      </trkpt>
      <trkpt lat="43.18622" lon="5.57015">
        <ele>317.5</ele>
        <time>2022-05-01T11:32:08Z</time>
      </trkpt>
      <trkpt lat="43.18631" lon="5.57017">
        <ele>314.1</ele>
        <time>2022-05-01T11:32:25Z</time>
      </trkpt>
      <trkpt lat="43.1864" lon="5.57019">
        <ele>311.8</ele>
        <time>2022-05-01T11:32:38Z</time>
      </trkpt>
      <trkpt lat="43.18649" lon="5.57021">
        <ele>309.1</ele>
        <time>2022-05-01T11:32:53Z</time>
      </trkpt>
      <trkpt lat="43.18659" lon="5.5702">
        <ele>307.1</ele>
        <time>2022-05-01T11:33:08Z</time>
      </trkpt>
      <trkpt lat="43.18668" lon="5.5702">
        <ele>305.6</ele>
        <time>2022-05-01T11:33:19Z</time>
      </trkpt>
      <trkpt lat="43.18677" lon="5.57023">
        <ele>304</ele>
        <time>2022-05-01T11:33:31Z</time>
      </trkpt>
      <trkpt lat="43.18686" lon="5.57026">
        <ele>302</ele>
        <time>2022-05-01T11:33:44Z</time>
      </trkpt>
      <trkpt lat="43.18694" lon="5.57032">
        <ele>300.5</ele>
        <time>2022-05-01T11:33:55Z</time>
      </trkpt>
      <trkpt lat="43.18703" lon="5.57034">
        <ele>299.3</ele>
        <time>2022-05-01T11:34:21Z</time>
      </trkpt>
      <trkpt lat="43.18712" lon="5.5704">
        <ele>298.3</ele>
        <time>2022-05-01T11:34:31Z</time>
      </trkpt>
      <trkpt lat="43.18721" lon="5.57043">
        <ele>297.5</ele>
        <time>2022-05-01T11:34:42Z</time>
      </trkpt>
      <trkpt lat="43.18729" lon="5.57049">
        <ele>295.6</ele>
        <time>2022-05-01T11:34:55Z</time>
      </trkpt>
      <trkpt lat="43.18738" lon="5.57055">
        <ele>294.8</ele>
        <time>2022-05-01T11:35:08Z</time>
      </trkpt>
      <trkpt lat="43.18747" lon="5.5706">
        <ele>294.4</ele>
        <time>2022-05-01T11:35:19Z</time>
      </trkpt>
      <trkpt lat="43.18756" lon="5.57065">
        <ele>294.6</ele>
        <time>2022-05-01T11:35:30Z</time>
      </trkpt>
      <trkpt lat="43.18764" lon="5.5707">
        <ele>292.3</ele>
        <time>2022-05-01T11:35:41Z</time>
      </trkpt>
      <trkpt lat="43.18773" lon="5.57076">
        <ele>290.6</ele>
        <time>2022-05-01T11:35:58Z</time>
      </trkpt>
      <trkpt lat="43.18781" lon="5.57082">
        <ele>289.2</ele>
        <time>2022-05-01T11:36:07Z</time>
      </trkpt>
      <trkpt lat="43.18789" lon="5.57089">
        <ele>287.6</ele>
        <time>2022-05-01T11:36:18Z</time>
      </trkpt>
      <trkpt lat="43.18795" lon="5.57098">
        <ele>284.9</ele>
        <time>2022-05-01T11:36:30Z</time>
      </trkpt>
      <trkpt lat="43.18802" lon="5.57106">
        <ele>282.9</ele>
        <time>2022-05-01T11:36:41Z</time>
      </trkpt>
      <trkpt lat="43.18811" lon="5.57111">
        <ele>281.4</ele>
        <time>2022-05-01T11:36:52Z</time>
      </trkpt>
      <trkpt lat="43.1882" lon="5.57116">
        <ele>279.4</ele>
        <time>2022-05-01T11:37:03Z</time>
      </trkpt>
      <trkpt lat="43.18828" lon="5.57121">
        <ele>276.5</ele>
        <time>2022-05-01T11:37:17Z</time>
      </trkpt>
      <trkpt lat="43.18837" lon="5.57126">
        <ele>274.5</ele>
        <time>2022-05-01T11:37:29Z</time>
      </trkpt>
      <trkpt lat="43.18846" lon="5.5713">
        <ele>271.8</ele>
        <time>2022-05-01T11:37:41Z</time>
      </trkpt>
      <trkpt lat="43.18855" lon="5.5713">
        <ele>268.4</ele>
        <time>2022-05-01T11:38:27Z</time>
      </trkpt>
      <trkpt lat="43.18863" lon="5.57136">
        <ele>266.6</ele>
        <time>2022-05-01T11:39:07Z</time>
      </trkpt>
      <trkpt lat="43.18872" lon="5.5714">
        <ele>263.1</ele>
        <time>2022-05-01T11:39:24Z</time>
      </trkpt>
      <trkpt lat="43.1888" lon="5.57146">
        <ele>259.8</ele>
        <time>2022-05-01T11:39:40Z</time>
      </trkpt>
      <trkpt lat="43.18889" lon="5.5715">
        <ele>257.8</ele>
        <time>2022-05-01T11:39:52Z</time>
      </trkpt>
      <trkpt lat="43.18898" lon="5.57153">
        <ele>255.4</ele>
        <time>2022-05-01T11:40:11Z</time>
      </trkpt>
      <trkpt lat="43.18895" lon="5.57166">
        <ele>254.8</ele>
        <time>2022-05-01T11:40:44Z</time>
      </trkpt>
      <trkpt lat="43.1889" lon="5.57177">
        <ele>253.8</ele>
        <time>2022-05-01T11:41:09Z</time>
      </trkpt>
      <trkpt lat="43.18886" lon="5.57188">
        <ele>251.8</ele>
        <time>2022-05-01T11:41:42Z</time>
      </trkpt>
      <trkpt lat="43.1888" lon="5.57198">
        <ele>250.2</ele>
        <time>2022-05-01T11:41:59Z</time>
      </trkpt>
      <trkpt lat="43.18878" lon="5.5721">
        <ele>247.7</ele>
        <time>2022-05-01T11:42:15Z</time>
      </trkpt>
      <trkpt lat="43.18882" lon="5.57222">
        <ele>246.1</ele>
        <time>2022-05-01T11:42:28Z</time>
      </trkpt>
      <trkpt lat="43.1889" lon="5.57227">
        <ele>245.5</ele>
        <time>2022-05-01T11:42:39Z</time>
      </trkpt>
      <trkpt lat="43.18899" lon="5.57232">
        <ele>244.7</ele>
        <time>2022-05-01T11:42:49Z</time>
      </trkpt>
      <trkpt lat="43.18908" lon="5.57236">
        <ele>244.5</ele>
        <time>2022-05-01T11:43:00Z</time>
      </trkpt>
      <trkpt lat="43.18917" lon="5.5724">
        <ele>244.9</ele>
        <time>2022-05-01T11:43:13Z</time>
      </trkpt>
      <trkpt lat="43.18919" lon="5.57252">
        <ele>243.4</ele>
        <time>2022-05-01T11:43:29Z</time>
      </trkpt>
      <trkpt lat="43.1891" lon="5.57257">
        <ele>241.1</ele>
        <time>2022-05-01T11:44:02Z</time>
      </trkpt>
      <trkpt lat="43.18901" lon="5.57258">
        <ele>240.3</ele>
        <time>2022-05-01T11:44:14Z</time>
      </trkpt>
      <trkpt lat="43.18892" lon="5.57259">
        <ele>238.5</ele>
        <time>2022-05-01T11:44:26Z</time>
      </trkpt>
      <trkpt lat="43.18883" lon="5.57261">
        <ele>236.9</ele>
        <time>2022-05-01T11:44:37Z</time>
      </trkpt>
      <trkpt lat="43.18874" lon="5.57262">
        <ele>235.5</ele>
        <time>2022-05-01T11:45:24Z</time>
      </trkpt>
      <trkpt lat="43.18868" lon="5.57252">
        <ele>235.8</ele>
        <time>2022-05-01T11:45:36Z</time>
      </trkpt>
      <trkpt lat="43.18866" lon="5.5724">
        <ele>235.9</ele>
        <time>2022-05-01T11:45:45Z</time>
      </trkpt>
      <trkpt lat="43.18863" lon="5.57227">
        <ele>235.6</ele>
        <time>2022-05-01T11:45:54Z</time>
      </trkpt>
      <trkpt lat="43.18862" lon="5.57214">
        <ele>235.1</ele>
        <time>2022-05-01T11:46:00Z</time>
      </trkpt>
      <trkpt lat="43.18862" lon="5.57202">
        <ele>234.8</ele>
        <time>2022-05-01T11:46:07Z</time>
      </trkpt>
      <trkpt lat="43.18859" lon="5.57189">
        <ele>234.7</ele>
        <time>2022-05-01T11:46:14Z</time>
      </trkpt>
      <trkpt lat="43.18853" lon="5.57178">
        <ele>234.2</ele>
        <time>2022-05-01T11:46:21Z</time>
      </trkpt>
      <trkpt lat="43.18845" lon="5.57174">
        <ele>234.2</ele>
        <time>2022-05-01T11:46:28Z</time>
      </trkpt>
      <trkpt lat="43.18836" lon="5.5717">
        <ele>234.4</ele>
        <time>2022-05-01T11:46:35Z</time>
      </trkpt>
      <trkpt lat="43.18828" lon="5.57165">
        <ele>234.3</ele>
        <time>2022-05-01T11:46:45Z</time>
      </trkpt>
      <trkpt lat="43.18819" lon="5.57161">
        <ele>234.1</ele>
        <time>2022-05-01T11:46:55Z</time>
      </trkpt>
      <trkpt lat="43.1881" lon="5.57155">
        <ele>234.2</ele>
        <time>2022-05-01T11:47:14Z</time>
      </trkpt>
      <trkpt lat="43.18801" lon="5.57151">
        <ele>234.4</ele>
        <time>2022-05-01T11:47:24Z</time>
      </trkpt>
      <trkpt lat="43.18792" lon="5.57149">
        <ele>234.3</ele>
        <time>2022-05-01T11:47:34Z</time>
      </trkpt>
      <trkpt lat="43.18783" lon="5.57148">
        <ele>234.3</ele>
        <time>2022-05-01T11:47:44Z</time>
      </trkpt>
      <trkpt lat="43.18774" lon="5.57145">
        <ele>234.2</ele>
        <time>2022-05-01T11:47:54Z</time>
      </trkpt>
      <trkpt lat="43.18765" lon="5.57142">
        <ele>234.7</ele>
        <time>2022-05-01T11:48:11Z</time>
      </trkpt>
      <trkpt lat="43.18755" lon="5.5714">
        <ele>234.7</ele>
        <time>2022-05-01T11:48:20Z</time>
      </trkpt>
      <trkpt lat="43.18745" lon="5.57136">
        <ele>234.6</ele>
        <time>2022-05-01T11:48:29Z</time>
      </trkpt>
      <trkpt lat="43.18736" lon="5.57136">
        <ele>234.7</ele>
        <time>2022-05-01T11:48:38Z</time>
      </trkpt>
      <trkpt lat="43.18727" lon="5.57136">
        <ele>234.6</ele>
        <time>2022-05-01T11:48:46Z</time>
      </trkpt>
      <trkpt lat="43.18717" lon="5.57136">
        <ele>234.7</ele>
        <time>2022-05-01T11:49:01Z</time>
      </trkpt>
      <trkpt lat="43.18707" lon="5.57137">
        <ele>234.8</ele>
        <time>2022-05-01T11:49:08Z</time>
      </trkpt>
      <trkpt lat="43.18698" lon="5.57143">
        <ele>234.5</ele>
        <time>2022-05-01T11:49:16Z</time>
      </trkpt>
      <trkpt lat="43.18697" lon="5.57155">
        <ele>234.2</ele>
        <time>2022-05-01T11:49:21Z</time>
      </trkpt>
      <trkpt lat="43.18698" lon="5.57169">
        <ele>234</ele>
        <time>2022-05-01T11:49:29Z</time>
      </trkpt>
      <trkpt lat="43.18698" lon="5.57181">
        <ele>233.8</ele>
        <time>2022-05-01T11:49:36Z</time>
      </trkpt>
      <trkpt lat="43.18699" lon="5.57194">
        <ele>233.4</ele>
        <time>2022-05-01T11:49:47Z</time>
      </trkpt>
      <trkpt lat="43.18698" lon="5.57207">
        <ele>233.8</ele>
        <time>2022-05-01T11:50:09Z</time>
      </trkpt>
      <trkpt lat="43.18702" lon="5.57218">
        <ele>233.1</ele>
        <time>2022-05-01T11:50:41Z</time>
      </trkpt>
      <trkpt lat="43.18702" lon="5.5723">
        <ele>232.5</ele>
        <time>2022-05-01T11:50:51Z</time>
      </trkpt>
      <trkpt lat="43.187" lon="5.57243">
        <ele>231.8</ele>
        <time>2022-05-01T11:51:01Z</time>
      </trkpt>
      <trkpt lat="43.18696" lon="5.57255">
        <ele>231</ele>
        <time>2022-05-01T11:51:11Z</time>
      </trkpt>
      <trkpt lat="43.18692" lon="5.57266">
        <ele>229.6</ele>
        <time>2022-05-01T11:51:21Z</time>
      </trkpt>
      <trkpt lat="43.18688" lon="5.57277">
        <ele>228.9</ele>
        <time>2022-05-01T11:51:30Z</time>
      </trkpt>
      <trkpt lat="43.18681" lon="5.57287">
        <ele>227.9</ele>
        <time>2022-05-01T11:51:40Z</time>
      </trkpt>
      <trkpt lat="43.18673" lon="5.57292">
        <ele>227.3</ele>
        <time>2022-05-01T11:51:49Z</time>
      </trkpt>
      <trkpt lat="43.18663" lon="5.57295">
        <ele>227.5</ele>
        <time>2022-05-01T11:51:58Z</time>
      </trkpt>
      <trkpt lat="43.18654" lon="5.57298">
        <ele>227.8</ele>
        <time>2022-05-01T11:52:07Z</time>
      </trkpt>
      <trkpt lat="43.18644" lon="5.57301">
        <ele>228</ele>
        <time>2022-05-01T11:52:16Z</time>
      </trkpt>
      <trkpt lat="43.18634" lon="5.57304">
        <ele>228.6</ele>
        <time>2022-05-01T11:52:27Z</time>
      </trkpt>
      <trkpt lat="43.18625" lon="5.57302">
        <ele>232</ele>
        <time>2022-05-01T11:52:56Z</time>
      </trkpt>
      <trkpt lat="43.18622" lon="5.5729">
        <ele>236.4</ele>
        <time>2022-05-01T11:53:19Z</time>
      </trkpt>
      <trkpt lat="43.18617" lon="5.5728">
        <ele>239</ele>
        <time>2022-05-01T11:53:38Z</time>
      </trkpt>
      <trkpt lat="43.1861" lon="5.57272">
        <ele>239.2</ele>
        <time>2022-05-01T11:54:00Z</time>
      </trkpt>
      <trkpt lat="43.18601" lon="5.57267">
        <ele>238.9</ele>
        <time>2022-05-01T11:54:10Z</time>
      </trkpt>
      <trkpt lat="43.18592" lon="5.57263">
        <ele>238.6</ele>
        <time>2022-05-01T11:54:28Z</time>
      </trkpt>
      <trkpt lat="43.18584" lon="5.57257">
        <ele>238.2</ele>
        <time>2022-05-01T11:55:02Z</time>
      </trkpt>
      <trkpt lat="43.18575" lon="5.57261">
        <ele>237.8</ele>
        <time>2022-05-01T11:55:12Z</time>
      </trkpt>
      <trkpt lat="43.18568" lon="5.5727">
        <ele>236.3</ele>
        <time>2022-05-01T11:55:22Z</time>
      </trkpt>
      <trkpt lat="43.18561" lon="5.57278">
        <ele>235.1</ele>
        <time>2022-05-01T11:55:33Z</time>
      </trkpt>
      <trkpt lat="43.18554" lon="5.57286">
        <ele>233.2</ele>
        <time>2022-05-01T11:55:45Z</time>
      </trkpt>
      <trkpt lat="43.18546" lon="5.57294">
        <ele>231.1</ele>
        <time>2022-05-01T11:55:55Z</time>
      </trkpt>
      <trkpt lat="43.18538" lon="5.57299">
        <ele>228.9</ele>
        <time>2022-05-01T11:56:37Z</time>
      </trkpt>
      <trkpt lat="43.18535" lon="5.57312">
        <ele>225.4</ele>
        <time>2022-05-01T11:56:56Z</time>
      </trkpt>
      <trkpt lat="43.18531" lon="5.57323">
        <ele>220.8</ele>
        <time>2022-05-01T11:57:14Z</time>
      </trkpt>
      <trkpt lat="43.18532" lon="5.57335">
        <ele>215.8</ele>
        <time>2022-05-01T11:57:46Z</time>
      </trkpt>
      <trkpt lat="43.1854" lon="5.57328">
        <ele>216</ele>
        <time>2022-05-01T11:58:30Z</time>
      </trkpt>
      <trkpt lat="43.18546" lon="5.57319">
        <ele>216.8</ele>
        <time>2022-05-01T11:59:17Z</time>
      </trkpt>
      <trkpt lat="43.18539" lon="5.57327">
        <ele>216.4</ele>
        <time>2022-05-01T11:59:53Z</time>
      </trkpt>
      <trkpt lat="43.18534" lon="5.57337">
        <ele>215.9</ele>
        <time>2022-05-01T12:00:51Z</time>
      </trkpt>
      <trkpt lat="43.18527" lon="5.57346">
        <ele>213.9</ele>
        <time>2022-05-01T12:01:05Z</time>
      </trkpt>
      <trkpt lat="43.1852" lon="5.57353">
        <ele>212.7</ele>
        <time>2022-05-01T12:01:21Z</time>
      </trkpt>
      <trkpt lat="43.18516" lon="5.57366">
        <ele>210.5</ele>
        <time>2022-05-01T12:01:41Z</time>
      </trkpt>
      <trkpt lat="43.18511" lon="5.57376">
        <ele>208.2</ele>
        <time>2022-05-01T12:01:52Z</time>
      </trkpt>
      <trkpt lat="43.18502" lon="5.57381">
        <ele>210.1</ele>
        <time>2022-05-01T12:02:10Z</time>
      </trkpt>
      <trkpt lat="43.18497" lon="5.57391">
        <ele>213.6</ele>
        <time>2022-05-01T12:02:29Z</time>
      </trkpt>
      <trkpt lat="43.18489" lon="5.57398">
        <ele>217.8</ele>
        <time>2022-05-01T12:02:49Z</time>
      </trkpt>
      <trkpt lat="43.18482" lon="5.57406">
        <ele>221.8</ele>
        <time>2022-05-01T12:03:11Z</time>
      </trkpt>
      <trkpt lat="43.18474" lon="5.57412">
        <ele>225.9</ele>
        <time>2022-05-01T12:03:32Z</time>
      </trkpt>
      <trkpt lat="43.18471" lon="5.57424">
        <ele>229.2</ele>
        <time>2022-05-01T12:03:50Z</time>
      </trkpt>
      <trkpt lat="43.1847" lon="5.57437">
        <ele>231.8</ele>
        <time>2022-05-01T12:04:06Z</time>
      </trkpt>
      <trkpt lat="43.18469" lon="5.57449">
        <ele>234.8</ele>
        <time>2022-05-01T12:04:24Z</time>
      </trkpt>
      <trkpt lat="43.18469" lon="5.57462">
        <ele>237.7</ele>
        <time>2022-05-01T12:04:39Z</time>
      </trkpt>
      <trkpt lat="43.1846" lon="5.5746">
        <ele>240.1</ele>
        <time>2022-05-01T12:05:05Z</time>
      </trkpt>
      <trkpt lat="43.18455" lon="5.57471">
        <ele>243.6</ele>
        <time>2022-05-01T12:06:52Z</time>
      </trkpt>
      <trkpt lat="43.18445" lon="5.5747">
        <ele>247.8</ele>
        <time>2022-05-01T12:07:11Z</time>
      </trkpt>
      <trkpt lat="43.18437" lon="5.57465">
        <ele>251.5</ele>
        <time>2022-05-01T12:07:27Z</time>
      </trkpt>
      <trkpt lat="43.18428" lon="5.57466">
        <ele>258</ele>
        <time>2022-05-01T12:07:49Z</time>
      </trkpt>
      <trkpt lat="43.18431" lon="5.57478">
        <ele>257.9</ele>
        <time>2022-05-01T12:11:27Z</time>
      </trkpt>
      <trkpt lat="43.18439" lon="5.57472">
        <ele>251.7</ele>
        <time>2022-05-01T12:15:25Z</time>
      </trkpt>
      <trkpt lat="43.18446" lon="5.57464">
        <ele>244.4</ele>
        <time>2022-05-01T12:15:54Z</time>
      </trkpt>
      <trkpt lat="43.18455" lon="5.57462">
        <ele>240.4</ele>
        <time>2022-05-01T12:16:24Z</time>
      </trkpt>
      <trkpt lat="43.18462" lon="5.5747">
        <ele>240.1</ele>
        <time>2022-05-01T12:16:52Z</time>
      </trkpt>
      <trkpt lat="43.18458" lon="5.57459">
        <ele>240.9</ele>
        <time>2022-05-01T12:18:30Z</time>
      </trkpt>
      <trkpt lat="43.18465" lon="5.57468">
        <ele>240.3</ele>
        <time>2022-05-01T12:23:06Z</time>
      </trkpt>
      <trkpt lat="43.18472" lon="5.57476">
        <ele>239.7</ele>
        <time>2022-05-01T12:23:18Z</time>
      </trkpt>
      <trkpt lat="43.1848" lon="5.57483">
        <ele>239.4</ele>
        <time>2022-05-01T12:23:29Z</time>
      </trkpt>
      <trkpt lat="43.18489" lon="5.57486">
        <ele>238.3</ele>
        <time>2022-05-01T12:23:41Z</time>
      </trkpt>
      <trkpt lat="43.18498" lon="5.57491">
        <ele>237.2</ele>
        <time>2022-05-01T12:23:53Z</time>
      </trkpt>
      <trkpt lat="43.18504" lon="5.57501">
        <ele>235.1</ele>
        <time>2022-05-01T12:24:05Z</time>
      </trkpt>
      <trkpt lat="43.18511" lon="5.5751">
        <ele>232.3</ele>
        <time>2022-05-01T12:24:20Z</time>
      </trkpt>
      <trkpt lat="43.1852" lon="5.57516">
        <ele>230</ele>
        <time>2022-05-01T12:24:32Z</time>
      </trkpt>
      <trkpt lat="43.18529" lon="5.57518">
        <ele>229.4</ele>
        <time>2022-05-01T12:24:49Z</time>
      </trkpt>
      <trkpt lat="43.18539" lon="5.57518">
        <ele>230.5</ele>
        <time>2022-05-01T12:24:57Z</time>
      </trkpt>
      <trkpt lat="43.18546" lon="5.57527">
        <ele>231.5</ele>
        <time>2022-05-01T12:25:05Z</time>
      </trkpt>
      <trkpt lat="43.18556" lon="5.57527">
        <ele>232.5</ele>
        <time>2022-05-01T12:25:14Z</time>
      </trkpt>
      <trkpt lat="43.18563" lon="5.57535">
        <ele>233</ele>
        <time>2022-05-01T12:25:23Z</time>
      </trkpt>
      <trkpt lat="43.18567" lon="5.57546">
        <ele>238.2</ele>
        <time>2022-05-01T12:26:16Z</time>
      </trkpt>
      <trkpt lat="43.18573" lon="5.57556">
        <ele>242.5</ele>
        <time>2022-05-01T12:26:32Z</time>
      </trkpt>
      <trkpt lat="43.18568" lon="5.57546">
        <ele>237.3</ele>
        <time>2022-05-01T12:28:15Z</time>
      </trkpt>
      <trkpt lat="43.18564" lon="5.57534">
        <ele>233</ele>
        <time>2022-05-01T12:28:44Z</time>
      </trkpt>
      <trkpt lat="43.18557" lon="5.57527">
        <ele>232.6</ele>
        <time>2022-05-01T12:28:57Z</time>
      </trkpt>
      <trkpt lat="43.18548" lon="5.57528">
        <ele>232</ele>
        <time>2022-05-01T12:29:07Z</time>
      </trkpt>
      <trkpt lat="43.18542" lon="5.57518">
        <ele>230.8</ele>
        <time>2022-05-01T12:29:28Z</time>
      </trkpt>
      <trkpt lat="43.18533" lon="5.57519">
        <ele>230</ele>
        <time>2022-05-01T12:29:39Z</time>
      </trkpt>
      <trkpt lat="43.1853" lon="5.57531">
        <ele>226.9</ele>
        <time>2022-05-01T12:30:37Z</time>
      </trkpt>
      <trkpt lat="43.18536" lon="5.57541">
        <ele>224.4</ele>
        <time>2022-05-01T12:30:50Z</time>
      </trkpt>
      <trkpt lat="43.18541" lon="5.57552">
        <ele>222.1</ele>
        <time>2022-05-01T12:31:08Z</time>
      </trkpt>
      <trkpt lat="43.18546" lon="5.57563">
        <ele>220.1</ele>
        <time>2022-05-01T12:31:27Z</time>
      </trkpt>
      <trkpt lat="43.18553" lon="5.57571">
        <ele>218.9</ele>
        <time>2022-05-01T12:31:41Z</time>
      </trkpt>
      <trkpt lat="43.18561" lon="5.57579">
        <ele>217.2</ele>
        <time>2022-05-01T12:31:56Z</time>
      </trkpt>
      <trkpt lat="43.1857" lon="5.57583">
        <ele>215.1</ele>
        <time>2022-05-01T12:32:11Z</time>
      </trkpt>
      <trkpt lat="43.18579" lon="5.57589">
        <ele>213.4</ele>
        <time>2022-05-01T12:32:23Z</time>
      </trkpt>
      <trkpt lat="43.18586" lon="5.57596">
        <ele>211.4</ele>
        <time>2022-05-01T12:32:36Z</time>
      </trkpt>
      <trkpt lat="43.18593" lon="5.57604">
        <ele>209.8</ele>
        <time>2022-05-01T12:32:49Z</time>
      </trkpt>
      <trkpt lat="43.18599" lon="5.57614">
        <ele>207.4</ele>
        <time>2022-05-01T12:33:03Z</time>
      </trkpt>
      <trkpt lat="43.18604" lon="5.57625">
        <ele>205.5</ele>
        <time>2022-05-01T12:33:17Z</time>
      </trkpt>
      <trkpt lat="43.18609" lon="5.57636">
        <ele>204.2</ele>
        <time>2022-05-01T12:33:32Z</time>
      </trkpt>
      <trkpt lat="43.18612" lon="5.57648">
        <ele>203</ele>
        <time>2022-05-01T12:33:43Z</time>
      </trkpt>
      <trkpt lat="43.18617" lon="5.57659">
        <ele>201.7</ele>
        <time>2022-05-01T12:33:55Z</time>
      </trkpt>
      <trkpt lat="43.18622" lon="5.5767">
        <ele>200.1</ele>
        <time>2022-05-01T12:34:08Z</time>
      </trkpt>
      <trkpt lat="43.18627" lon="5.57681">
        <ele>198.4</ele>
        <time>2022-05-01T12:34:20Z</time>
      </trkpt>
      <trkpt lat="43.18632" lon="5.57692">
        <ele>196.4</ele>
        <time>2022-05-01T12:34:34Z</time>
      </trkpt>
      <trkpt lat="43.18636" lon="5.57704">
        <ele>194.8</ele>
        <time>2022-05-01T12:34:49Z</time>
      </trkpt>
      <trkpt lat="43.18641" lon="5.57715">
        <ele>193.2</ele>
        <time>2022-05-01T12:35:08Z</time>
      </trkpt>
      <trkpt lat="43.18646" lon="5.57725">
        <ele>191.7</ele>
        <time>2022-05-01T12:35:20Z</time>
      </trkpt>
      <trkpt lat="43.18649" lon="5.57738">
        <ele>190.2</ele>
        <time>2022-05-01T12:35:33Z</time>
      </trkpt>
      <trkpt lat="43.18655" lon="5.57748">
        <ele>188.5</ele>
        <time>2022-05-01T12:35:46Z</time>
      </trkpt>
      <trkpt lat="43.1866" lon="5.57758">
        <ele>186.9</ele>
        <time>2022-05-01T12:35:58Z</time>
      </trkpt>
      <trkpt lat="43.18662" lon="5.5777">
        <ele>185.8</ele>
        <time>2022-05-01T12:36:08Z</time>
      </trkpt>
      <trkpt lat="43.18666" lon="5.57781">
        <ele>184.4</ele>
        <time>2022-05-01T12:36:19Z</time>
      </trkpt>
      <trkpt lat="43.18671" lon="5.57793">
        <ele>183.5</ele>
        <time>2022-05-01T12:36:31Z</time>
      </trkpt>
      <trkpt lat="43.18675" lon="5.57804">
        <ele>182.5</ele>
        <time>2022-05-01T12:36:42Z</time>
      </trkpt>
      <trkpt lat="43.1868" lon="5.57814">
        <ele>181.8</ele>
        <time>2022-05-01T12:36:52Z</time>
      </trkpt>
      <trkpt lat="43.18684" lon="5.57825">
        <ele>181</ele>
        <time>2022-05-01T12:37:02Z</time>
      </trkpt>
      <trkpt lat="43.18686" lon="5.57838">
        <ele>180</ele>
        <time>2022-05-01T12:37:13Z</time>
      </trkpt>
      <trkpt lat="43.18687" lon="5.57851">
        <ele>179.2</ele>
        <time>2022-05-01T12:37:23Z</time>
      </trkpt>
      <trkpt lat="43.18689" lon="5.57863">
        <ele>178.2</ele>
        <time>2022-05-01T12:37:32Z</time>
      </trkpt>
      <trkpt lat="43.18688" lon="5.57876">
        <ele>176.9</ele>
        <time>2022-05-01T12:37:45Z</time>
      </trkpt>
      <trkpt lat="43.1868" lon="5.57883">
        <ele>174.8</ele>
        <time>2022-05-01T12:38:08Z</time>
      </trkpt>
      <trkpt lat="43.18671" lon="5.57887">
        <ele>172.7</ele>
        <time>2022-05-01T12:38:25Z</time>
      </trkpt>
      <trkpt lat="43.18662" lon="5.57886">
        <ele>170</ele>
        <time>2022-05-01T12:38:37Z</time>
      </trkpt>
      <trkpt lat="43.18653" lon="5.57888">
        <ele>165.5</ele>
        <time>2022-05-01T12:38:58Z</time>
      </trkpt>
      <trkpt lat="43.18645" lon="5.57883">
        <ele>163.2</ele>
        <time>2022-05-01T12:39:17Z</time>
      </trkpt>
      <trkpt lat="43.18636" lon="5.57883">
        <ele>160.3</ele>
        <time>2022-05-01T12:39:34Z</time>
      </trkpt>
      <trkpt lat="43.18632" lon="5.57895">
        <ele>156.6</ele>
        <time>2022-05-01T12:39:47Z</time>
      </trkpt>
      <trkpt lat="43.18628" lon="5.57907">
        <ele>153.3</ele>
        <time>2022-05-01T12:40:00Z</time>
      </trkpt>
      <trkpt lat="43.18621" lon="5.57915">
        <ele>149</ele>
        <time>2022-05-01T12:40:15Z</time>
      </trkpt>
      <trkpt lat="43.18612" lon="5.57918">
        <ele>148.2</ele>
        <time>2022-05-01T12:40:28Z</time>
      </trkpt>
      <trkpt lat="43.18606" lon="5.57928">
        <ele>148.6</ele>
        <time>2022-05-01T12:40:49Z</time>
      </trkpt>
      <trkpt lat="43.18598" lon="5.57922">
        <ele>148.9</ele>
        <time>2022-05-01T12:43:47Z</time>
      </trkpt>
      <trkpt lat="43.18601" lon="5.57934">
        <ele>148.7</ele>
        <time>2022-05-01T12:45:37Z</time>
      </trkpt>
      <trkpt lat="43.186" lon="5.57947">
        <ele>148.1</ele>
        <time>2022-05-01T12:45:48Z</time>
      </trkpt>
      <trkpt lat="43.18597" lon="5.57959">
        <ele>148.1</ele>
        <time>2022-05-01T12:45:57Z</time>
      </trkpt>
      <trkpt lat="43.18596" lon="5.57972">
        <ele>148.9</ele>
        <time>2022-05-01T12:46:07Z</time>
      </trkpt>
      <trkpt lat="43.18593" lon="5.57985">
        <ele>149.6</ele>
        <time>2022-05-01T12:46:18Z</time>
      </trkpt>
      <trkpt lat="43.18592" lon="5.57997">
        <ele>150.5</ele>
        <time>2022-05-01T12:46:27Z</time>
      </trkpt>
      <trkpt lat="43.18592" lon="5.5801">
        <ele>150.8</ele>
        <time>2022-05-01T12:46:35Z</time>
      </trkpt>
      <trkpt lat="43.18592" lon="5.58023">
        <ele>151.5</ele>
        <time>2022-05-01T12:46:43Z</time>
      </trkpt>
      <trkpt lat="43.18595" lon="5.58035">
        <ele>151.8</ele>
        <time>2022-05-01T12:46:50Z</time>
      </trkpt>
      <trkpt lat="43.18596" lon="5.58048">
        <ele>151.8</ele>
        <time>2022-05-01T12:46:59Z</time>
      </trkpt>
      <trkpt lat="43.18595" lon="5.58062">
        <ele>151.7</ele>
        <time>2022-05-01T12:47:08Z</time>
      </trkpt>
      <trkpt lat="43.18592" lon="5.58075">
        <ele>152.2</ele>
        <time>2022-05-01T12:47:17Z</time>
      </trkpt>
      <trkpt lat="43.18591" lon="5.58088">
        <ele>152.5</ele>
        <time>2022-05-01T12:47:25Z</time>
      </trkpt>
      <trkpt lat="43.18591" lon="5.58101">
        <ele>152.8</ele>
        <time>2022-05-01T12:47:33Z</time>
      </trkpt>
      <trkpt lat="43.18589" lon="5.58114">
        <ele>153</ele>
        <time>2022-05-01T12:47:41Z</time>
      </trkpt>
      <trkpt lat="43.18586" lon="5.58126">
        <ele>153.1</ele>
        <time>2022-05-01T12:47:50Z</time>
      </trkpt>
      <trkpt lat="43.18586" lon="5.5814">
        <ele>153.5</ele>
        <time>2022-05-01T12:47:59Z</time>
      </trkpt>
      <trkpt lat="43.18588" lon="5.58153">
        <ele>153.4</ele>
        <time>2022-05-01T12:48:07Z</time>
      </trkpt>
      <trkpt lat="43.18588" lon="5.58166">
        <ele>153.9</ele>
        <time>2022-05-01T12:48:15Z</time>
      </trkpt>
      <trkpt lat="43.18588" lon="5.58178">
        <ele>154.5</ele>
        <time>2022-05-01T12:48:24Z</time>
      </trkpt>
      <trkpt lat="43.18588" lon="5.58191">
        <ele>154.9</ele>
        <time>2022-05-01T12:48:32Z</time>
      </trkpt>
      <trkpt lat="43.18588" lon="5.58203">
        <ele>155.2</ele>
        <time>2022-05-01T12:48:39Z</time>
      </trkpt>
      <trkpt lat="43.18587" lon="5.58216">
        <ele>155.4</ele>
        <time>2022-05-01T12:48:47Z</time>
      </trkpt>
      <trkpt lat="43.18585" lon="5.58229">
        <ele>155.6</ele>
        <time>2022-05-01T12:48:56Z</time>
      </trkpt>
      <trkpt lat="43.18583" lon="5.58242">
        <ele>156.1</ele>
        <time>2022-05-01T12:49:04Z</time>
      </trkpt>
      <trkpt lat="43.18579" lon="5.58254">
        <ele>156</ele>
        <time>2022-05-01T12:49:14Z</time>
      </trkpt>
      <trkpt lat="43.18571" lon="5.58262">
        <ele>155.8</ele>
        <time>2022-05-01T12:49:23Z</time>
      </trkpt>
      <trkpt lat="43.18563" lon="5.58269">
        <ele>155.2</ele>
        <time>2022-05-01T12:49:32Z</time>
      </trkpt>
      <trkpt lat="43.18554" lon="5.58274">
        <ele>154.3</ele>
        <time>2022-05-01T12:49:41Z</time>
      </trkpt>
      <trkpt lat="43.18545" lon="5.58277">
        <ele>153.1</ele>
        <time>2022-05-01T12:49:55Z</time>
      </trkpt>
      <trkpt lat="43.18535" lon="5.58276">
        <ele>151.6</ele>
        <time>2022-05-01T12:50:04Z</time>
      </trkpt>
      <trkpt lat="43.18525" lon="5.58275">
        <ele>150.6</ele>
        <time>2022-05-01T12:50:12Z</time>
      </trkpt>
      <trkpt lat="43.18516" lon="5.58273">
        <ele>148.9</ele>
        <time>2022-05-01T12:50:21Z</time>
      </trkpt>
      <trkpt lat="43.18506" lon="5.58271">
        <ele>147.2</ele>
        <time>2022-05-01T12:50:30Z</time>
      </trkpt>
      <trkpt lat="43.18497" lon="5.58272">
        <ele>146</ele>
        <time>2022-05-01T12:50:38Z</time>
      </trkpt>
      <trkpt lat="43.18488" lon="5.58278">
        <ele>145.2</ele>
        <time>2022-05-01T12:50:46Z</time>
      </trkpt>
      <trkpt lat="43.18484" lon="5.5829">
        <ele>145.6</ele>
        <time>2022-05-01T12:50:55Z</time>
      </trkpt>
      <trkpt lat="43.18486" lon="5.58302">
        <ele>146.1</ele>
        <time>2022-05-01T12:51:03Z</time>
      </trkpt>
      <trkpt lat="43.18486" lon="5.58315">
        <ele>146.7</ele>
        <time>2022-05-01T12:51:11Z</time>
      </trkpt>
      <trkpt lat="43.18489" lon="5.58328">
        <ele>146.9</ele>
        <time>2022-05-01T12:51:20Z</time>
      </trkpt>
      <trkpt lat="43.1849" lon="5.58341">
        <ele>146.9</ele>
        <time>2022-05-01T12:51:29Z</time>
      </trkpt>
      <trkpt lat="43.18493" lon="5.58354">
        <ele>147.3</ele>
        <time>2022-05-01T12:51:38Z</time>
      </trkpt>
      <trkpt lat="43.18497" lon="5.58366">
        <ele>147.8</ele>
        <time>2022-05-01T12:51:48Z</time>
      </trkpt>
      <trkpt lat="43.18502" lon="5.58378">
        <ele>148.5</ele>
        <time>2022-05-01T12:51:57Z</time>
      </trkpt>
      <trkpt lat="43.18506" lon="5.58391">
        <ele>149</ele>
        <time>2022-05-01T12:52:06Z</time>
      </trkpt>
      <trkpt lat="43.18511" lon="5.58403">
        <ele>149.7</ele>
        <time>2022-05-01T12:52:15Z</time>
      </trkpt>
      <trkpt lat="43.18502" lon="5.58403">
        <ele>150.3</ele>
        <time>2022-05-01T12:52:41Z</time>
      </trkpt>
      <trkpt lat="43.18509" lon="5.58413">
        <ele>150.3</ele>
        <time>2022-05-01T12:53:30Z</time>
      </trkpt>
      <trkpt lat="43.18514" lon="5.58423">
        <ele>149.5</ele>
        <time>2022-05-01T12:53:40Z</time>
      </trkpt>
      <trkpt lat="43.1851" lon="5.58434">
        <ele>147.7</ele>
        <time>2022-05-01T12:53:54Z</time>
      </trkpt>
      <trkpt lat="43.18502" lon="5.58441">
        <ele>144.4</ele>
        <time>2022-05-01T12:54:07Z</time>
      </trkpt>
      <trkpt lat="43.18502" lon="5.58454">
        <ele>142.1</ele>
        <time>2022-05-01T12:54:17Z</time>
      </trkpt>
      <trkpt lat="43.18506" lon="5.58466">
        <ele>141</ele>
        <time>2022-05-01T12:54:27Z</time>
      </trkpt>
      <trkpt lat="43.18509" lon="5.58477">
        <ele>139.4</ele>
        <time>2022-05-01T12:54:38Z</time>
      </trkpt>
      <trkpt lat="43.18512" lon="5.5849">
        <ele>136.6</ele>
        <time>2022-05-01T12:54:51Z</time>
      </trkpt>
      <trkpt lat="43.18513" lon="5.58503">
        <ele>133.6</ele>
        <time>2022-05-01T12:55:04Z</time>
      </trkpt>
      <trkpt lat="43.18513" lon="5.58516">
        <ele>130.5</ele>
        <time>2022-05-01T12:55:18Z</time>
      </trkpt>
      <trkpt lat="43.18515" lon="5.58528">
        <ele>127.6</ele>
        <time>2022-05-01T12:55:30Z</time>
      </trkpt>
      <trkpt lat="43.18511" lon="5.5854">
        <ele>123.6</ele>
        <time>2022-05-01T12:55:45Z</time>
      </trkpt>
      <trkpt lat="43.18503" lon="5.58547">
        <ele>119.6</ele>
        <time>2022-05-01T12:56:04Z</time>
      </trkpt>
      <trkpt lat="43.18497" lon="5.58557">
        <ele>115.8</ele>
        <time>2022-05-01T12:56:24Z</time>
      </trkpt>
      <trkpt lat="43.18491" lon="5.58567">
        <ele>112.7</ele>
        <time>2022-05-01T12:56:37Z</time>
      </trkpt>
      <trkpt lat="43.18486" lon="5.58578">
        <ele>109</ele>
        <time>2022-05-01T12:56:52Z</time>
      </trkpt>
      <trkpt lat="43.18481" lon="5.58589">
        <ele>106.8</ele>
        <time>2022-05-01T12:57:04Z</time>
      </trkpt>
      <trkpt lat="43.18475" lon="5.58598">
        <ele>104</ele>
        <time>2022-05-01T12:57:16Z</time>
      </trkpt>
      <trkpt lat="43.18471" lon="5.58609">
        <ele>101.2</ele>
        <time>2022-05-01T12:57:35Z</time>
      </trkpt>
      <trkpt lat="43.18465" lon="5.58599">
        <ele>101.3</ele>
        <time>2022-05-01T12:58:37Z</time>
      </trkpt>
      <trkpt lat="43.18463" lon="5.58585">
        <ele>101.9</ele>
        <time>2022-05-01T12:58:47Z</time>
      </trkpt>
      <trkpt lat="43.18465" lon="5.58572">
        <ele>102.8</ele>
        <time>2022-05-01T12:58:58Z</time>
      </trkpt>
      <trkpt lat="43.18464" lon="5.58559">
        <ele>103.7</ele>
        <time>2022-05-01T12:59:07Z</time>
      </trkpt>
      <trkpt lat="43.18462" lon="5.58547">
        <ele>104.9</ele>
        <time>2022-05-01T12:59:16Z</time>
      </trkpt>
      <trkpt lat="43.18462" lon="5.58534">
        <ele>105.8</ele>
        <time>2022-05-01T12:59:26Z</time>
      </trkpt>
      <trkpt lat="43.18457" lon="5.58523">
        <ele>107</ele>
        <time>2022-05-01T12:59:37Z</time>
      </trkpt>
      <trkpt lat="43.1845" lon="5.58515">
        <ele>107.5</ele>
        <time>2022-05-01T12:59:46Z</time>
      </trkpt>
      <trkpt lat="43.18444" lon="5.58505">
        <ele>108.6</ele>
        <time>2022-05-01T12:59:56Z</time>
      </trkpt>
      <trkpt lat="43.18436" lon="5.58499">
        <ele>109.2</ele>
        <time>2022-05-01T13:00:03Z</time>
      </trkpt>
      <trkpt lat="43.1843" lon="5.58489">
        <ele>110</ele>
        <time>2022-05-01T13:00:15Z</time>
      </trkpt>
      <trkpt lat="43.18424" lon="5.58479">
        <ele>111</ele>
        <time>2022-05-01T13:00:25Z</time>
      </trkpt>
      <trkpt lat="43.18417" lon="5.58469">
        <ele>112.2</ele>
        <time>2022-05-01T13:00:34Z</time>
      </trkpt>
      <trkpt lat="43.18414" lon="5.58458">
        <ele>114.8</ele>
        <time>2022-05-01T13:00:48Z</time>
      </trkpt>
      <trkpt lat="43.18407" lon="5.5845">
        <ele>116.1</ele>
        <time>2022-05-01T13:00:58Z</time>
      </trkpt>
      <trkpt lat="43.18401" lon="5.5844">
        <ele>118.4</ele>
        <time>2022-05-01T13:01:16Z</time>
      </trkpt>
      <trkpt lat="43.18395" lon="5.5843">
        <ele>120.1</ele>
        <time>2022-05-01T13:01:31Z</time>
      </trkpt>
      <trkpt lat="43.18387" lon="5.58424">
        <ele>122.3</ele>
        <time>2022-05-01T13:03:32Z</time>
      </trkpt>
      <trkpt lat="43.18396" lon="5.58416">
        <ele>122.4</ele>
        <time>2022-05-01T13:03:47Z</time>
      </trkpt>
      <trkpt lat="43.18392" lon="5.58427">
        <ele>122.3</ele>
        <time>2022-05-01T13:04:48Z</time>
      </trkpt>
      <trkpt lat="43.18397" lon="5.58439">
        <ele>120.6</ele>
        <time>2022-05-01T13:06:01Z</time>
      </trkpt>
      <trkpt lat="43.18402" lon="5.58449">
        <ele>118.7</ele>
        <time>2022-05-01T13:06:12Z</time>
      </trkpt>
      <trkpt lat="43.18409" lon="5.58459">
        <ele>116.3</ele>
        <time>2022-05-01T13:06:26Z</time>
      </trkpt>
      <trkpt lat="43.18399" lon="5.58458">
        <ele>118.1</ele>
        <time>2022-05-01T13:07:17Z</time>
      </trkpt>
      <trkpt lat="43.18408" lon="5.58451">
        <ele>118.4</ele>
        <time>2022-05-01T13:09:04Z</time>
      </trkpt>
      <trkpt lat="43.18404" lon="5.5844">
        <ele>119.4</ele>
        <time>2022-05-01T13:10:23Z</time>
      </trkpt>
      <trkpt lat="43.18399" lon="5.58429">
        <ele>121.8</ele>
        <time>2022-05-01T13:10:39Z</time>
      </trkpt>
      <trkpt lat="43.1839" lon="5.58426">
        <ele>122.6</ele>
        <time>2022-05-01T13:11:00Z</time>
      </trkpt>
      <trkpt lat="43.18393" lon="5.58438">
        <ele>122.5</ele>
        <time>2022-05-01T13:11:48Z</time>
      </trkpt>
      <trkpt lat="43.18402" lon="5.58433">
        <ele>126.6</ele>
        <time>2022-05-01T13:16:30Z</time>
      </trkpt>
      <trkpt lat="43.18401" lon="5.58446">
        <ele>133.6</ele>
        <time>2022-05-01T13:17:45Z</time>
      </trkpt>
      <trkpt lat="43.18402" lon="5.58434">
        <ele>137.4</ele>
        <time>2022-05-01T13:18:08Z</time>
      </trkpt>
      <trkpt lat="43.18396" lon="5.58444">
        <ele>138.7</ele>
        <time>2022-05-01T13:19:07Z</time>
      </trkpt>
      <trkpt lat="43.18392" lon="5.58456">
        <ele>138.7</ele>
        <time>2022-05-01T13:19:21Z</time>
      </trkpt>
      <trkpt lat="43.1839" lon="5.58468">
        <ele>138.7</ele>
        <time>2022-05-01T13:19:31Z</time>
      </trkpt>
      <trkpt lat="43.18389" lon="5.5848">
        <ele>138.8</ele>
        <time>2022-05-01T13:19:48Z</time>
      </trkpt>
      <trkpt lat="43.18389" lon="5.58467">
        <ele>139.2</ele>
        <time>2022-05-01T13:20:14Z</time>
      </trkpt>
      <trkpt lat="43.18394" lon="5.58456">
        <ele>137.1</ele>
        <time>2022-05-01T13:21:09Z</time>
      </trkpt>
      <trkpt lat="43.18401" lon="5.58448">
        <ele>134.5</ele>
        <time>2022-05-01T13:21:33Z</time>
      </trkpt>
      <trkpt lat="43.18411" lon="5.58449">
        <ele>135.2</ele>
        <time>2022-05-01T13:22:13Z</time>
      </trkpt>
      <trkpt lat="43.18414" lon="5.58437">
        <ele>135.4</ele>
        <time>2022-05-01T13:22:18Z</time>
      </trkpt>
      <trkpt lat="43.18419" lon="5.58427">
        <ele>135.3</ele>
        <time>2022-05-01T13:22:57Z</time>
      </trkpt>
      <trkpt lat="43.1841" lon="5.58429">
        <ele>132</ele>
        <time>2022-05-01T13:24:11Z</time>
      </trkpt>
      <trkpt lat="43.18406" lon="5.5844">
        <ele>130.7</ele>
        <time>2022-05-01T13:24:34Z</time>
      </trkpt>
      <trkpt lat="43.18398" lon="5.58435">
        <ele>126</ele>
        <time>2022-05-01T13:25:35Z</time>
      </trkpt>
      <trkpt lat="43.18389" lon="5.58431">
        <ele>123.9</ele>
        <time>2022-05-01T13:26:03Z</time>
      </trkpt>
      <trkpt lat="43.18398" lon="5.58436">
        <ele>123.9</ele>
        <time>2022-05-01T13:27:51Z</time>
      </trkpt>
      <trkpt lat="43.18396" lon="5.58448">
        <ele>124.1</ele>
        <time>2022-05-01T13:28:14Z</time>
      </trkpt>
      <trkpt lat="43.18389" lon="5.5844">
        <ele>123.8</ele>
        <time>2022-05-01T13:29:52Z</time>
      </trkpt>
      <trkpt lat="43.18384" lon="5.58429">
        <ele>127.3</ele>
        <time>2022-05-01T13:31:38Z</time>
      </trkpt>
      <trkpt lat="43.18388" lon="5.58418">
        <ele>127.3</ele>
        <time>2022-05-01T13:32:15Z</time>
      </trkpt>
      <trkpt lat="43.18398" lon="5.58415">
        <ele>127.1</ele>
        <time>2022-05-01T13:33:00Z</time>
      </trkpt>
      <trkpt lat="43.18408" lon="5.58411">
        <ele>127.2</ele>
        <time>2022-05-01T13:33:05Z</time>
      </trkpt>
      <trkpt lat="43.184" lon="5.58417">
        <ele>127.3</ele>
        <time>2022-05-01T13:33:27Z</time>
      </trkpt>
      <trkpt lat="43.18407" lon="5.58427">
        <ele>127.3</ele>
        <time>2022-05-01T13:33:49Z</time>
      </trkpt>
      <trkpt lat="43.18397" lon="5.58425">
        <ele>127.1</ele>
        <time>2022-05-01T13:34:08Z</time>
      </trkpt>
      <trkpt lat="43.18387" lon="5.58426">
        <ele>127</ele>
        <time>2022-05-01T13:34:17Z</time>
      </trkpt>
      <trkpt lat="43.18394" lon="5.58418">
        <ele>128.3</ele>
        <time>2022-05-01T13:35:44Z</time>
      </trkpt>
      <trkpt lat="43.18403" lon="5.58415">
        <ele>130.1</ele>
        <time>2022-05-01T13:36:05Z</time>
      </trkpt>
      <trkpt lat="43.18412" lon="5.58419">
        <ele>131.7</ele>
        <time>2022-05-01T13:37:11Z</time>
      </trkpt>
      <trkpt lat="43.18403" lon="5.58423">
        <ele>132</ele>
        <time>2022-05-01T13:37:36Z</time>
      </trkpt>
      <trkpt lat="43.18393" lon="5.58421">
        <ele>131</ele>
        <time>2022-05-01T13:38:08Z</time>
      </trkpt>
      <trkpt lat="43.18402" lon="5.58425">
        <ele>131.2</ele>
        <time>2022-05-01T13:40:45Z</time>
      </trkpt>
      <trkpt lat="43.18393" lon="5.58427">
        <ele>132.2</ele>
        <time>2022-05-01T13:41:34Z</time>
      </trkpt>
      <trkpt lat="43.18384" lon="5.58428">
        <ele>133.1</ele>
        <time>2022-05-01T13:41:41Z</time>
      </trkpt>
      <trkpt lat="43.18374" lon="5.58426">
        <ele>139</ele>
        <time>2022-05-01T13:43:04Z</time>
      </trkpt>
      <trkpt lat="43.18375" lon="5.58414">
        <ele>143.5</ele>
        <time>2022-05-01T13:43:54Z</time>
      </trkpt>
      <trkpt lat="43.18384" lon="5.58409">
        <ele>148.1</ele>
        <time>2022-05-01T13:45:18Z</time>
      </trkpt>
      <trkpt lat="43.18391" lon="5.58401">
        <ele>150.4</ele>
        <time>2022-05-01T13:45:36Z</time>
      </trkpt>
      <trkpt lat="43.18394" lon="5.58389">
        <ele>153.2</ele>
        <time>2022-05-01T13:46:08Z</time>
      </trkpt>
      <trkpt lat="43.18384" lon="5.5839">
        <ele>153</ele>
        <time>2022-05-01T13:46:23Z</time>
      </trkpt>
      <trkpt lat="43.18374" lon="5.58388">
        <ele>152.5</ele>
        <time>2022-05-01T13:46:32Z</time>
      </trkpt>
      <trkpt lat="43.18365" lon="5.58382">
        <ele>152.3</ele>
        <time>2022-05-01T13:46:40Z</time>
      </trkpt>
      <trkpt lat="43.18356" lon="5.58376">
        <ele>152.4</ele>
        <time>2022-05-01T13:46:48Z</time>
      </trkpt>
      <trkpt lat="43.18349" lon="5.58368">
        <ele>152.3</ele>
        <time>2022-05-01T13:46:57Z</time>
      </trkpt>
      <trkpt lat="43.18342" lon="5.58359">
        <ele>152.2</ele>
        <time>2022-05-01T13:47:04Z</time>
      </trkpt>
      <trkpt lat="43.18337" lon="5.58348">
        <ele>151.6</ele>
        <time>2022-05-01T13:47:15Z</time>
      </trkpt>
      <trkpt lat="43.18329" lon="5.58339">
        <ele>151.6</ele>
        <time>2022-05-01T13:47:25Z</time>
      </trkpt>
      <trkpt lat="43.18325" lon="5.58328">
        <ele>151.5</ele>
        <time>2022-05-01T13:47:37Z</time>
      </trkpt>
      <trkpt lat="43.18319" lon="5.58339">
        <ele>151.9</ele>
        <time>2022-05-01T13:47:50Z</time>
      </trkpt>
      <trkpt lat="43.18319" lon="5.58351">
        <ele>151.9</ele>
        <time>2022-05-01T13:48:01Z</time>
      </trkpt>
      <trkpt lat="43.18318" lon="5.58364">
        <ele>151.2</ele>
        <time>2022-05-01T13:48:09Z</time>
      </trkpt>
      <trkpt lat="43.18321" lon="5.58377">
        <ele>150</ele>
        <time>2022-05-01T13:48:20Z</time>
      </trkpt>
      <trkpt lat="43.18324" lon="5.58391">
        <ele>150.3</ele>
        <time>2022-05-01T13:48:29Z</time>
      </trkpt>
      <trkpt lat="43.18329" lon="5.58403">
        <ele>149.9</ele>
        <time>2022-05-01T13:48:38Z</time>
      </trkpt>
      <trkpt lat="43.18331" lon="5.58416">
        <ele>150.5</ele>
        <time>2022-05-01T13:48:48Z</time>
      </trkpt>
      <trkpt lat="43.18331" lon="5.58428">
        <ele>151.9</ele>
        <time>2022-05-01T13:48:57Z</time>
      </trkpt>
      <trkpt lat="43.18334" lon="5.5844">
        <ele>153.3</ele>
        <time>2022-05-01T13:49:08Z</time>
      </trkpt>
      <trkpt lat="43.1834" lon="5.5845">
        <ele>153</ele>
        <time>2022-05-01T13:49:17Z</time>
      </trkpt>
      <trkpt lat="43.18347" lon="5.58459">
        <ele>157</ele>
        <time>2022-05-01T13:53:43Z</time>
      </trkpt>
      <trkpt lat="43.18349" lon="5.58472">
        <ele>158.1</ele>
        <time>2022-05-01T13:53:54Z</time>
      </trkpt>
      <trkpt lat="43.18349" lon="5.58486">
        <ele>160.7</ele>
        <time>2022-05-01T13:54:07Z</time>
      </trkpt>
      <trkpt lat="43.18348" lon="5.58498">
        <ele>162.8</ele>
        <time>2022-05-01T13:54:19Z</time>
      </trkpt>
      <trkpt lat="43.1834" lon="5.58491">
        <ele>165.6</ele>
        <time>2022-05-01T13:54:43Z</time>
      </trkpt>
      <trkpt lat="43.18335" lon="5.58481">
        <ele>166.1</ele>
        <time>2022-05-01T13:54:52Z</time>
      </trkpt>
      <trkpt lat="43.18327" lon="5.58474">
        <ele>166.7</ele>
        <time>2022-05-01T13:55:00Z</time>
      </trkpt>
      <trkpt lat="43.18319" lon="5.58467">
        <ele>167.9</ele>
        <time>2022-05-01T13:55:10Z</time>
      </trkpt>
      <trkpt lat="43.1831" lon="5.58462">
        <ele>169.3</ele>
        <time>2022-05-01T13:55:19Z</time>
      </trkpt>
      <trkpt lat="43.18304" lon="5.58453">
        <ele>170.3</ele>
        <time>2022-05-01T13:55:29Z</time>
      </trkpt>
      <trkpt lat="43.18295" lon="5.58446">
        <ele>171.6</ele>
        <time>2022-05-01T13:55:38Z</time>
      </trkpt>
      <trkpt lat="43.18288" lon="5.58436">
        <ele>173.2</ele>
        <time>2022-05-01T13:55:48Z</time>
      </trkpt>
      <trkpt lat="43.18283" lon="5.58426">
        <ele>174.1</ele>
        <time>2022-05-01T13:55:57Z</time>
      </trkpt>
      <trkpt lat="43.18276" lon="5.58416">
        <ele>175.4</ele>
        <time>2022-05-01T13:56:07Z</time>
      </trkpt>
      <trkpt lat="43.18271" lon="5.58405">
        <ele>177.1</ele>
        <time>2022-05-01T13:56:16Z</time>
      </trkpt>
      <trkpt lat="43.18265" lon="5.58394">
        <ele>178.1</ele>
        <time>2022-05-01T13:56:26Z</time>
      </trkpt>
      <trkpt lat="43.1826" lon="5.58382">
        <ele>179.7</ele>
        <time>2022-05-01T13:56:36Z</time>
      </trkpt>
      <trkpt lat="43.18256" lon="5.58371">
        <ele>181</ele>
        <time>2022-05-01T13:56:44Z</time>
      </trkpt>
      <trkpt lat="43.18253" lon="5.58358">
        <ele>181.9</ele>
        <time>2022-05-01T13:56:53Z</time>
      </trkpt>
      <trkpt lat="43.18251" lon="5.58346">
        <ele>183.7</ele>
        <time>2022-05-01T13:57:03Z</time>
      </trkpt>
      <trkpt lat="43.18247" lon="5.58334">
        <ele>185.3</ele>
        <time>2022-05-01T13:57:12Z</time>
      </trkpt>
      <trkpt lat="43.18244" lon="5.58322">
        <ele>187.2</ele>
        <time>2022-05-01T13:57:22Z</time>
      </trkpt>
      <trkpt lat="43.18241" lon="5.58309">
        <ele>188.9</ele>
        <time>2022-05-01T13:57:32Z</time>
      </trkpt>
      <trkpt lat="43.1824" lon="5.58296">
        <ele>190.3</ele>
        <time>2022-05-01T13:57:41Z</time>
      </trkpt>
      <trkpt lat="43.18236" lon="5.58284">
        <ele>191.8</ele>
        <time>2022-05-01T13:57:51Z</time>
      </trkpt>
      <trkpt lat="43.18234" lon="5.58272">
        <ele>193.7</ele>
        <time>2022-05-01T13:58:01Z</time>
      </trkpt>
      <trkpt lat="43.18225" lon="5.58276">
        <ele>196.1</ele>
        <time>2022-05-01T13:58:14Z</time>
      </trkpt>
      <trkpt lat="43.18221" lon="5.58287">
        <ele>196.6</ele>
        <time>2022-05-01T13:58:23Z</time>
      </trkpt>
      <trkpt lat="43.18218" lon="5.58299">
        <ele>196.7</ele>
        <time>2022-05-01T13:58:32Z</time>
      </trkpt>
      <trkpt lat="43.18216" lon="5.58311">
        <ele>196.6</ele>
        <time>2022-05-01T13:58:41Z</time>
      </trkpt>
      <trkpt lat="43.18216" lon="5.58324">
        <ele>196.3</ele>
        <time>2022-05-01T13:58:49Z</time>
      </trkpt>
      <trkpt lat="43.18216" lon="5.58338">
        <ele>195.8</ele>
        <time>2022-05-01T13:58:58Z</time>
      </trkpt>
      <trkpt lat="43.18216" lon="5.58351">
        <ele>195.2</ele>
        <time>2022-05-01T13:59:05Z</time>
      </trkpt>
      <trkpt lat="43.18217" lon="5.58365">
        <ele>194.4</ele>
        <time>2022-05-01T13:59:15Z</time>
      </trkpt>
      <trkpt lat="43.18218" lon="5.58377">
        <ele>193.7</ele>
        <time>2022-05-01T13:59:23Z</time>
      </trkpt>
      <trkpt lat="43.18219" lon="5.5839">
        <ele>193.2</ele>
        <time>2022-05-01T13:59:31Z</time>
      </trkpt>
      <trkpt lat="43.1822" lon="5.58403">
        <ele>193.1</ele>
        <time>2022-05-01T13:59:39Z</time>
      </trkpt>
      <trkpt lat="43.18221" lon="5.58415">
        <ele>192.8</ele>
        <time>2022-05-01T13:59:47Z</time>
      </trkpt>
      <trkpt lat="43.1822" lon="5.58428">
        <ele>193.1</ele>
        <time>2022-05-01T13:59:56Z</time>
      </trkpt>
      <trkpt lat="43.18218" lon="5.58442">
        <ele>193.2</ele>
        <time>2022-05-01T14:00:04Z</time>
      </trkpt>
      <trkpt lat="43.18214" lon="5.58454">
        <ele>193.2</ele>
        <time>2022-05-01T14:00:13Z</time>
      </trkpt>
      <trkpt lat="43.18204" lon="5.58452">
        <ele>194.6</ele>
        <time>2022-05-01T14:00:45Z</time>
      </trkpt>
      <trkpt lat="43.18196" lon="5.58447">
        <ele>195.8</ele>
        <time>2022-05-01T14:01:10Z</time>
      </trkpt>
      <trkpt lat="43.18188" lon="5.58439">
        <ele>197.4</ele>
        <time>2022-05-01T14:01:25Z</time>
      </trkpt>
      <trkpt lat="43.18184" lon="5.58428">
        <ele>199.5</ele>
        <time>2022-05-01T14:01:38Z</time>
      </trkpt>
      <trkpt lat="43.18178" lon="5.58418">
        <ele>200.8</ele>
        <time>2022-05-01T14:01:50Z</time>
      </trkpt>
      <trkpt lat="43.18172" lon="5.58408">
        <ele>202.7</ele>
        <time>2022-05-01T14:02:02Z</time>
      </trkpt>
      <trkpt lat="43.18167" lon="5.58397">
        <ele>204.4</ele>
        <time>2022-05-01T14:02:14Z</time>
      </trkpt>
      <trkpt lat="43.18163" lon="5.58386">
        <ele>205.8</ele>
        <time>2022-05-01T14:02:26Z</time>
      </trkpt>
      <trkpt lat="43.18159" lon="5.58374">
        <ele>208.2</ele>
        <time>2022-05-01T14:02:37Z</time>
      </trkpt>
      <trkpt lat="43.18154" lon="5.58364">
        <ele>210.4</ele>
        <time>2022-05-01T14:03:05Z</time>
      </trkpt>
      <trkpt lat="43.18151" lon="5.58352">
        <ele>212</ele>
        <time>2022-05-01T14:03:19Z</time>
      </trkpt>
      <trkpt lat="43.18148" lon="5.5834">
        <ele>213.5</ele>
        <time>2022-05-01T14:03:30Z</time>
      </trkpt>
      <trkpt lat="43.18145" lon="5.58328">
        <ele>215.1</ele>
        <time>2022-05-01T14:03:40Z</time>
      </trkpt>
      <trkpt lat="43.18143" lon="5.58315">
        <ele>216.8</ele>
        <time>2022-05-01T14:03:51Z</time>
      </trkpt>
      <trkpt lat="43.1814" lon="5.58303">
        <ele>218.8</ele>
        <time>2022-05-01T14:04:01Z</time>
      </trkpt>
      <trkpt lat="43.18136" lon="5.58292">
        <ele>220.5</ele>
        <time>2022-05-01T14:04:13Z</time>
      </trkpt>
      <trkpt lat="43.18132" lon="5.5828">
        <ele>222.1</ele>
        <time>2022-05-01T14:04:26Z</time>
      </trkpt>
      <trkpt lat="43.1813" lon="5.58268">
        <ele>223.7</ele>
        <time>2022-05-01T14:04:37Z</time>
      </trkpt>
      <trkpt lat="43.18129" lon="5.58255">
        <ele>225.7</ele>
        <time>2022-05-01T14:04:48Z</time>
      </trkpt>
      <trkpt lat="43.18127" lon="5.58242">
        <ele>227.1</ele>
        <time>2022-05-01T14:04:58Z</time>
      </trkpt>
      <trkpt lat="43.18127" lon="5.58229">
        <ele>229.2</ele>
        <time>2022-05-01T14:05:09Z</time>
      </trkpt>
      <trkpt lat="43.18126" lon="5.58216">
        <ele>231</ele>
        <time>2022-05-01T14:05:21Z</time>
      </trkpt>
      <trkpt lat="43.18125" lon="5.58204">
        <ele>232.8</ele>
        <time>2022-05-01T14:05:31Z</time>
      </trkpt>
      <trkpt lat="43.18123" lon="5.58191">
        <ele>234.8</ele>
        <time>2022-05-01T14:05:43Z</time>
      </trkpt>
      <trkpt lat="43.18121" lon="5.58178">
        <ele>236.7</ele>
        <time>2022-05-01T14:05:54Z</time>
      </trkpt>
      <trkpt lat="43.18118" lon="5.58166">
        <ele>238.9</ele>
        <time>2022-05-01T14:06:06Z</time>
      </trkpt>
      <trkpt lat="43.1811" lon="5.58159">
        <ele>240.8</ele>
        <time>2022-05-01T14:06:16Z</time>
      </trkpt>
      <trkpt lat="43.18103" lon="5.58152">
        <ele>242.5</ele>
        <time>2022-05-01T14:06:27Z</time>
      </trkpt>
      <trkpt lat="43.18098" lon="5.58141">
        <ele>244.4</ele>
        <time>2022-05-01T14:06:40Z</time>
      </trkpt>
      <trkpt lat="43.18092" lon="5.58131">
        <ele>246</ele>
        <time>2022-05-01T14:06:51Z</time>
      </trkpt>
      <trkpt lat="43.18087" lon="5.58121">
        <ele>247.7</ele>
        <time>2022-05-01T14:07:03Z</time>
      </trkpt>
      <trkpt lat="43.18085" lon="5.58109">
        <ele>250.1</ele>
        <time>2022-05-01T14:07:16Z</time>
      </trkpt>
      <trkpt lat="43.18082" lon="5.58096">
        <ele>252.3</ele>
        <time>2022-05-01T14:07:29Z</time>
      </trkpt>
      <trkpt lat="43.18078" lon="5.58086">
        <ele>254.3</ele>
        <time>2022-05-01T14:07:42Z</time>
      </trkpt>
      <trkpt lat="43.18076" lon="5.58073">
        <ele>256.6</ele>
        <time>2022-05-01T14:07:56Z</time>
      </trkpt>
      <trkpt lat="43.18073" lon="5.58061">
        <ele>259.2</ele>
        <time>2022-05-01T14:08:10Z</time>
      </trkpt>
      <trkpt lat="43.18069" lon="5.5805">
        <ele>261.1</ele>
        <time>2022-05-01T14:08:23Z</time>
      </trkpt>
      <trkpt lat="43.18067" lon="5.58037">
        <ele>263.5</ele>
        <time>2022-05-01T14:08:36Z</time>
      </trkpt>
      <trkpt lat="43.18064" lon="5.58025">
        <ele>265.6</ele>
        <time>2022-05-01T14:08:49Z</time>
      </trkpt>
      <trkpt lat="43.18061" lon="5.58013">
        <ele>267.7</ele>
        <time>2022-05-01T14:09:01Z</time>
      </trkpt>
      <trkpt lat="43.18061" lon="5.58">
        <ele>269.8</ele>
        <time>2022-05-01T14:09:14Z</time>
      </trkpt>
      <trkpt lat="43.18062" lon="5.57987">
        <ele>271.7</ele>
        <time>2022-05-01T14:09:26Z</time>
      </trkpt>
      <trkpt lat="43.18061" lon="5.57974">
        <ele>273.8</ele>
        <time>2022-05-01T14:09:38Z</time>
      </trkpt>
      <trkpt lat="43.1806" lon="5.57961">
        <ele>275.6</ele>
        <time>2022-05-01T14:09:50Z</time>
      </trkpt>
      <trkpt lat="43.18061" lon="5.57948">
        <ele>277.4</ele>
        <time>2022-05-01T14:10:01Z</time>
      </trkpt>
      <trkpt lat="43.18059" lon="5.57935">
        <ele>279.4</ele>
        <time>2022-05-01T14:10:13Z</time>
      </trkpt>
      <trkpt lat="43.1806" lon="5.57923">
        <ele>281.5</ele>
        <time>2022-05-01T14:10:24Z</time>
      </trkpt>
      <trkpt lat="43.18063" lon="5.5791">
        <ele>283</ele>
        <time>2022-05-01T14:10:37Z</time>
      </trkpt>
      <trkpt lat="43.18065" lon="5.57897">
        <ele>284.4</ele>
        <time>2022-05-01T14:10:49Z</time>
      </trkpt>
      <trkpt lat="43.18067" lon="5.57885">
        <ele>286.3</ele>
        <time>2022-05-01T14:11:00Z</time>
      </trkpt>
      <trkpt lat="43.18069" lon="5.57872">
        <ele>288.4</ele>
        <time>2022-05-01T14:11:13Z</time>
      </trkpt>
      <trkpt lat="43.18075" lon="5.57862">
        <ele>289.7</ele>
        <time>2022-05-01T14:11:25Z</time>
      </trkpt>
      <trkpt lat="43.1808" lon="5.57852">
        <ele>290.4</ele>
        <time>2022-05-01T14:11:35Z</time>
      </trkpt>
      <trkpt lat="43.18081" lon="5.57839">
        <ele>291.9</ele>
        <time>2022-05-01T14:11:47Z</time>
      </trkpt>
      <trkpt lat="43.18081" lon="5.57826">
        <ele>294.3</ele>
        <time>2022-05-01T14:11:59Z</time>
      </trkpt>
      <trkpt lat="43.18081" lon="5.57813">
        <ele>296.1</ele>
        <time>2022-05-01T14:12:11Z</time>
      </trkpt>
      <trkpt lat="43.18081" lon="5.578">
        <ele>297.8</ele>
        <time>2022-05-01T14:12:24Z</time>
      </trkpt>
      <trkpt lat="43.18084" lon="5.57787">
        <ele>299.7</ele>
        <time>2022-05-01T14:12:35Z</time>
      </trkpt>
      <trkpt lat="43.18081" lon="5.57775">
        <ele>301.3</ele>
        <time>2022-05-01T14:12:49Z</time>
      </trkpt>
      <trkpt lat="43.18073" lon="5.57769">
        <ele>303.1</ele>
        <time>2022-05-01T14:13:01Z</time>
      </trkpt>
      <trkpt lat="43.18065" lon="5.5776">
        <ele>305.2</ele>
        <time>2022-05-01T14:13:15Z</time>
      </trkpt>
      <trkpt lat="43.18058" lon="5.5775">
        <ele>306.8</ele>
        <time>2022-05-01T14:13:27Z</time>
      </trkpt>
      <trkpt lat="43.18052" lon="5.5774">
        <ele>308.6</ele>
        <time>2022-05-01T14:13:39Z</time>
      </trkpt>
      <trkpt lat="43.18043" lon="5.57742">
        <ele>310.4</ele>
        <time>2022-05-01T14:13:52Z</time>
      </trkpt>
      <trkpt lat="43.18038" lon="5.57752">
        <ele>310.7</ele>
        <time>2022-05-01T14:14:29Z</time>
      </trkpt>
      <trkpt lat="43.18034" lon="5.57765">
        <ele>309.5</ele>
        <time>2022-05-01T14:14:41Z</time>
      </trkpt>
      <trkpt lat="43.1803" lon="5.57776">
        <ele>308.1</ele>
        <time>2022-05-01T14:14:51Z</time>
      </trkpt>
      <trkpt lat="43.18027" lon="5.57789">
        <ele>307.1</ele>
        <time>2022-05-01T14:15:01Z</time>
      </trkpt>
      <trkpt lat="43.18024" lon="5.57801">
        <ele>305.7</ele>
        <time>2022-05-01T14:15:11Z</time>
      </trkpt>
      <trkpt lat="43.1802" lon="5.57812">
        <ele>304.1</ele>
        <time>2022-05-01T14:15:20Z</time>
      </trkpt>
      <trkpt lat="43.18016" lon="5.57824">
        <ele>303.2</ele>
        <time>2022-05-01T14:15:30Z</time>
      </trkpt>
      <trkpt lat="43.18013" lon="5.57836">
        <ele>301.6</ele>
        <time>2022-05-01T14:15:40Z</time>
      </trkpt>
      <trkpt lat="43.18008" lon="5.57848">
        <ele>300.3</ele>
        <time>2022-05-01T14:15:50Z</time>
      </trkpt>
      <trkpt lat="43.18001" lon="5.57859">
        <ele>299</ele>
        <time>2022-05-01T14:16:03Z</time>
      </trkpt>
      <trkpt lat="43.17995" lon="5.57868">
        <ele>298.1</ele>
        <time>2022-05-01T14:16:11Z</time>
      </trkpt>
      <trkpt lat="43.17988" lon="5.57878">
        <ele>297</ele>
        <time>2022-05-01T14:16:20Z</time>
      </trkpt>
      <trkpt lat="43.17981" lon="5.57886">
        <ele>296.2</ele>
        <time>2022-05-01T14:16:28Z</time>
      </trkpt>
      <trkpt lat="43.17974" lon="5.57895">
        <ele>295</ele>
        <time>2022-05-01T14:16:37Z</time>
      </trkpt>
      <trkpt lat="43.17967" lon="5.57902">
        <ele>294.4</ele>
        <time>2022-05-01T14:16:45Z</time>
      </trkpt>
      <trkpt lat="43.17959" lon="5.5791">
        <ele>294</ele>
        <time>2022-05-01T14:16:54Z</time>
      </trkpt>
      <trkpt lat="43.17951" lon="5.57917">
        <ele>293.2</ele>
        <time>2022-05-01T14:17:03Z</time>
      </trkpt>
      <trkpt lat="43.17943" lon="5.57923">
        <ele>292.5</ele>
        <time>2022-05-01T14:17:11Z</time>
      </trkpt>
      <trkpt lat="43.17935" lon="5.5793">
        <ele>292.4</ele>
        <time>2022-05-01T14:17:19Z</time>
      </trkpt>
      <trkpt lat="43.17927" lon="5.57937">
        <ele>292</ele>
        <time>2022-05-01T14:17:27Z</time>
      </trkpt>
      <trkpt lat="43.17918" lon="5.57941">
        <ele>292.1</ele>
        <time>2022-05-01T14:17:35Z</time>
      </trkpt>
      <trkpt lat="43.17909" lon="5.57948">
        <ele>292.6</ele>
        <time>2022-05-01T14:17:53Z</time>
      </trkpt>
      <trkpt lat="43.17902" lon="5.57956">
        <ele>292</ele>
        <time>2022-05-01T14:18:04Z</time>
      </trkpt>
      <trkpt lat="43.17894" lon="5.57962">
        <ele>291.9</ele>
        <time>2022-05-01T14:18:13Z</time>
      </trkpt>
      <trkpt lat="43.17885" lon="5.57968">
        <ele>291.3</ele>
        <time>2022-05-01T14:18:23Z</time>
      </trkpt>
      <trkpt lat="43.17876" lon="5.57971">
        <ele>290.2</ele>
        <time>2022-05-01T14:18:33Z</time>
      </trkpt>
      <trkpt lat="43.17868" lon="5.57975">
        <ele>290.4</ele>
        <time>2022-05-01T14:18:42Z</time>
      </trkpt>
      <trkpt lat="43.17859" lon="5.57978">
        <ele>290.5</ele>
        <time>2022-05-01T14:18:51Z</time>
      </trkpt>
      <trkpt lat="43.1785" lon="5.57982">
        <ele>290.8</ele>
        <time>2022-05-01T14:19:00Z</time>
      </trkpt>
      <trkpt lat="43.17842" lon="5.57988">
        <ele>290.2</ele>
        <time>2022-05-01T14:19:11Z</time>
      </trkpt>
      <trkpt lat="43.17833" lon="5.57994">
        <ele>290</ele>
        <time>2022-05-01T14:19:20Z</time>
      </trkpt>
      <trkpt lat="43.17824" lon="5.58">
        <ele>289.3</ele>
        <time>2022-05-01T14:19:29Z</time>
      </trkpt>
      <trkpt lat="43.17816" lon="5.58006">
        <ele>288.6</ele>
        <time>2022-05-01T14:19:38Z</time>
      </trkpt>
      <trkpt lat="43.17809" lon="5.58014">
        <ele>288.1</ele>
        <time>2022-05-01T14:19:48Z</time>
      </trkpt>
      <trkpt lat="43.17803" lon="5.58024">
        <ele>286.7</ele>
        <time>2022-05-01T14:19:58Z</time>
      </trkpt>
      <trkpt lat="43.17798" lon="5.58035">
        <ele>285.6</ele>
        <time>2022-05-01T14:20:08Z</time>
      </trkpt>
      <trkpt lat="43.17793" lon="5.58046">
        <ele>284.9</ele>
        <time>2022-05-01T14:20:17Z</time>
      </trkpt>
      <trkpt lat="43.17788" lon="5.58057">
        <ele>283.6</ele>
        <time>2022-05-01T14:20:26Z</time>
      </trkpt>
      <trkpt lat="43.17782" lon="5.58068">
        <ele>282.6</ele>
        <time>2022-05-01T14:20:36Z</time>
      </trkpt>
      <trkpt lat="43.17777" lon="5.5808">
        <ele>281.9</ele>
        <time>2022-05-01T14:20:45Z</time>
      </trkpt>
      <trkpt lat="43.17773" lon="5.58091">
        <ele>281.1</ele>
        <time>2022-05-01T14:20:54Z</time>
      </trkpt>
      <trkpt lat="43.17766" lon="5.58101">
        <ele>281</ele>
        <time>2022-05-01T14:22:12Z</time>
      </trkpt>
      <trkpt lat="43.17763" lon="5.58112">
        <ele>280.4</ele>
        <time>2022-05-01T14:22:25Z</time>
      </trkpt>
      <trkpt lat="43.17759" lon="5.58124">
        <ele>279.5</ele>
        <time>2022-05-01T14:22:35Z</time>
      </trkpt>
      <trkpt lat="43.17755" lon="5.58136">
        <ele>278.5</ele>
        <time>2022-05-01T14:22:45Z</time>
      </trkpt>
      <trkpt lat="43.17751" lon="5.58147">
        <ele>277.5</ele>
        <time>2022-05-01T14:22:55Z</time>
      </trkpt>
      <trkpt lat="43.17747" lon="5.58159">
        <ele>276.9</ele>
        <time>2022-05-01T14:23:04Z</time>
      </trkpt>
      <trkpt lat="43.17742" lon="5.5817">
        <ele>276.1</ele>
        <time>2022-05-01T14:23:13Z</time>
      </trkpt>
      <trkpt lat="43.17736" lon="5.58181">
        <ele>275.6</ele>
        <time>2022-05-01T14:23:22Z</time>
      </trkpt>
      <trkpt lat="43.17732" lon="5.58192">
        <ele>274.8</ele>
        <time>2022-05-01T14:23:31Z</time>
      </trkpt>
      <trkpt lat="43.17726" lon="5.58202">
        <ele>274.1</ele>
        <time>2022-05-01T14:23:39Z</time>
      </trkpt>
      <trkpt lat="43.1772" lon="5.58212">
        <ele>273.4</ele>
        <time>2022-05-01T14:23:48Z</time>
      </trkpt>
      <trkpt lat="43.17714" lon="5.58222">
        <ele>272.3</ele>
        <time>2022-05-01T14:23:56Z</time>
      </trkpt>
      <trkpt lat="43.17709" lon="5.58234">
        <ele>271.1</ele>
        <time>2022-05-01T14:24:05Z</time>
      </trkpt>
      <trkpt lat="43.17705" lon="5.58245">
        <ele>269.9</ele>
        <time>2022-05-01T14:24:13Z</time>
      </trkpt>
      <trkpt lat="43.177" lon="5.58257">
        <ele>267.9</ele>
        <time>2022-05-01T14:24:23Z</time>
      </trkpt>
      <trkpt lat="43.17696" lon="5.58269">
        <ele>266.8</ele>
        <time>2022-05-01T14:24:32Z</time>
      </trkpt>
      <trkpt lat="43.17693" lon="5.58282">
        <ele>265.3</ele>
        <time>2022-05-01T14:24:42Z</time>
      </trkpt>
      <trkpt lat="43.17689" lon="5.58294">
        <ele>263.7</ele>
        <time>2022-05-01T14:24:51Z</time>
      </trkpt>
      <trkpt lat="43.17687" lon="5.58307">
        <ele>261.5</ele>
        <time>2022-05-01T14:25:07Z</time>
      </trkpt>
      <trkpt lat="43.17684" lon="5.58319">
        <ele>260.2</ele>
        <time>2022-05-01T14:25:29Z</time>
      </trkpt>
      <trkpt lat="43.17682" lon="5.58332">
        <ele>259</ele>
        <time>2022-05-01T14:25:49Z</time>
      </trkpt>
      <trkpt lat="43.1768" lon="5.58345">
        <ele>257.6</ele>
        <time>2022-05-01T14:25:59Z</time>
      </trkpt>
      <trkpt lat="43.17677" lon="5.58358">
        <ele>255.9</ele>
        <time>2022-05-01T14:26:08Z</time>
      </trkpt>
      <trkpt lat="43.17674" lon="5.58371">
        <ele>254.9</ele>
        <time>2022-05-01T14:26:17Z</time>
      </trkpt>
      <trkpt lat="43.17672" lon="5.58383">
        <ele>254</ele>
        <time>2022-05-01T14:26:26Z</time>
      </trkpt>
      <trkpt lat="43.17669" lon="5.58395">
        <ele>253.2</ele>
        <time>2022-05-01T14:26:35Z</time>
      </trkpt>
      <trkpt lat="43.17667" lon="5.58407">
        <ele>252.7</ele>
        <time>2022-05-01T14:26:43Z</time>
      </trkpt>
      <trkpt lat="43.17662" lon="5.5842">
        <ele>251.9</ele>
        <time>2022-05-01T14:26:52Z</time>
      </trkpt>
      <trkpt lat="43.17655" lon="5.58429">
        <ele>251.6</ele>
        <time>2022-05-01T14:27:01Z</time>
      </trkpt>
      <trkpt lat="43.1765" lon="5.58441">
        <ele>250.9</ele>
        <time>2022-05-01T14:27:10Z</time>
      </trkpt>
      <trkpt lat="43.17644" lon="5.58452">
        <ele>249.9</ele>
        <time>2022-05-01T14:27:19Z</time>
      </trkpt>
      <trkpt lat="43.1764" lon="5.58463">
        <ele>248.7</ele>
        <time>2022-05-01T14:27:28Z</time>
      </trkpt>
      <trkpt lat="43.17635" lon="5.58474">
        <ele>247.6</ele>
        <time>2022-05-01T14:27:36Z</time>
      </trkpt>
      <trkpt lat="43.17631" lon="5.58485">
        <ele>246.3</ele>
        <time>2022-05-01T14:27:44Z</time>
      </trkpt>
      <trkpt lat="43.17626" lon="5.58497">
        <ele>245</ele>
        <time>2022-05-01T14:27:53Z</time>
      </trkpt>
      <trkpt lat="43.17621" lon="5.58509">
        <ele>243.9</ele>
        <time>2022-05-01T14:28:02Z</time>
      </trkpt>
      <trkpt lat="43.17616" lon="5.58518">
        <ele>242.8</ele>
        <time>2022-05-01T14:28:11Z</time>
      </trkpt>
      <trkpt lat="43.17609" lon="5.58527">
        <ele>241.7</ele>
        <time>2022-05-01T14:28:20Z</time>
      </trkpt>
      <trkpt lat="43.17602" lon="5.58537">
        <ele>240.7</ele>
        <time>2022-05-01T14:28:29Z</time>
      </trkpt>
      <trkpt lat="43.17596" lon="5.58547">
        <ele>239.9</ele>
        <time>2022-05-01T14:28:37Z</time>
      </trkpt>
      <trkpt lat="43.1759" lon="5.58558">
        <ele>239</ele>
        <time>2022-05-01T14:28:46Z</time>
      </trkpt>
      <trkpt lat="43.17584" lon="5.58569">
        <ele>237.9</ele>
        <time>2022-05-01T14:28:54Z</time>
      </trkpt>
      <trkpt lat="43.17579" lon="5.5858">
        <ele>236.7</ele>
        <time>2022-05-01T14:29:02Z</time>
      </trkpt>
      <trkpt lat="43.17574" lon="5.58591">
        <ele>235.6</ele>
        <time>2022-05-01T14:29:10Z</time>
      </trkpt>
      <trkpt lat="43.17568" lon="5.58601">
        <ele>235</ele>
        <time>2022-05-01T14:29:18Z</time>
      </trkpt>
      <trkpt lat="43.17565" lon="5.58613">
        <ele>233.9</ele>
        <time>2022-05-01T14:29:26Z</time>
      </trkpt>
      <trkpt lat="43.1756" lon="5.58625">
        <ele>232.2</ele>
        <time>2022-05-01T14:29:35Z</time>
      </trkpt>
      <trkpt lat="43.17554" lon="5.58636">
        <ele>230.9</ele>
        <time>2022-05-01T14:29:44Z</time>
      </trkpt>
      <trkpt lat="43.17549" lon="5.58646">
        <ele>229.7</ele>
        <time>2022-05-01T14:29:53Z</time>
      </trkpt>
      <trkpt lat="43.17543" lon="5.58656">
        <ele>228.4</ele>
        <time>2022-05-01T14:30:02Z</time>
      </trkpt>
      <trkpt lat="43.17537" lon="5.58667">
        <ele>227.4</ele>
        <time>2022-05-01T14:30:12Z</time>
      </trkpt>
      <trkpt lat="43.17531" lon="5.58677">
        <ele>226.2</ele>
        <time>2022-05-01T14:30:22Z</time>
      </trkpt>
      <trkpt lat="43.17524" lon="5.58687">
        <ele>224.8</ele>
        <time>2022-05-01T14:30:32Z</time>
      </trkpt>
      <trkpt lat="43.17518" lon="5.58697">
        <ele>223.6</ele>
        <time>2022-05-01T14:30:40Z</time>
      </trkpt>
      <trkpt lat="43.17513" lon="5.58707">
        <ele>222.6</ele>
        <time>2022-05-01T14:30:48Z</time>
      </trkpt>
      <trkpt lat="43.17508" lon="5.58719">
        <ele>221.9</ele>
        <time>2022-05-01T14:30:57Z</time>
      </trkpt>
      <trkpt lat="43.17502" lon="5.5873">
        <ele>220.7</ele>
        <time>2022-05-01T14:31:07Z</time>
      </trkpt>
      <trkpt lat="43.17496" lon="5.5874">
        <ele>219.6</ele>
        <time>2022-05-01T14:31:16Z</time>
      </trkpt>
      <trkpt lat="43.17492" lon="5.58753">
        <ele>218.7</ele>
        <time>2022-05-01T14:31:26Z</time>
      </trkpt>
      <trkpt lat="43.17488" lon="5.58764">
        <ele>217.5</ele>
        <time>2022-05-01T14:31:35Z</time>
      </trkpt>
      <trkpt lat="43.17483" lon="5.58776">
        <ele>215.3</ele>
        <time>2022-05-01T14:31:49Z</time>
      </trkpt>
      <trkpt lat="43.1748" lon="5.58787">
        <ele>214.5</ele>
        <time>2022-05-01T14:32:02Z</time>
      </trkpt>
      <trkpt lat="43.17478" lon="5.588">
        <ele>212.9</ele>
        <time>2022-05-01T14:32:15Z</time>
      </trkpt>
      <trkpt lat="43.17468" lon="5.58803">
        <ele>211.6</ele>
        <time>2022-05-01T14:32:29Z</time>
      </trkpt>
      <trkpt lat="43.1747" lon="5.58816">
        <ele>210.8</ele>
        <time>2022-05-01T14:34:03Z</time>
      </trkpt>
      <trkpt lat="43.1747" lon="5.5883">
        <ele>209.5</ele>
        <time>2022-05-01T14:34:19Z</time>
      </trkpt>
      <trkpt lat="43.17466" lon="5.58842">
        <ele>207.4</ele>
        <time>2022-05-01T14:34:30Z</time>
      </trkpt>
      <trkpt lat="43.17461" lon="5.58853">
        <ele>205.1</ele>
        <time>2022-05-01T14:34:41Z</time>
      </trkpt>
      <trkpt lat="43.17457" lon="5.58865">
        <ele>203.2</ele>
        <time>2022-05-01T14:35:00Z</time>
      </trkpt>
      <trkpt lat="43.17456" lon="5.58877">
        <ele>201.5</ele>
        <time>2022-05-01T14:35:09Z</time>
      </trkpt>
      <trkpt lat="43.1745" lon="5.58887">
        <ele>199.5</ele>
        <time>2022-05-01T14:35:19Z</time>
      </trkpt>
      <trkpt lat="43.17448" lon="5.589">
        <ele>198</ele>
        <time>2022-05-01T14:35:31Z</time>
      </trkpt>
      <trkpt lat="43.17445" lon="5.58912">
        <ele>196.3</ele>
        <time>2022-05-01T14:35:42Z</time>
      </trkpt>
      <trkpt lat="43.1744" lon="5.58923">
        <ele>194.1</ele>
        <time>2022-05-01T14:35:53Z</time>
      </trkpt>
      <trkpt lat="43.17433" lon="5.58931">
        <ele>192.5</ele>
        <time>2022-05-01T14:36:03Z</time>
      </trkpt>
      <trkpt lat="43.17429" lon="5.58944">
        <ele>190.9</ele>
        <time>2022-05-01T14:36:15Z</time>
      </trkpt>
      <trkpt lat="43.17428" lon="5.58956">
        <ele>189</ele>
        <time>2022-05-01T14:36:34Z</time>
      </trkpt>
      <trkpt lat="43.17427" lon="5.58969">
        <ele>186.8</ele>
        <time>2022-05-01T14:36:49Z</time>
      </trkpt>
      <trkpt lat="43.17427" lon="5.58982">
        <ele>185.3</ele>
        <time>2022-05-01T14:37:00Z</time>
      </trkpt>
      <trkpt lat="43.17425" lon="5.58995">
        <ele>183.1</ele>
        <time>2022-05-01T14:37:11Z</time>
      </trkpt>
      <trkpt lat="43.17423" lon="5.59007">
        <ele>181.4</ele>
        <time>2022-05-01T14:37:21Z</time>
      </trkpt>
      <trkpt lat="43.17422" lon="5.5902">
        <ele>179.7</ele>
        <time>2022-05-01T14:37:31Z</time>
      </trkpt>
      <trkpt lat="43.17422" lon="5.59032">
        <ele>177.4</ele>
        <time>2022-05-01T14:37:41Z</time>
      </trkpt>
      <trkpt lat="43.17419" lon="5.59044">
        <ele>175.6</ele>
        <time>2022-05-01T14:37:50Z</time>
      </trkpt>
      <trkpt lat="43.17418" lon="5.59057">
        <ele>173.4</ele>
        <time>2022-05-01T14:38:00Z</time>
      </trkpt>
      <trkpt lat="43.17416" lon="5.5907">
        <ele>171.6</ele>
        <time>2022-05-01T14:38:09Z</time>
      </trkpt>
      <trkpt lat="43.17416" lon="5.59083">
        <ele>169.9</ele>
        <time>2022-05-01T14:38:19Z</time>
      </trkpt>
      <trkpt lat="43.17415" lon="5.59095">
        <ele>168.2</ele>
        <time>2022-05-01T14:38:28Z</time>
      </trkpt>
      <trkpt lat="43.17414" lon="5.59108">
        <ele>166.1</ele>
        <time>2022-05-01T14:38:41Z</time>
      </trkpt>
      <trkpt lat="43.17409" lon="5.59097">
        <ele>166</ele>
        <time>2022-05-01T14:39:05Z</time>
      </trkpt>
      <trkpt lat="43.17405" lon="5.59086">
        <ele>166.5</ele>
        <time>2022-05-01T14:39:17Z</time>
      </trkpt>
      <trkpt lat="43.17402" lon="5.59074">
        <ele>167.1</ele>
        <time>2022-05-01T14:39:27Z</time>
      </trkpt>
      <trkpt lat="43.17399" lon="5.59061">
        <ele>167.5</ele>
        <time>2022-05-01T14:39:36Z</time>
      </trkpt>
      <trkpt lat="43.17396" lon="5.59049">
        <ele>167.7</ele>
        <time>2022-05-01T14:39:45Z</time>
      </trkpt>
      <trkpt lat="43.17392" lon="5.59037">
        <ele>168.1</ele>
        <time>2022-05-01T14:39:54Z</time>
      </trkpt>
      <trkpt lat="43.17387" lon="5.59025">
        <ele>169</ele>
        <time>2022-05-01T14:40:03Z</time>
      </trkpt>
      <trkpt lat="43.17381" lon="5.59015">
        <ele>170.4</ele>
        <time>2022-05-01T14:40:12Z</time>
      </trkpt>
      <trkpt lat="43.17379" lon="5.59003">
        <ele>172.3</ele>
        <time>2022-05-01T14:40:25Z</time>
      </trkpt>
      <trkpt lat="43.17379" lon="5.5899">
        <ele>173.8</ele>
        <time>2022-05-01T14:40:35Z</time>
      </trkpt>
      <trkpt lat="43.17383" lon="5.58978">
        <ele>175.1</ele>
        <time>2022-05-01T14:40:45Z</time>
      </trkpt>
      <trkpt lat="43.17386" lon="5.58965">
        <ele>175.8</ele>
        <time>2022-05-01T14:40:54Z</time>
      </trkpt>
      <trkpt lat="43.17389" lon="5.58953">
        <ele>176.5</ele>
        <time>2022-05-01T14:41:03Z</time>
      </trkpt>
      <trkpt lat="43.17391" lon="5.58941">
        <ele>177.2</ele>
        <time>2022-05-01T14:41:13Z</time>
      </trkpt>
      <trkpt lat="43.17394" lon="5.58929">
        <ele>177.5</ele>
        <time>2022-05-01T14:41:29Z</time>
      </trkpt>
      <trkpt lat="43.17397" lon="5.58916">
        <ele>178.2</ele>
        <time>2022-05-01T14:41:39Z</time>
      </trkpt>
      <trkpt lat="43.17398" lon="5.58903">
        <ele>179</ele>
        <time>2022-05-01T14:41:48Z</time>
      </trkpt>
      <trkpt lat="43.17397" lon="5.5889">
        <ele>180.2</ele>
        <time>2022-05-01T14:41:57Z</time>
      </trkpt>
      <trkpt lat="43.17396" lon="5.58877">
        <ele>180.9</ele>
        <time>2022-05-01T14:42:06Z</time>
      </trkpt>
      <trkpt lat="43.17392" lon="5.58864">
        <ele>181.5</ele>
        <time>2022-05-01T14:42:24Z</time>
      </trkpt>
      <trkpt lat="43.17389" lon="5.58852">
        <ele>182</ele>
        <time>2022-05-01T14:42:35Z</time>
      </trkpt>
      <trkpt lat="43.17386" lon="5.58839">
        <ele>182.6</ele>
        <time>2022-05-01T14:42:43Z</time>
      </trkpt>
      <trkpt lat="43.17383" lon="5.58826">
        <ele>183.1</ele>
        <time>2022-05-01T14:42:52Z</time>
      </trkpt>
      <trkpt lat="43.17381" lon="5.58814">
        <ele>185</ele>
        <time>2022-05-01T14:43:04Z</time>
      </trkpt>
      <trkpt lat="43.17382" lon="5.58801">
        <ele>186.6</ele>
        <time>2022-05-01T14:43:16Z</time>
      </trkpt>
      <trkpt lat="43.17388" lon="5.58791">
        <ele>187.2</ele>
        <time>2022-05-01T14:43:25Z</time>
      </trkpt>
      <trkpt lat="43.17395" lon="5.58782">
        <ele>187.3</ele>
        <time>2022-05-01T14:43:33Z</time>
      </trkpt>
      <trkpt lat="43.17402" lon="5.58775">
        <ele>187.3</ele>
        <time>2022-05-01T14:43:41Z</time>
      </trkpt>
      <trkpt lat="43.17409" lon="5.58765">
        <ele>187.3</ele>
        <time>2022-05-01T14:43:50Z</time>
      </trkpt>
      <trkpt lat="43.17415" lon="5.58756">
        <ele>187.7</ele>
        <time>2022-05-01T14:43:58Z</time>
      </trkpt>
      <trkpt lat="43.17422" lon="5.58746">
        <ele>188.1</ele>
        <time>2022-05-01T14:44:06Z</time>
      </trkpt>
      <trkpt lat="43.17428" lon="5.58736">
        <ele>189</ele>
        <time>2022-05-01T14:44:14Z</time>
      </trkpt>
      <trkpt lat="43.17434" lon="5.58726">
        <ele>190.1</ele>
        <time>2022-05-01T14:44:23Z</time>
      </trkpt>
      <trkpt lat="43.17438" lon="5.58714">
        <ele>191.8</ele>
        <time>2022-05-01T14:44:32Z</time>
      </trkpt>
      <trkpt lat="43.17443" lon="5.58702">
        <ele>192.8</ele>
        <time>2022-05-01T14:44:40Z</time>
      </trkpt>
      <trkpt lat="43.17446" lon="5.5869">
        <ele>193.6</ele>
        <time>2022-05-01T14:44:48Z</time>
      </trkpt>
      <trkpt lat="43.17449" lon="5.58678">
        <ele>195</ele>
        <time>2022-05-01T14:44:56Z</time>
      </trkpt>
      <trkpt lat="43.17452" lon="5.58666">
        <ele>195.9</ele>
        <time>2022-05-01T14:45:04Z</time>
      </trkpt>
      <trkpt lat="43.17453" lon="5.58654">
        <ele>197.2</ele>
        <time>2022-05-01T14:45:12Z</time>
      </trkpt>
      <trkpt lat="43.17455" lon="5.58641">
        <ele>198</ele>
        <time>2022-05-01T14:45:20Z</time>
      </trkpt>
      <trkpt lat="43.17455" lon="5.58628">
        <ele>198.8</ele>
        <time>2022-05-01T14:45:28Z</time>
      </trkpt>
      <trkpt lat="43.17457" lon="5.58615">
        <ele>199.9</ele>
        <time>2022-05-01T14:45:36Z</time>
      </trkpt>
      <trkpt lat="43.17461" lon="5.58605">
        <ele>200.8</ele>
        <time>2022-05-01T14:45:44Z</time>
      </trkpt>
      <trkpt lat="43.17469" lon="5.58595">
        <ele>201.8</ele>
        <time>2022-05-01T14:45:52Z</time>
      </trkpt>
      <trkpt lat="43.17477" lon="5.58586">
        <ele>202</ele>
        <time>2022-05-01T14:45:59Z</time>
      </trkpt>
      <trkpt lat="43.17483" lon="5.58575">
        <ele>202.3</ele>
        <time>2022-05-01T14:46:07Z</time>
      </trkpt>
      <trkpt lat="43.17488" lon="5.58564">
        <ele>202.5</ele>
        <time>2022-05-01T14:46:15Z</time>
      </trkpt>
      <trkpt lat="43.17493" lon="5.58554">
        <ele>202.8</ele>
        <time>2022-05-01T14:46:22Z</time>
      </trkpt>
      <trkpt lat="43.17497" lon="5.58543">
        <ele>202.8</ele>
        <time>2022-05-01T14:46:30Z</time>
      </trkpt>
      <trkpt lat="43.17504" lon="5.58534">
        <ele>202.8</ele>
        <time>2022-05-01T14:46:38Z</time>
      </trkpt>
      <trkpt lat="43.17511" lon="5.58526">
        <ele>203.2</ele>
        <time>2022-05-01T14:46:46Z</time>
      </trkpt>
      <trkpt lat="43.17518" lon="5.58518">
        <ele>203.1</ele>
        <time>2022-05-01T14:46:53Z</time>
      </trkpt>
      <trkpt lat="43.17525" lon="5.58508">
        <ele>203.5</ele>
        <time>2022-05-01T14:47:00Z</time>
      </trkpt>
      <trkpt lat="43.17531" lon="5.58498">
        <ele>203.7</ele>
        <time>2022-05-01T14:47:08Z</time>
      </trkpt>
      <trkpt lat="43.17537" lon="5.58487">
        <ele>204</ele>
        <time>2022-05-01T14:47:15Z</time>
      </trkpt>
      <trkpt lat="43.17542" lon="5.58476">
        <ele>204.7</ele>
        <time>2022-05-01T14:47:23Z</time>
      </trkpt>
      <trkpt lat="43.17547" lon="5.58465">
        <ele>205.3</ele>
        <time>2022-05-01T14:47:30Z</time>
      </trkpt>
      <trkpt lat="43.17553" lon="5.58455">
        <ele>205.9</ele>
        <time>2022-05-01T14:47:37Z</time>
      </trkpt>
      <trkpt lat="43.1756" lon="5.58446">
        <ele>207.5</ele>
        <time>2022-05-01T14:47:46Z</time>
      </trkpt>
      <trkpt lat="43.17566" lon="5.58436">
        <ele>208.8</ele>
        <time>2022-05-01T14:47:54Z</time>
      </trkpt>
      <trkpt lat="43.17571" lon="5.58425">
        <ele>209.7</ele>
        <time>2022-05-01T14:48:02Z</time>
      </trkpt>
      <trkpt lat="43.17576" lon="5.58413">
        <ele>210.3</ele>
        <time>2022-05-01T14:48:10Z</time>
      </trkpt>
      <trkpt lat="43.1758" lon="5.584">
        <ele>210.7</ele>
        <time>2022-05-01T14:48:18Z</time>
      </trkpt>
      <trkpt lat="43.17582" lon="5.58388">
        <ele>211.7</ele>
        <time>2022-05-01T14:48:40Z</time>
      </trkpt>
      <trkpt lat="43.17584" lon="5.58376">
        <ele>211.3</ele>
        <time>2022-05-01T14:48:48Z</time>
      </trkpt>
      <trkpt lat="43.17587" lon="5.58363">
        <ele>211.4</ele>
        <time>2022-05-01T14:48:56Z</time>
      </trkpt>
      <trkpt lat="43.17589" lon="5.5835">
        <ele>212.2</ele>
        <time>2022-05-01T14:49:05Z</time>
      </trkpt>
      <trkpt lat="43.17591" lon="5.58338">
        <ele>213.5</ele>
        <time>2022-05-01T14:49:13Z</time>
      </trkpt>
      <trkpt lat="43.1759" lon="5.58325">
        <ele>215.1</ele>
        <time>2022-05-01T14:49:22Z</time>
      </trkpt>
      <trkpt lat="43.17586" lon="5.58313">
        <ele>216.2</ele>
        <time>2022-05-01T14:49:30Z</time>
      </trkpt>
      <trkpt lat="43.1758" lon="5.58302">
        <ele>218</ele>
        <time>2022-05-01T14:49:39Z</time>
      </trkpt>
      <trkpt lat="43.17577" lon="5.5829">
        <ele>220.2</ele>
        <time>2022-05-01T14:49:48Z</time>
      </trkpt>
      <trkpt lat="43.17574" lon="5.58277">
        <ele>222.4</ele>
        <time>2022-05-01T14:49:58Z</time>
      </trkpt>
      <trkpt lat="43.1757" lon="5.58265">
        <ele>225</ele>
        <time>2022-05-01T14:50:09Z</time>
      </trkpt>
      <trkpt lat="43.17569" lon="5.58252">
        <ele>227.8</ele>
        <time>2022-05-01T14:50:22Z</time>
      </trkpt>
      <trkpt lat="43.17573" lon="5.5824">
        <ele>229.4</ele>
        <time>2022-05-01T14:50:36Z</time>
      </trkpt>
      <trkpt lat="43.17578" lon="5.58229">
        <ele>230.6</ele>
        <time>2022-05-01T14:50:50Z</time>
      </trkpt>
      <trkpt lat="43.17583" lon="5.58218">
        <ele>231.1</ele>
        <time>2022-05-01T14:51:02Z</time>
      </trkpt>
      <trkpt lat="43.17591" lon="5.58208">
        <ele>232</ele>
        <time>2022-05-01T14:51:11Z</time>
      </trkpt>
      <trkpt lat="43.17596" lon="5.58199">
        <ele>232.6</ele>
        <time>2022-05-01T14:51:19Z</time>
      </trkpt>
      <trkpt lat="43.17602" lon="5.58189">
        <ele>233.4</ele>
        <time>2022-05-01T14:51:28Z</time>
      </trkpt>
      <trkpt lat="43.17606" lon="5.58178">
        <ele>234.3</ele>
        <time>2022-05-01T14:51:38Z</time>
      </trkpt>
      <trkpt lat="43.17613" lon="5.58169">
        <ele>235.2</ele>
        <time>2022-05-01T14:51:53Z</time>
      </trkpt>
      <trkpt lat="43.17622" lon="5.58164">
        <ele>235.2</ele>
        <time>2022-05-01T14:52:03Z</time>
      </trkpt>
      <trkpt lat="43.17632" lon="5.58161">
        <ele>234.9</ele>
        <time>2022-05-01T14:52:13Z</time>
      </trkpt>
      <trkpt lat="43.1764" lon="5.58156">
        <ele>234.1</ele>
        <time>2022-05-01T14:52:24Z</time>
      </trkpt>
      <trkpt lat="43.17649" lon="5.58153">
        <ele>233.2</ele>
        <time>2022-05-01T14:52:33Z</time>
      </trkpt>
      <trkpt lat="43.17656" lon="5.58145">
        <ele>231.8</ele>
        <time>2022-05-01T14:52:42Z</time>
      </trkpt>
      <trkpt lat="43.17661" lon="5.58133">
        <ele>231.3</ele>
        <time>2022-05-01T14:52:51Z</time>
      </trkpt>
      <trkpt lat="43.17664" lon="5.5812">
        <ele>231</ele>
        <time>2022-05-01T14:52:59Z</time>
      </trkpt>
      <trkpt lat="43.17669" lon="5.5811">
        <ele>232</ele>
        <time>2022-05-01T14:53:08Z</time>
      </trkpt>
      <trkpt lat="43.17675" lon="5.58099">
        <ele>233.8</ele>
        <time>2022-05-01T14:53:19Z</time>
      </trkpt>
      <trkpt lat="43.17679" lon="5.58089">
        <ele>235.7</ele>
        <time>2022-05-01T14:53:30Z</time>
      </trkpt>
      <trkpt lat="43.17684" lon="5.58077">
        <ele>237.4</ele>
        <time>2022-05-01T14:53:42Z</time>
      </trkpt>
      <trkpt lat="43.17688" lon="5.58066">
        <ele>238.9</ele>
        <time>2022-05-01T14:53:53Z</time>
      </trkpt>
      <trkpt lat="43.17693" lon="5.58055">
        <ele>238.9</ele>
        <time>2022-05-01T14:54:05Z</time>
      </trkpt>
      <trkpt lat="43.17696" lon="5.58043">
        <ele>237</ele>
        <time>2022-05-01T14:54:17Z</time>
      </trkpt>
      <trkpt lat="43.17701" lon="5.58032">
        <ele>236.9</ele>
        <time>2022-05-01T14:54:26Z</time>
      </trkpt>
      <trkpt lat="43.17708" lon="5.58023">
        <ele>238.5</ele>
        <time>2022-05-01T14:54:40Z</time>
      </trkpt>
      <trkpt lat="43.17715" lon="5.58013">
        <ele>241</ele>
        <time>2022-05-01T14:54:53Z</time>
      </trkpt>
      <trkpt lat="43.1772" lon="5.58001">
        <ele>243.1</ele>
        <time>2022-05-01T14:55:05Z</time>
      </trkpt>
      <trkpt lat="43.17725" lon="5.5799">
        <ele>244.8</ele>
        <time>2022-05-01T14:55:18Z</time>
      </trkpt>
      <trkpt lat="43.17728" lon="5.57977">
        <ele>246.3</ele>
        <time>2022-05-01T14:55:32Z</time>
      </trkpt>
      <trkpt lat="43.1773" lon="5.57964">
        <ele>246.8</ele>
        <time>2022-05-01T14:55:42Z</time>
      </trkpt>
      <trkpt lat="43.17734" lon="5.57951">
        <ele>247.6</ele>
        <time>2022-05-01T14:55:52Z</time>
      </trkpt>
      <trkpt lat="43.17736" lon="5.57938">
        <ele>249.3</ele>
        <time>2022-05-01T14:56:02Z</time>
      </trkpt>
      <trkpt lat="43.17739" lon="5.57927">
        <ele>251.4</ele>
        <time>2022-05-01T14:56:16Z</time>
      </trkpt>
      <trkpt lat="43.17741" lon="5.57915">
        <ele>253.5</ele>
        <time>2022-05-01T14:56:30Z</time>
      </trkpt>
      <trkpt lat="43.17743" lon="5.57902">
        <ele>256.8</ele>
        <time>2022-05-01T14:56:48Z</time>
      </trkpt>
      <trkpt lat="43.17741" lon="5.57889">
        <ele>259.4</ele>
        <time>2022-05-01T14:57:02Z</time>
      </trkpt>
      <trkpt lat="43.17741" lon="5.57876">
        <ele>261.9</ele>
        <time>2022-05-01T14:57:19Z</time>
      </trkpt>
      <trkpt lat="43.1774" lon="5.57863">
        <ele>265</ele>
        <time>2022-05-01T14:57:34Z</time>
      </trkpt>
      <trkpt lat="43.17738" lon="5.57851">
        <ele>267.5</ele>
        <time>2022-05-01T14:57:49Z</time>
      </trkpt>
      <trkpt lat="43.17734" lon="5.57839">
        <ele>269.4</ele>
        <time>2022-05-01T14:58:02Z</time>
      </trkpt>
      <trkpt lat="43.17733" lon="5.57826">
        <ele>271.6</ele>
        <time>2022-05-01T14:58:14Z</time>
      </trkpt>
      <trkpt lat="43.17733" lon="5.57813">
        <ele>273.6</ele>
        <time>2022-05-01T14:58:28Z</time>
      </trkpt>
      <trkpt lat="43.17736" lon="5.57801">
        <ele>275.5</ele>
        <time>2022-05-01T14:58:42Z</time>
      </trkpt>
      <trkpt lat="43.17745" lon="5.57796">
        <ele>276.6</ele>
        <time>2022-05-01T14:58:55Z</time>
      </trkpt>
      <trkpt lat="43.17753" lon="5.57791">
        <ele>277.5</ele>
        <time>2022-05-01T14:59:06Z</time>
      </trkpt>
      <trkpt lat="43.1776" lon="5.57783">
        <ele>278.3</ele>
        <time>2022-05-01T14:59:14Z</time>
      </trkpt>
      <trkpt lat="43.17767" lon="5.57775">
        <ele>278.5</ele>
        <time>2022-05-01T14:59:22Z</time>
      </trkpt>
      <trkpt lat="43.17775" lon="5.57766">
        <ele>278.8</ele>
        <time>2022-05-01T14:59:31Z</time>
      </trkpt>
      <trkpt lat="43.17781" lon="5.57757">
        <ele>279.8</ele>
        <time>2022-05-01T14:59:40Z</time>
      </trkpt>
      <trkpt lat="43.17787" lon="5.57748">
        <ele>280.6</ele>
        <time>2022-05-01T14:59:50Z</time>
      </trkpt>
      <trkpt lat="43.17793" lon="5.57739">
        <ele>281.8</ele>
        <time>2022-05-01T14:59:59Z</time>
      </trkpt>
      <trkpt lat="43.17798" lon="5.57727">
        <ele>282.7</ele>
        <time>2022-05-01T15:00:09Z</time>
      </trkpt>
      <trkpt lat="43.17804" lon="5.57717">
        <ele>283.5</ele>
        <time>2022-05-01T15:00:19Z</time>
      </trkpt>
      <trkpt lat="43.17808" lon="5.57705">
        <ele>284.4</ele>
        <time>2022-05-01T15:00:29Z</time>
      </trkpt>
      <trkpt lat="43.17812" lon="5.57694">
        <ele>285.8</ele>
        <time>2022-05-01T15:00:40Z</time>
      </trkpt>
      <trkpt lat="43.17815" lon="5.57681">
        <ele>287.5</ele>
        <time>2022-05-01T15:00:51Z</time>
      </trkpt>
      <trkpt lat="43.17818" lon="5.57669">
        <ele>289.1</ele>
        <time>2022-05-01T15:01:00Z</time>
      </trkpt>
      <trkpt lat="43.17819" lon="5.57657">
        <ele>289.9</ele>
        <time>2022-05-01T15:01:09Z</time>
      </trkpt>
      <trkpt lat="43.17823" lon="5.57645">
        <ele>289.5</ele>
        <time>2022-05-01T15:01:18Z</time>
      </trkpt>
      <trkpt lat="43.17826" lon="5.57632">
        <ele>289.5</ele>
        <time>2022-05-01T15:01:26Z</time>
      </trkpt>
      <trkpt lat="43.17827" lon="5.57619">
        <ele>289.6</ele>
        <time>2022-05-01T15:01:34Z</time>
      </trkpt>
      <trkpt lat="43.17828" lon="5.57606">
        <ele>289.5</ele>
        <time>2022-05-01T15:01:43Z</time>
      </trkpt>
      <trkpt lat="43.17828" lon="5.57593">
        <ele>289.9</ele>
        <time>2022-05-01T15:01:52Z</time>
      </trkpt>
      <trkpt lat="43.17828" lon="5.57579">
        <ele>291.3</ele>
        <time>2022-05-01T15:02:03Z</time>
      </trkpt>
      <trkpt lat="43.17828" lon="5.57567">
        <ele>292.6</ele>
        <time>2022-05-01T15:02:13Z</time>
      </trkpt>
      <trkpt lat="43.17828" lon="5.57554">
        <ele>295.1</ele>
        <time>2022-05-01T15:02:27Z</time>
      </trkpt>
      <trkpt lat="43.17829" lon="5.57541">
        <ele>296.9</ele>
        <time>2022-05-01T15:02:39Z</time>
      </trkpt>
      <trkpt lat="43.1783" lon="5.57529">
        <ele>298</ele>
        <time>2022-05-01T15:02:50Z</time>
      </trkpt>
      <trkpt lat="43.17829" lon="5.57516">
        <ele>299</ele>
        <time>2022-05-01T15:02:59Z</time>
      </trkpt>
      <trkpt lat="43.17827" lon="5.57504">
        <ele>299.3</ele>
        <time>2022-05-01T15:03:07Z</time>
      </trkpt>
      <trkpt lat="43.17824" lon="5.57492">
        <ele>299.2</ele>
        <time>2022-05-01T15:03:14Z</time>
      </trkpt>
      <trkpt lat="43.17818" lon="5.57481">
        <ele>298.6</ele>
        <time>2022-05-01T15:03:23Z</time>
      </trkpt>
      <trkpt lat="43.17813" lon="5.57469">
        <ele>298.6</ele>
        <time>2022-05-01T15:03:34Z</time>
      </trkpt>
      <trkpt lat="43.17806" lon="5.5746">
        <ele>299.3</ele>
        <time>2022-05-01T15:03:43Z</time>
      </trkpt>
      <trkpt lat="43.178" lon="5.5745">
        <ele>300.6</ele>
        <time>2022-05-01T15:03:54Z</time>
      </trkpt>
      <trkpt lat="43.17793" lon="5.5744">
        <ele>302.2</ele>
        <time>2022-05-01T15:04:06Z</time>
      </trkpt>
      <trkpt lat="43.17787" lon="5.5743">
        <ele>303.9</ele>
        <time>2022-05-01T15:04:19Z</time>
      </trkpt>
      <trkpt lat="43.17779" lon="5.57424">
        <ele>305.8</ele>
        <time>2022-05-01T15:04:30Z</time>
      </trkpt>
      <trkpt lat="43.17772" lon="5.57415">
        <ele>307.3</ele>
        <time>2022-05-01T15:04:41Z</time>
      </trkpt>
      <trkpt lat="43.17765" lon="5.57408">
        <ele>308.7</ele>
        <time>2022-05-01T15:04:53Z</time>
      </trkpt>
      <trkpt lat="43.17758" lon="5.574">
        <ele>310.4</ele>
        <time>2022-05-01T15:05:05Z</time>
      </trkpt>
      <trkpt lat="43.17749" lon="5.57395">
        <ele>311.6</ele>
        <time>2022-05-01T15:05:15Z</time>
      </trkpt>
      <trkpt lat="43.17741" lon="5.57389">
        <ele>313.1</ele>
        <time>2022-05-01T15:05:26Z</time>
      </trkpt>
      <trkpt lat="43.17733" lon="5.57382">
        <ele>315.1</ele>
        <time>2022-05-01T15:05:39Z</time>
      </trkpt>
      <trkpt lat="43.17724" lon="5.57377">
        <ele>316.5</ele>
        <time>2022-05-01T15:05:51Z</time>
      </trkpt>
      <trkpt lat="43.17716" lon="5.57372">
        <ele>318.1</ele>
        <time>2022-05-01T15:06:03Z</time>
      </trkpt>
      <trkpt lat="43.17707" lon="5.57367">
        <ele>319.4</ele>
        <time>2022-05-01T15:06:13Z</time>
      </trkpt>
      <trkpt lat="43.17698" lon="5.57362">
        <ele>320.7</ele>
        <time>2022-05-01T15:06:24Z</time>
      </trkpt>
      <trkpt lat="43.17694" lon="5.57351">
        <ele>323.3</ele>
        <time>2022-05-01T15:06:41Z</time>
      </trkpt>
      <trkpt lat="43.17695" lon="5.57338">
        <ele>325.3</ele>
        <time>2022-05-01T15:06:56Z</time>
      </trkpt>
      <trkpt lat="43.17702" lon="5.5733">
        <ele>326.4</ele>
        <time>2022-05-01T15:07:08Z</time>
      </trkpt>
      <trkpt lat="43.17709" lon="5.5732">
        <ele>327.4</ele>
        <time>2022-05-01T15:07:19Z</time>
      </trkpt>
      <trkpt lat="43.17717" lon="5.57315">
        <ele>328.9</ele>
        <time>2022-05-01T15:11:40Z</time>
      </trkpt>
      <trkpt lat="43.17724" lon="5.57307">
        <ele>329.7</ele>
        <time>2022-05-01T15:12:42Z</time>
      </trkpt>
      <trkpt lat="43.17731" lon="5.57297">
        <ele>330.7</ele>
        <time>2022-05-01T15:12:54Z</time>
      </trkpt>
      <trkpt lat="43.17738" lon="5.57289">
        <ele>331.7</ele>
        <time>2022-05-01T15:13:06Z</time>
      </trkpt>
      <trkpt lat="43.17745" lon="5.57281">
        <ele>332.8</ele>
        <time>2022-05-01T15:13:16Z</time>
      </trkpt>
      <trkpt lat="43.17754" lon="5.57278">
        <ele>333.5</ele>
        <time>2022-05-01T15:13:29Z</time>
      </trkpt>
      <trkpt lat="43.17764" lon="5.57274">
        <ele>334.1</ele>
        <time>2022-05-01T15:13:39Z</time>
      </trkpt>
      <trkpt lat="43.17773" lon="5.57275">
        <ele>335.2</ele>
        <time>2022-05-01T15:13:50Z</time>
      </trkpt>
      <trkpt lat="43.17782" lon="5.57275">
        <ele>335.8</ele>
        <time>2022-05-01T15:14:01Z</time>
      </trkpt>
      <trkpt lat="43.17791" lon="5.57273">
        <ele>337</ele>
        <time>2022-05-01T15:14:13Z</time>
      </trkpt>
      <trkpt lat="43.178" lon="5.5727">
        <ele>337.1</ele>
        <time>2022-05-01T15:14:47Z</time>
      </trkpt>
      <trkpt lat="43.17809" lon="5.57275">
        <ele>337.4</ele>
        <time>2022-05-01T15:14:55Z</time>
      </trkpt>
      <trkpt lat="43.17817" lon="5.57281">
        <ele>337.9</ele>
        <time>2022-05-01T15:15:03Z</time>
      </trkpt>
      <trkpt lat="43.17826" lon="5.57284">
        <ele>338.3</ele>
        <time>2022-05-01T15:15:12Z</time>
      </trkpt>
      <trkpt lat="43.17833" lon="5.57291">
        <ele>339</ele>
        <time>2022-05-01T15:15:25Z</time>
      </trkpt>
      <trkpt lat="43.17843" lon="5.57295">
        <ele>338.7</ele>
        <time>2022-05-01T15:15:34Z</time>
      </trkpt>
      <trkpt lat="43.17851" lon="5.57301">
        <ele>338.7</ele>
        <time>2022-05-01T15:15:42Z</time>
      </trkpt>
      <trkpt lat="43.1786" lon="5.57305">
        <ele>338.6</ele>
        <time>2022-05-01T15:15:51Z</time>
      </trkpt>
      <trkpt lat="43.17869" lon="5.5731">
        <ele>338.9</ele>
        <time>2022-05-01T15:15:58Z</time>
      </trkpt>
      <trkpt lat="43.17877" lon="5.57315">
        <ele>339.6</ele>
        <time>2022-05-01T15:16:06Z</time>
      </trkpt>
      <trkpt lat="43.17886" lon="5.57317">
        <ele>340.3</ele>
        <time>2022-05-01T15:16:15Z</time>
      </trkpt>
      <trkpt lat="43.17896" lon="5.5732">
        <ele>340.7</ele>
        <time>2022-05-01T15:16:23Z</time>
      </trkpt>
      <trkpt lat="43.17906" lon="5.5732">
        <ele>340.9</ele>
        <time>2022-05-01T15:16:30Z</time>
      </trkpt>
      <trkpt lat="43.17916" lon="5.57321">
        <ele>341.6</ele>
        <time>2022-05-01T15:16:39Z</time>
      </trkpt>
      <trkpt lat="43.17926" lon="5.57321">
        <ele>342.1</ele>
        <time>2022-05-01T15:16:47Z</time>
      </trkpt>
      <trkpt lat="43.17935" lon="5.57321">
        <ele>342.3</ele>
        <time>2022-05-01T15:16:54Z</time>
      </trkpt>
      <trkpt lat="43.17945" lon="5.57322">
        <ele>342.2</ele>
        <time>2022-05-01T15:17:01Z</time>
      </trkpt>
      <trkpt lat="43.17954" lon="5.57319">
        <ele>342.2</ele>
        <time>2022-05-01T15:17:08Z</time>
      </trkpt>
      <trkpt lat="43.17962" lon="5.57311">
        <ele>341.6</ele>
        <time>2022-05-01T15:17:16Z</time>
      </trkpt>
      <trkpt lat="43.17966" lon="5.573">
        <ele>341.2</ele>
        <time>2022-05-01T15:17:22Z</time>
      </trkpt>
      <trkpt lat="43.17974" lon="5.57294">
        <ele>340.8</ele>
        <time>2022-05-01T15:17:29Z</time>
      </trkpt>
      <trkpt lat="43.17983" lon="5.5729">
        <ele>340.1</ele>
        <time>2022-05-01T15:17:35Z</time>
      </trkpt>
      <trkpt lat="43.17991" lon="5.57285">
        <ele>339.9</ele>
        <time>2022-05-01T15:17:42Z</time>
      </trkpt>
      <trkpt lat="43.17997" lon="5.57274">
        <ele>339.7</ele>
        <time>2022-05-01T15:17:49Z</time>
      </trkpt>
      <trkpt lat="43.18005" lon="5.57269">
        <ele>339.7</ele>
        <time>2022-05-01T15:17:57Z</time>
      </trkpt>
      <trkpt lat="43.18013" lon="5.57261">
        <ele>339.6</ele>
        <time>2022-05-01T15:18:04Z</time>
      </trkpt>
      <trkpt lat="43.18021" lon="5.57254">
        <ele>339.9</ele>
        <time>2022-05-01T15:18:12Z</time>
      </trkpt>
      <trkpt lat="43.1803" lon="5.57247">
        <ele>339.8</ele>
        <time>2022-05-01T15:18:19Z</time>
      </trkpt>
      <trkpt lat="43.18038" lon="5.57243">
        <ele>340.2</ele>
        <time>2022-05-01T15:18:26Z</time>
      </trkpt>
      <trkpt lat="43.18047" lon="5.57238">
        <ele>340</ele>
        <time>2022-05-01T15:18:34Z</time>
      </trkpt>
      <trkpt lat="43.18054" lon="5.57229">
        <ele>340.2</ele>
        <time>2022-05-01T15:18:42Z</time>
      </trkpt>
      <trkpt lat="43.18059" lon="5.57218">
        <ele>340.8</ele>
        <time>2022-05-01T15:18:49Z</time>
      </trkpt>
      <trkpt lat="43.18067" lon="5.57209">
        <ele>341.6</ele>
        <time>2022-05-01T15:18:57Z</time>
      </trkpt>
      <trkpt lat="43.18073" lon="5.57199">
        <ele>342</ele>
        <time>2022-05-01T15:19:04Z</time>
      </trkpt>
      <trkpt lat="43.1808" lon="5.5719">
        <ele>342.7</ele>
        <time>2022-05-01T15:19:12Z</time>
      </trkpt>
      <trkpt lat="43.18087" lon="5.57179">
        <ele>343.9</ele>
        <time>2022-05-01T15:19:21Z</time>
      </trkpt>
      <trkpt lat="43.18092" lon="5.57168">
        <ele>344.7</ele>
        <time>2022-05-01T15:19:29Z</time>
      </trkpt>
      <trkpt lat="43.18099" lon="5.57158">
        <ele>346.1</ele>
        <time>2022-05-01T15:19:38Z</time>
      </trkpt>
      <trkpt lat="43.18108" lon="5.57154">
        <ele>347.1</ele>
        <time>2022-05-01T15:19:56Z</time>
      </trkpt>
      <trkpt lat="43.18116" lon="5.57147">
        <ele>348.6</ele>
        <time>2022-05-01T15:20:08Z</time>
      </trkpt>
      <trkpt lat="43.18123" lon="5.57139">
        <ele>349.8</ele>
        <time>2022-05-01T15:20:16Z</time>
      </trkpt>
      <trkpt lat="43.18132" lon="5.57133">
        <ele>350.6</ele>
        <time>2022-05-01T15:20:27Z</time>
      </trkpt>
      <trkpt lat="43.1814" lon="5.57126">
        <ele>351.2</ele>
        <time>2022-05-01T15:20:36Z</time>
      </trkpt>
      <trkpt lat="43.18147" lon="5.57118">
        <ele>351.7</ele>
        <time>2022-05-01T15:20:44Z</time>
      </trkpt>
      <trkpt lat="43.1815" lon="5.57105">
        <ele>352</ele>
        <time>2022-05-01T15:20:54Z</time>
      </trkpt>
      <trkpt lat="43.18156" lon="5.57096">
        <ele>352.3</ele>
        <time>2022-05-01T15:22:56Z</time>
      </trkpt>
      <trkpt lat="43.18156" lon="5.57096">
        <ele>352.6</ele>
        <time>2022-05-01T15:23:10Z</time>
      </trkpt>
    </trkseg>
  </trk>
</gpx>